Darstellungsparameter: Aktuell verwendete Einstellungen:
Skalierung der Graphiken ... ?
xyx+y,   Skalierungsfaktor:      Skalierung: Modus: x, Faktor: 1
Darstellungszeitraum ... ?
Vom - - bis: - -   Zeitraum: 11.04.2020 - 24.04.2020
Min/Max/Avg-Anzeige ... ?
Zeige MMA aktuell
Zeige MMA Monat
Zeige MMA alles
Zeige --A aktuell
Zeige --A Monat
Zeige --A alles
Keine MMA-Anzeige
MMA:
Keine MMA-Graphiken
MMA-Basis: 11.04.2020 - 24.04.2020
Quicknavigation für Darstellung... ?
Tage:      1T, 2T, 3T, 5T -1T -2T -3T -5T +1T +2T +3T +5T
Wochen: 1W, 2W, 3W -1W -2W -3W +1W +2W +3W
Monate: 1M, 3M, 6M -1M -3M -6M +1M +3M +6M
Jahre:    1J, 3J, 5J, 10J -1J -3J -5J -10J +1J +3J +5J +10J
Nutze für die Darstellung ... ?
Originaldaten oder Mittelwerte auf ...
Stundenbasis Tagesbasis Wochenbasis
Monatsbasis Jahresbasis      Datenbasis: Original-Daten
Darstellen als:
Statistik (Auto) Statistik J:M      Darstellung:
Zur Graphik,    zurück zur Übersicht aller Sensoren.
 
Tabellarische Datenbersicht: ?
 
Sensor: Nr:Datum:Temp:Feuchte:
Aussen-T/F 1 11-04-2020 00:01:18 10.5 C 30 %
2 11-04-2020 00:11:18 10.8 C 30 %
3 11-04-2020 00:21:17 10.8 C 30 %
4 11-04-2020 00:31:17 10.1 C 31 %
5 11-04-2020 00:41:18 9.9 C 32 %
6 11-04-2020 00:51:18 10 C 31 %
7 11-04-2020 01:01:17 9.6 C 31 %
8 11-04-2020 01:11:17 9.6 C 32 %
9 11-04-2020 01:21:17 9.1 C 32 %
10 11-04-2020 01:31:18 9.2 C 32 %
11 11-04-2020 01:41:18 9 C 32 %
12 11-04-2020 01:51:18 8.7 C 32 %
13 11-04-2020 02:01:17 8.4 C 32 %
14 11-04-2020 02:11:17 8.2 C 32 %
15 11-04-2020 02:21:18 8.1 C 32 %
16 11-04-2020 02:31:17 8.3 C 32 %
17 11-04-2020 02:41:17 8.1 C 32 %
18 11-04-2020 02:51:17 7.9 C 33 %
19 11-04-2020 03:01:17 8.5 C 31 %
20 11-04-2020 03:11:17 8.7 C 31 %
21 11-04-2020 03:21:17 8.8 C 30 %
22 11-04-2020 03:31:18 8.8 C 30 %
23 11-04-2020 03:41:18 8.2 C 30 %
24 11-04-2020 03:51:17 8.6 C 30 %
25 11-04-2020 04:01:17 8.3 C 30 %
Sensor: Nr:Datum:Temp:Feuchte:
Aussen-T/F 26 11-04-2020 04:11:17 8.3 C 30 %
27 11-04-2020 04:21:17 7.7 C 30 %
28 11-04-2020 04:31:17 7.4 C 30 %
29 11-04-2020 04:41:17 7.5 C 30 %
30 11-04-2020 04:51:17 7.6 C 29 %
31 11-04-2020 05:01:17 7.4 C 29 %
32 11-04-2020 05:11:17 6.9 C 30 %
33 11-04-2020 05:21:17 6.8 C 30 %
34 11-04-2020 05:31:18 6.1 C 31 %
35 11-04-2020 05:41:18 5.8 C 32 %
36 11-04-2020 05:51:17 5.7 C 32 %
37 11-04-2020 06:01:17 5.6 C 32 %
38 11-04-2020 06:11:17 5 C 33 %
39 11-04-2020 06:21:17 4.9 C 35 %
40 11-04-2020 06:31:18 5 C 33 %
41 11-04-2020 06:41:18 4.6 C 35 %
42 11-04-2020 06:51:17 4.6 C 35 %
43 11-04-2020 07:01:18 4.4 C 35 %
44 11-04-2020 07:11:18 4.5 C 35 %
45 11-04-2020 07:21:17 4.4 C 35 %
46 11-04-2020 07:31:18 4.4 C 36 %
47 11-04-2020 07:41:18 4.7 C 35 %
48 11-04-2020 07:51:17 5 C 34 %
49 11-04-2020 08:01:18 5 C 34 %
50 11-04-2020 08:11:18 5 C 35 %
Sensor: Nr:Datum:Temp:Feuchte:
Aussen-T/F 51 11-04-2020 08:21:18 5.1 C 35 %
52 11-04-2020 08:31:18 5.5 C 34 %
53 11-04-2020 08:41:18 6 C 33 %
54 11-04-2020 08:51:18 6.4 C 32 %
55 11-04-2020 09:01:17 6.5 C 33 %
56 11-04-2020 09:11:18 7.1 C 31 %
57 11-04-2020 09:21:17 7.3 C 31 %
58 11-04-2020 09:31:18 7.8 C 31 %
59 11-04-2020 09:41:18 8.2 C 30 %
60 11-04-2020 09:51:17 8.6 C 30 %
61 11-04-2020 10:01:17 9.1 C 29 %
62 11-04-2020 10:11:17 9.5 C 29 %
63 11-04-2020 10:21:17 10.2 C 26 %
64 11-04-2020 10:31:17 10.7 C 27 %
65 11-04-2020 10:41:17 11.5 C 25 %
66 11-04-2020 10:51:17 12.3 C 21 %
67 11-04-2020 11:01:18 12.9 C 20 %
68 11-04-2020 11:11:18 13.7 C 20 %
69 11-04-2020 11:21:17 14.5 C 20 %
70 11-04-2020 11:31:17 15.3 C 20 %
71 11-04-2020 11:41:18 16 C 20 %
72 11-04-2020 11:51:17 16.5 C 20 %
73 11-04-2020 12:01:17 17.2 C 20 %
74 11-04-2020 12:11:17 17.5 C 20 %
75 11-04-2020 12:21:18 18.1 C 20 %
Sensor: Nr:Datum:Temp:Feuchte:
Aussen-T/F 76 11-04-2020 12:31:17 19.1 C 20 %
77 11-04-2020 12:41:17 19.4 C 20 %
78 11-04-2020 12:51:17 19.5 C 20 %
79 11-04-2020 13:01:17 19.6 C 20 %
80 11-04-2020 13:11:17 19.5 C 20 %
81 11-04-2020 13:21:17 19.5 C 20 %
82 11-04-2020 13:31:17 19.6 C 20 %
83 11-04-2020 13:41:17 19.9 C 20 %
84 11-04-2020 13:51:17 20.2 C 20 %
85 11-04-2020 14:01:18 20.9 C 20 %
86 11-04-2020 14:11:18 21.3 C 20 %
87 11-04-2020 14:21:17 21.5 C 20 %
88 11-04-2020 14:31:17 24.4 C 20 %
89 11-04-2020 14:41:17 27.5 C 20 %
90 11-04-2020 14:51:18 27.4 C 20 %
91 11-04-2020 15:01:18 28.6 C 20 %
92 11-04-2020 15:11:18 30.4 C 20 %
93 11-04-2020 15:21:17 29.9 C 20 %
94 11-04-2020 15:31:17 30.4 C 20 %
95 11-04-2020 15:41:17 31.2 C 20 %
96 11-04-2020 15:51:18 31.8 C 20 %
97 11-04-2020 16:01:17 28.5 C 20 %
98 11-04-2020 16:11:17 31.4 C 20 %
99 11-04-2020 16:21:18 30.7 C 20 %
100 11-04-2020 16:31:17 31.5 C 20 %
Sensor: Nr:Datum:Temp:Feuchte:
Aussen-T/F 101 11-04-2020 16:41:17 31.3 C 20 %
102 11-04-2020 16:51:17 32.1 C 20 %
103 11-04-2020 17:01:17 31.8 C 20 %
104 11-04-2020 17:11:17 29.5 C 20 %
105 11-04-2020 17:21:17 29.8 C 20 %
106 11-04-2020 17:31:17 28.7 C 20 %
107 11-04-2020 17:41:17 26.5 C 20 %
108 11-04-2020 17:51:17 27.5 C 20 %
109 11-04-2020 18:01:17 24.2 C 20 %
110 11-04-2020 18:11:17 23.4 C 20 %
111 11-04-2020 18:21:17 23.6 C 20 %
112 11-04-2020 18:31:17 23.6 C 20 %
113 11-04-2020 18:41:17 23.3 C 20 %
114 11-04-2020 18:51:17 22.9 C 20 %
115 11-04-2020 19:01:17 22.9 C 20 %
116 11-04-2020 19:11:17 22.7 C 20 %
117 11-04-2020 19:21:18 22 C 20 %
118 11-04-2020 19:31:17 21.7 C 20 %
119 11-04-2020 19:41:17 21.2 C 20 %
120 11-04-2020 19:51:17 18.9 C 20 %
121 11-04-2020 20:01:17 18 C 20 %
122 11-04-2020 20:11:17 17.1 C 20 %
123 11-04-2020 20:21:17 16.6 C 20 %
124 11-04-2020 20:31:17 16.5 C 20 %
125 11-04-2020 20:41:17 16.5 C 20 %
Sensor: Nr:Datum:Temp:Feuchte:
Aussen-T/F 126 11-04-2020 20:51:17 16.2 C 20 %
127 11-04-2020 21:01:18 16 C 20 %
128 11-04-2020 21:11:18 15.5 C 20 %
129 11-04-2020 21:21:18 15.4 C 20 %
130 11-04-2020 21:31:17 15.1 C 20 %
131 11-04-2020 21:41:17 14.8 C 20 %
132 11-04-2020 21:51:17 14.5 C 20 %
133 11-04-2020 22:01:17 14.3 C 20 %
134 11-04-2020 22:11:17 14.4 C 20 %
135 11-04-2020 22:21:17 14 C 20 %
136 11-04-2020 22:31:18 14 C 21 %
137 11-04-2020 22:41:18 14.4 C 21 %
138 11-04-2020 22:51:17 14.4 C 22 %
139 11-04-2020 23:01:17 13.7 C 23 %
140 11-04-2020 23:11:17 13 C 24 %
141 11-04-2020 23:21:18 12.3 C 26 %
142 11-04-2020 23:31:18 12.1 C 26 %
143 11-04-2020 23:41:18 11.8 C 27 %
144 11-04-2020 23:51:17 11.7 C 28 %
145 12-04-2020 00:01:17 11.6 C 29 %
146 12-04-2020 00:11:17 11.3 C 28 %
147 12-04-2020 00:21:17 11.3 C 29 %
148 12-04-2020 00:31:17 11.5 C 29 %
149 12-04-2020 00:41:17 11.6 C 29 %
150 12-04-2020 00:51:17 11.4 C 28 %
Sensor: Nr:Datum:Temp:Feuchte:
Aussen-T/F 151 12-04-2020 01:01:17 11.3 C 28 %
152 12-04-2020 01:11:17 11 C 28 %
153 12-04-2020 01:21:17 10.6 C 29 %
154 12-04-2020 01:31:18 10.3 C 29 %
155 12-04-2020 01:41:18 10.2 C 30 %
156 12-04-2020 01:51:17 10.6 C 29 %
157 12-04-2020 02:01:18 10.8 C 30 %
158 12-04-2020 02:11:18 10.7 C 31 %
159 12-04-2020 02:21:18 10.3 C 31 %
160 12-04-2020 02:31:17 10.4 C 30 %
161 12-04-2020 02:41:17 10.2 C 31 %
162 12-04-2020 02:51:17 10.1 C 31 %
163 12-04-2020 03:01:17 10.3 C 31 %
164 12-04-2020 03:11:17 10.2 C 31 %
165 12-04-2020 03:21:17 10.1 C 32 %
166 12-04-2020 03:31:17 10 C 32 %
167 12-04-2020 03:41:18 9.9 C 33 %
168 12-04-2020 03:51:17 10 C 32 %
169 12-04-2020 04:01:17 9.8 C 33 %
170 12-04-2020 04:11:17 9.7 C 33 %
171 12-04-2020 04:21:17 8.9 C 35 %
172 12-04-2020 04:31:17 8.8 C 34 %
173 12-04-2020 04:41:17 8.9 C 35 %
174 12-04-2020 04:51:17 8.5 C 35 %
175 12-04-2020 05:01:18 8.2 C 36 %
Sensor: Nr:Datum:Temp:Feuchte:
Aussen-T/F 176 12-04-2020 05:11:18 8.4 C 36 %
177 12-04-2020 05:21:17 8.5 C 36 %
178 12-04-2020 05:31:17 8.2 C 36 %
179 12-04-2020 05:41:17 8 C 36 %
180 12-04-2020 05:51:17 7.6 C 37 %
181 12-04-2020 06:01:17 7.7 C 37 %
182 12-04-2020 06:11:17 7.5 C 38 %
183 12-04-2020 06:21:17 7.2 C 38 %
184 12-04-2020 06:31:17 7.1 C 39 %
185 12-04-2020 06:41:17 7.2 C 39 %
186 12-04-2020 06:51:17 7.3 C 39 %
187 12-04-2020 07:01:17 6.9 C 39 %
188 12-04-2020 07:11:17 6.7 C 40 %
189 12-04-2020 07:21:17 6.5 C 40 %
190 12-04-2020 07:31:17 6.7 C 40 %
191 12-04-2020 07:41:17 7.1 C 40 %
192 12-04-2020 07:51:18 7 C 40 %
193 12-04-2020 08:01:17 7.3 C 40 %
194 12-04-2020 08:11:17 7.5 C 40 %
195 12-04-2020 08:21:17 7.5 C 40 %
196 12-04-2020 08:31:17 7.6 C 40 %
197 12-04-2020 08:41:18 7.9 C 40 %
198 12-04-2020 08:51:17 8.2 C 40 %
199 12-04-2020 09:01:18 8.8 C 39 %
200 12-04-2020 09:11:18 9.2 C 38 %
Sensor: Nr:Datum:Temp:Feuchte:
Aussen-T/F 201 12-04-2020 09:21:17 9.5 C 38 %
202 12-04-2020 09:31:17 10 C 37 %
203 12-04-2020 09:41:17 10.1 C 37 %
204 12-04-2020 09:51:17 11 C 36 %
205 12-04-2020 10:01:17 11.3 C 36 %
206 12-04-2020 10:11:17 11.7 C 35 %
207 12-04-2020 10:21:17 12.2 C 35 %
208 12-04-2020 10:31:18 13.2 C 33 %
209 12-04-2020 10:41:18 14.4 C 31 %
210 12-04-2020 10:51:17 14.9 C 31 %
211 12-04-2020 11:01:17 15.6 C 30 %
212 12-04-2020 11:11:17 17 C 27 %
213 12-04-2020 11:21:17 17.6 C 27 %
214 12-04-2020 11:31:17 18 C 26 %
215 12-04-2020 11:41:17 18.5 C 24 %
216 12-04-2020 11:51:17 19.1 C 20 %
217 12-04-2020 12:01:17 20.6 C 20 %
218 12-04-2020 12:11:17 20.8 C 20 %
219 12-04-2020 12:21:17 21.7 C 20 %
220 12-04-2020 12:31:17 21.6 C 20 %
221 12-04-2020 12:41:17 21.8 C 20 %
222 12-04-2020 12:51:18 21.2 C 20 %
223 12-04-2020 13:01:17 21.7 C 20 %
224 12-04-2020 13:11:17 21.7 C 20 %
225 12-04-2020 13:21:17 22 C 20 %
Sensor: Nr:Datum:Temp:Feuchte:
Aussen-T/F 226 12-04-2020 13:31:17 21.7 C 20 %
227 12-04-2020 13:41:17 22 C 20 %
228 12-04-2020 13:51:17 22.1 C 20 %
229 12-04-2020 14:01:17 22.4 C 20 %
230 12-04-2020 14:11:17 22.8 C 20 %
231 12-04-2020 14:21:17 22.9 C 20 %
232 12-04-2020 14:31:17 26.2 C 20 %
233 12-04-2020 14:41:17 28.6 C 20 %
234 12-04-2020 14:51:17 28.5 C 20 %
235 12-04-2020 15:01:17 30.3 C 20 %
236 12-04-2020 15:11:17 27.7 C 20 %
237 12-04-2020 15:21:17 27.9 C 20 %
238 12-04-2020 15:31:18 30.7 C 20 %
239 12-04-2020 15:41:18 30.5 C 20 %
240 12-04-2020 15:51:18 28.3 C 20 %
241 12-04-2020 16:01:17 30.5 C 20 %
242 12-04-2020 16:11:17 33.2 C 20 %
243 12-04-2020 16:21:17 32.8 C 20 %
244 12-04-2020 16:31:17 27.8 C 20 %
245 12-04-2020 16:41:17 26 C 20 %
246 12-04-2020 16:51:17 24.7 C 20 %
247 12-04-2020 17:01:17 29.6 C 20 %
248 12-04-2020 17:11:18 29.6 C 20 %
249 12-04-2020 17:21:17 29.5 C 20 %
250 12-04-2020 17:31:17 26.5 C 20 %
Sensor: Nr:Datum:Temp:Feuchte:
Aussen-T/F 251 12-04-2020 17:41:17 29.3 C 20 %
252 12-04-2020 17:51:17 29.8 C 20 %
253 12-04-2020 18:01:18 24.6 C 20 %
254 12-04-2020 18:11:18 24 C 20 %
255 12-04-2020 18:21:17 24 C 20 %
256 12-04-2020 18:31:17 23.6 C 20 %
257 12-04-2020 18:41:17 22.9 C 20 %
258 12-04-2020 18:51:17 22.4 C 20 %
259 12-04-2020 19:01:17 22.5 C 20 %
260 12-04-2020 19:11:17 22.4 C 20 %
261 12-04-2020 19:21:17 22 C 20 %
262 12-04-2020 19:31:17 21.6 C 20 %
263 12-04-2020 19:41:17 20.3 C 20 %
264 12-04-2020 19:51:18 19.1 C 20 %
265 12-04-2020 20:01:18 18.2 C 20 %
266 12-04-2020 20:11:18 17.9 C 20 %
267 12-04-2020 20:21:17 17.5 C 20 %
268 12-04-2020 20:31:18 17 C 20 %
269 12-04-2020 20:41:18 16.8 C 20 %
270 12-04-2020 20:51:17 16 C 20 %
271 12-04-2020 21:01:17 15.5 C 20 %
272 12-04-2020 21:11:17 14 C 20 %
273 12-04-2020 21:22:17 13.5 C 20 %
274 12-04-2020 21:31:17 13.2 C 21 %
275 12-04-2020 21:41:17 13.2 C 20 %
Sensor: Nr:Datum:Temp:Feuchte:
Aussen-T/F 276 12-04-2020 21:51:17 13.3 C 21 %
277 12-04-2020 22:01:17 13.4 C 20 %
278 12-04-2020 22:11:17 13 C 21 %
279 12-04-2020 22:22:17 12.9 C 22 %
280 12-04-2020 22:32:17 12.2 C 23 %
281 12-04-2020 22:42:17 11.8 C 26 %
282 12-04-2020 22:51:17 11.7 C 25 %
283 12-04-2020 23:01:18 11.5 C 25 %
284 12-04-2020 23:11:18 11.1 C 26 %
285 12-04-2020 23:21:17 10.9 C 27 %
286 12-04-2020 23:32:17 10.7 C 28 %
287 12-04-2020 23:41:17 10.3 C 28 %
288 12-04-2020 23:52:17 10.5 C 28 %
289 13-04-2020 00:01:17 10.6 C 28 %
290 13-04-2020 00:11:17 10.4 C 29 %
291 13-04-2020 00:21:18 10.4 C 30 %
292 13-04-2020 00:31:17 10.1 C 30 %
293 13-04-2020 00:41:17 9.9 C 31 %
294 13-04-2020 00:51:17 9.7 C 31 %
295 13-04-2020 01:01:18 9.5 C 31 %
296 13-04-2020 01:11:18 9.4 C 32 %
297 13-04-2020 01:21:18 9 C 32 %
298 13-04-2020 01:31:18 9.3 C 32 %
299 13-04-2020 01:41:18 9.2 C 32 %
300 13-04-2020 01:51:18 9.3 C 32 %
Sensor: Nr:Datum:Temp:Feuchte:
Aussen-T/F 301 13-04-2020 02:02:17 9.2 C 32 %
302 13-04-2020 02:12:17 9.2 C 32 %
303 13-04-2020 02:21:17 9.1 C 32 %
304 13-04-2020 02:31:18 9 C 33 %
305 13-04-2020 02:41:18 8.6 C 34 %
306 13-04-2020 02:51:17 8.6 C 34 %
307 13-04-2020 03:01:18 8.4 C 34 %
308 13-04-2020 03:11:18 8.2 C 35 %
309 13-04-2020 03:22:17 7.9 C 35 %
310 13-04-2020 03:32:17 8.1 C 35 %
311 13-04-2020 03:42:17 8 C 35 %
312 13-04-2020 03:51:17 7.8 C 35 %
313 13-04-2020 04:02:17 7.5 C 36 %
314 13-04-2020 04:12:17 7.2 C 36 %
315 13-04-2020 04:21:18 6.8 C 38 %
316 13-04-2020 04:32:17 6.8 C 38 %
317 13-04-2020 04:41:17 6.7 C 39 %
318 13-04-2020 04:52:17 7.7 C 37 %
319 13-04-2020 05:02:17 7.3 C 37 %
320 13-04-2020 05:12:17 7.5 C 38 %
321 13-04-2020 05:22:17 7.8 C 38 %
322 13-04-2020 05:32:17 7.6 C 37 %
323 13-04-2020 05:42:17 7.4 C 37 %
324 13-04-2020 05:52:17 7.2 C 38 %
325 13-04-2020 06:02:17 7.2 C 38 %
Sensor: Nr:Datum:Temp:Feuchte:
Aussen-T/F 326 13-04-2020 06:12:17 6.6 C 39 %
327 13-04-2020 06:22:17 6.2 C 39 %
328 13-04-2020 06:32:17 6.3 C 40 %
329 13-04-2020 06:42:17 6.3 C 40 %
330 13-04-2020 06:52:17 6.4 C 40 %
331 13-04-2020 07:02:17 6.5 C 40 %
332 13-04-2020 07:12:17 7.2 C 39 %
333 13-04-2020 07:22:17 7.6 C 38 %
334 13-04-2020 07:32:17 8.1 C 37 %
335 13-04-2020 07:42:17 8.3 C 37 %
336 13-04-2020 07:52:17 8.5 C 37 %
337 13-04-2020 08:02:17 8.6 C 36 %
338 13-04-2020 08:12:18 8.9 C 36 %
339 13-04-2020 08:22:17 9 C 36 %
340 13-04-2020 08:32:17 9.4 C 36 %
341 13-04-2020 08:42:17 10.7 C 37 %
342 13-04-2020 08:52:17 11.1 C 36 %
343 13-04-2020 09:02:17 10.7 C 37 %
344 13-04-2020 09:12:17 10.7 C 37 %
345 13-04-2020 09:22:17 11 C 36 %
346 13-04-2020 09:32:17 11.5 C 36 %
347 13-04-2020 09:42:17 11.9 C 35 %
348 13-04-2020 09:52:17 11.4 C 35 %
349 13-04-2020 10:02:17 11.2 C 35 %
350 13-04-2020 10:12:17 11.1 C 35 %
Sensor: Nr:Datum:Temp:Feuchte:
Aussen-T/F 351 13-04-2020 10:22:17 11 C 34 %
352 13-04-2020 10:32:17 11.1 C 34 %
353 13-04-2020 10:42:17 11.3 C 34 %
354 13-04-2020 10:52:17 11.6 C 33 %
355 13-04-2020 11:02:17 11.6 C 33 %
356 13-04-2020 11:12:17 11.4 C 32 %
357 13-04-2020 11:22:17 11.8 C 32 %
358 13-04-2020 11:32:17 11.5 C 31 %
359 13-04-2020 11:42:17 11.1 C 31 %
360 13-04-2020 11:52:16 10.8 C 32 %
361 13-04-2020 12:02:17 10.9 C 32 %
362 13-04-2020 12:12:17 10.5 C 33 %
363 13-04-2020 12:22:17 10.4 C 33 %
364 13-04-2020 12:32:17 10.7 C 32 %
365 13-04-2020 12:42:17 11.1 C 32 %
366 13-04-2020 12:52:17 10.6 C 32 %
367 13-04-2020 13:02:16 10.3 C 32 %
368 13-04-2020 13:12:16 10.2 C 32 %
369 13-04-2020 13:22:17 10.2 C 32 %
370 13-04-2020 13:32:17 9.6 C 33 %
371 13-04-2020 13:42:17 8.6 C 35 %
372 13-04-2020 13:52:17 7.6 C 39 %
373 13-04-2020 14:02:17 7.5 C 40 %
374 13-04-2020 14:12:17 7.7 C 38 %
375 13-04-2020 14:22:16 8.7 C 36 %
Sensor: Nr:Datum:Temp:Feuchte:
Aussen-T/F 376 13-04-2020 14:32:17 9.2 C 35 %
377 13-04-2020 14:42:17 9.6 C 34 %
378 13-04-2020 14:52:16 10.9 C 31 %
379 13-04-2020 15:02:17 12.4 C 26 %
380 13-04-2020 15:12:17 12.3 C 25 %
381 13-04-2020 15:22:17 12.7 C 20 %
382 13-04-2020 15:32:17 11.8 C 20 %
383 13-04-2020 15:42:17 12.4 C 20 %
384 13-04-2020 15:52:16 13.2 C 20 %
385 13-04-2020 16:02:16 12.2 C 20 %
386 13-04-2020 16:12:16 14.4 C 20 %
387 13-04-2020 16:22:16 15 C 20 %
388 13-04-2020 16:32:17 16 C 20 %
389 13-04-2020 16:42:17 14.9 C 20 %
390 13-04-2020 16:52:16 16.5 C 20 %
391 13-04-2020 17:02:17 15.2 C 20 %
392 13-04-2020 17:12:17 15.6 C 20 %
393 13-04-2020 17:22:16 15 C 20 %
394 13-04-2020 17:32:16 15 C 20 %
395 13-04-2020 17:42:16 14.5 C 20 %
396 13-04-2020 17:52:16 15.4 C 20 %
397 13-04-2020 18:02:16 13.2 C 20 %
398 13-04-2020 18:12:16 12.5 C 20 %
399 13-04-2020 18:22:17 12.1 C 20 %
400 13-04-2020 18:32:17 11.9 C 20 %
Sensor: Nr:Datum:Temp:Feuchte:
Aussen-T/F 401 13-04-2020 18:42:18 11.1 C 20 %
402 13-04-2020 18:52:16 11.1 C 20 %
403 13-04-2020 19:02:16 10.8 C 20 %
404 13-04-2020 19:12:16 10.5 C 20 %
405 13-04-2020 19:22:16 10.2 C 20 %
406 13-04-2020 19:32:17 10 C 20 %
407 13-04-2020 19:42:17 9.8 C 20 %
408 13-04-2020 19:52:16 9.6 C 20 %
409 13-04-2020 20:02:16 9 C 20 %
410 13-04-2020 20:12:16 8.6 C 20 %
411 13-04-2020 20:22:16 8.5 C 20 %
412 13-04-2020 20:32:16 8.4 C 20 %
413 13-04-2020 20:42:16 8.2 C 20 %
414 13-04-2020 20:52:16 7.5 C 20 %
415 13-04-2020 21:02:16 7.5 C 20 %
416 13-04-2020 21:12:16 7.4 C 20 %
417 13-04-2020 21:22:16 7.3 C 20 %
418 13-04-2020 21:32:17 7.2 C 20 %
419 13-04-2020 21:42:17 6.7 C 20 %
420 13-04-2020 21:52:16 6.5 C 20 %
421 13-04-2020 22:02:16 6.1 C 20 %
422 13-04-2020 22:12:16 5.5 C 20 %
423 13-04-2020 22:22:16 5.1 C 20 %
424 13-04-2020 22:32:16 4.6 C 23 %
425 13-04-2020 22:42:16 4.4 C 25 %
Sensor: Nr:Datum:Temp:Feuchte:
Aussen-T/F 426 13-04-2020 22:52:16 4.1 C 25 %
427 13-04-2020 23:02:16 3.9 C 26 %
428 13-04-2020 23:12:16 3.8 C 27 %
429 13-04-2020 23:22:16 3.5 C 30 %
430 13-04-2020 23:32:17 3.3 C 29 %
431 13-04-2020 23:42:17 4 C 26 %
432 13-04-2020 23:52:16 4 C 25 %
433 14-04-2020 00:02:16 3.3 C 28 %
434 14-04-2020 00:12:16 4.1 C 25 %
435 14-04-2020 00:22:16 3.2 C 27 %
436 14-04-2020 00:32:16 3.3 C 27 %
437 14-04-2020 00:42:16 2.8 C 29 %
438 14-04-2020 00:52:16 2.9 C 29 %
439 14-04-2020 01:02:16 3.1 C 27 %
440 14-04-2020 01:12:16 3.4 C 27 %
441 14-04-2020 01:22:16 2.8 C 28 %
442 14-04-2020 01:32:16 2.1 C 30 %
443 14-04-2020 01:42:16 1.9 C 33 %
444 14-04-2020 01:52:16 1.2 C 35 %
445 14-04-2020 02:02:16 1.6 C 35 %
446 14-04-2020 02:12:16 1.3 C 35 %
447 14-04-2020 02:22:16 0.9 C 36 %
448 14-04-2020 02:32:16 0.8 C 36 %
449 14-04-2020 02:42:16 1.1 C 35 %
450 14-04-2020 02:52:18 1 C 35 %
Sensor: Nr:Datum:Temp:Feuchte:
Aussen-T/F 451 14-04-2020 03:02:18 1.1 C 35 %
452 14-04-2020 03:12:18 1.1 C 35 %
453 14-04-2020 03:22:17 0.7 C 36 %
454 14-04-2020 03:32:18 1.1 C 36 %
455 14-04-2020 03:42:18 0.9 C 36 %
456 14-04-2020 03:52:17 1 C 35 %
457 14-04-2020 04:02:18 0.9 C 36 %
458 14-04-2020 04:12:18 0.9 C 36 %
459 14-04-2020 04:22:17 0.6 C 36 %
460 14-04-2020 04:32:17 0.7 C 36 %
461 14-04-2020 04:42:17 0.7 C 36 %
462 14-04-2020 04:52:18 0.6 C 36 %
463 14-04-2020 05:02:17 0 C 37 %
464 14-04-2020 05:12:17 0 C 38 %
465 14-04-2020 05:22:17 0.6 C 38 %
466 14-04-2020 05:32:17 0.6 C 39 %
467 14-04-2020 05:42:17 0.7 C 39 %
468 14-04-2020 05:52:17 0 C 39 %
469 14-04-2020 06:02:17 -0.2 C 40 %
470 14-04-2020 06:12:17 -0.7 C 41 %
471 14-04-2020 06:22:17 -0.9 C 41 %
472 14-04-2020 06:32:17 -0.4 C 41 %
473 14-04-2020 06:42:17 -0.1 C 41 %
474 14-04-2020 06:52:17 0.5 C 41 %
475 14-04-2020 07:02:17 0.7 C 41 %
Sensor: Nr:Datum:Temp:Feuchte:
Aussen-T/F 476 14-04-2020 07:12:17 1.1 C 40 %
477 14-04-2020 07:22:17 1.3 C 39 %
478 14-04-2020 07:32:17 1.6 C 39 %
479 14-04-2020 07:42:17 1.8 C 39 %
480 14-04-2020 07:52:18 2.1 C 37 %
481 14-04-2020 08:02:17 2.2 C 38 %
482 14-04-2020 08:12:17 2.3 C 37 %
483 14-04-2020 08:22:18 1.7 C 39 %
484 14-04-2020 08:32:17 1.7 C 40 %
485 14-04-2020 08:42:17 2.2 C 38 %
486 14-04-2020 08:52:17 2.4 C 38 %
487 14-04-2020 09:02:18 3 C 37 %
488 14-04-2020 09:12:18 3.8 C 36 %
489 14-04-2020 09:22:17 4.7 C 34 %
490 14-04-2020 09:32:18 5.7 C 32 %
491 14-04-2020 09:42:18 5.3 C 31 %
492 14-04-2020 09:52:17 6 C 31 %
493 14-04-2020 10:02:17 6.6 C 30 %
494 14-04-2020 10:12:17 5.8 C 30 %
495 14-04-2020 10:22:17 5.9 C 30 %
496 14-04-2020 10:32:17 6.7 C 30 %
497 14-04-2020 10:42:17 7.4 C 26 %
498 14-04-2020 10:52:18 8.4 C 23 %
499 14-04-2020 11:02:17 8.2 C 21 %
500 14-04-2020 11:12:17 8 C 20 %
Sensor: Nr:Datum:Temp:Feuchte:
Aussen-T/F 501 14-04-2020 11:22:17 7.9 C 20 %
502 14-04-2020 11:32:17 8.2 C 20 %
503 14-04-2020 11:42:17 9.1 C 20 %
504 14-04-2020 11:52:18 8.4 C 20 %
505 14-04-2020 12:02:17 8.5 C 20 %
506 14-04-2020 12:12:17 8.6 C 20 %
507 14-04-2020 12:22:17 8.9 C 20 %
508 14-04-2020 12:32:17 8.6 C 20 %
509 14-04-2020 12:42:17 9.8 C 20 %
510 14-04-2020 12:52:17 10.6 C 20 %
511 14-04-2020 13:02:18 10.2 C 20 %
512 14-04-2020 13:12:18 10 C 20 %
513 14-04-2020 13:22:17 10.4 C 20 %
514 14-04-2020 13:32:17 10.7 C 20 %
515 14-04-2020 13:42:17 10 C 20 %
516 14-04-2020 13:52:18 9.5 C 20 %
517 14-04-2020 14:02:17 9.8 C 20 %
518 14-04-2020 14:12:18 10.3 C 20 %
519 14-04-2020 14:22:18 11.8 C 20 %
520 14-04-2020 14:32:18 14.5 C 20 %
521 14-04-2020 14:42:18 17.4 C 20 %
522 14-04-2020 14:52:17 16.8 C 20 %
523 14-04-2020 15:02:17 17.6 C 20 %
524 14-04-2020 15:12:18 21 C 20 %
525 14-04-2020 15:22:17 14.7 C 20 %
Sensor: Nr:Datum:Temp:Feuchte:
Aussen-T/F 526 14-04-2020 15:32:17 16.7 C 20 %
527 14-04-2020 15:42:17 14 C 20 %
528 14-04-2020 15:52:17 14 C 20 %
529 14-04-2020 16:02:17 15 C 20 %
530 14-04-2020 16:12:17 17.2 C 20 %
531 14-04-2020 16:22:17 17.7 C 20 %
532 14-04-2020 16:32:18 16.3 C 20 %
533 14-04-2020 16:42:18 14 C 20 %
534 14-04-2020 16:52:17 14.5 C 20 %
535 14-04-2020 17:02:18 12.2 C 20 %
536 14-04-2020 17:12:18 14.2 C 20 %
537 14-04-2020 17:22:17 19.2 C 20 %
538 14-04-2020 17:32:17 16.8 C 20 %
539 14-04-2020 17:42:18 15.5 C 20 %
540 14-04-2020 17:52:17 16 C 20 %
541 14-04-2020 18:02:18 13.4 C 20 %
542 14-04-2020 18:12:18 12.4 C 20 %
543 14-04-2020 18:22:17 12.1 C 20 %
544 14-04-2020 18:32:18 11.9 C 20 %
545 14-04-2020 18:42:18 11.7 C 20 %
546 14-04-2020 18:52:17 11.3 C 20 %
547 14-04-2020 19:02:17 11.2 C 20 %
548 14-04-2020 19:12:18 11 C 20 %
549 14-04-2020 19:22:18 10.6 C 20 %
550 14-04-2020 19:32:18 10.3 C 20 %
Sensor: Nr:Datum:Temp:Feuchte:
Aussen-T/F 551 14-04-2020 19:42:18 10.1 C 20 %
552 14-04-2020 19:52:17 9.7 C 20 %
553 14-04-2020 20:02:17 9.3 C 20 %
554 14-04-2020 20:12:17 8.9 C 20 %
555 14-04-2020 20:22:17 7.7 C 20 %
556 14-04-2020 20:32:17 7 C 23 %
557 14-04-2020 20:42:18 6.7 C 25 %
558 14-04-2020 20:52:17 6.8 C 25 %
559 14-04-2020 21:02:17 6.5 C 25 %
560 14-04-2020 21:12:17 6.3 C 25 %
561 14-04-2020 21:22:17 6 C 26 %
562 14-04-2020 21:32:17 6.1 C 26 %
563 14-04-2020 21:42:17 5.8 C 27 %
564 14-04-2020 21:52:17 5.6 C 27 %
565 14-04-2020 22:02:18 5.6 C 27 %
566 14-04-2020 22:12:18 5.1 C 29 %
567 14-04-2020 22:22:17 5.2 C 28 %
568 14-04-2020 22:32:18 5 C 29 %
569 14-04-2020 22:42:18 4.7 C 30 %
570 14-04-2020 22:52:18 4.7 C 30 %
571 14-04-2020 23:02:18 4.3 C 32 %
572 14-04-2020 23:12:18 3.6 C 34 %
573 14-04-2020 23:22:17 3.2 C 35 %
574 14-04-2020 23:32:17 3 C 35 %
575 14-04-2020 23:42:17 2.8 C 36 %
Sensor: Nr:Datum:Temp:Feuchte:
Aussen-T/F 576 14-04-2020 23:52:17 2.6 C 36 %
577 15-04-2020 00:02:18 2.4 C 37 %
578 15-04-2020 00:12:18 2.1 C 37 %
579 15-04-2020 00:22:17 1.7 C 39 %
580 15-04-2020 00:32:18 1.6 C 39 %
581 15-04-2020 00:42:18 1.6 C 40 %
582 15-04-2020 00:52:17 1.6 C 39 %
583 15-04-2020 01:02:17 1.5 C 40 %
584 15-04-2020 01:12:17 1.3 C 40 %
585 15-04-2020 01:22:17 1.2 C 40 %
586 15-04-2020 01:32:17 1.3 C 40 %
587 15-04-2020 01:42:17 1.2 C 40 %
588 15-04-2020 01:52:17 1 C 40 %
589 15-04-2020 02:02:17 0.8 C 41 %
590 15-04-2020 02:12:17 0.8 C 42 %
591 15-04-2020 02:22:17 0.8 C 42 %
592 15-04-2020 02:32:17 0.7 C 42 %
593 15-04-2020 02:42:17 0.6 C 42 %
594 15-04-2020 02:52:17 0.1 C 42 %
595 15-04-2020 03:02:17 0.2 C 43 %
596 15-04-2020 03:12:17 0.3 C 43 %
597 15-04-2020 03:22:17 0.2 C 43 %
598 15-04-2020 03:32:18 0.5 C 43 %
599 15-04-2020 03:42:18 0.1 C 43 %
600 15-04-2020 03:52:18 0 C 43 %
Sensor: Nr:Datum:Temp:Feuchte:
Aussen-T/F 601 15-04-2020 04:02:18 0.2 C 43 %
602 15-04-2020 04:12:18 -0.2 C 43 %
603 15-04-2020 04:22:17 0 C 44 %
604 15-04-2020 04:32:18 -0.2 C 43 %
605 15-04-2020 04:42:18 -0.3 C 44 %
606 15-04-2020 04:52:17 -0.4 C 44 %
607 15-04-2020 05:02:18 -0.4 C 44 %
608 15-04-2020 05:12:18 -0.3 C 44 %
609 15-04-2020 05:22:17 -0.4 C 45 %
610 15-04-2020 05:32:17 -0.5 C 45 %
611 15-04-2020 05:42:17 -0.4 C 45 %
612 15-04-2020 05:52:17 -0.7 C 45 %
613 15-04-2020 06:02:17 -0.7 C 45 %
614 15-04-2020 06:12:17 -0.7 C 45 %
615 15-04-2020 06:22:17 -0.7 C 45 %
616 15-04-2020 06:32:17 -0.6 C 45 %
617 15-04-2020 06:42:17 -0.7 C 45 %
618 15-04-2020 06:52:17 -0.9 C 45 %
619 15-04-2020 07:02:17 -0.7 C 45 %
620 15-04-2020 07:12:17 -0.6 C 45 %
621 15-04-2020 07:22:17 -0.5 C 45 %
622 15-04-2020 07:32:17 -0.1 C 46 %
623 15-04-2020 07:42:17 0.1 C 45 %
624 15-04-2020 07:52:18 0.4 C 45 %
625 15-04-2020 08:02:17 0.7 C 45 %
Sensor: Nr:Datum:Temp:Feuchte:
Aussen-T/F 626 15-04-2020 08:12:17 1 C 43 %
627 15-04-2020 08:22:18 1.4 C 42 %
628 15-04-2020 08:32:18 1.6 C 41 %
629 15-04-2020 08:42:18 1.9 C 41 %
630 15-04-2020 08:52:18 2.4 C 40 %
631 15-04-2020 09:02:17 2.8 C 40 %
632 15-04-2020 09:12:17 3 C 38 %
633 15-04-2020 09:22:18 3.4 C 38 %
634 15-04-2020 09:32:18 3.5 C 37 %
635 15-04-2020 09:42:18 4.2 C 36 %
636 15-04-2020 09:52:17 4.4 C 36 %
637 15-04-2020 10:02:18 4.9 C 35 %
638 15-04-2020 10:12:18 5.4 C 35 %
639 15-04-2020 10:22:18 6.2 C 34 %
640 15-04-2020 10:32:18 6.9 C 33 %
641 15-04-2020 10:42:18 7.4 C 31 %
642 15-04-2020 10:52:18 8.1 C 30 %
643 15-04-2020 11:02:17 8.5 C 30 %
644 15-04-2020 11:12:17 9.2 C 29 %
645 15-04-2020 11:22:18 9.9 C 28 %
646 15-04-2020 11:32:17 10.4 C 26 %
647 15-04-2020 11:42:17 11 C 22 %
648 15-04-2020 11:52:18 11.6 C 20 %
649 15-04-2020 12:02:17 12.3 C 20 %
650 15-04-2020 12:12:17 12.2 C 20 %
Sensor: Nr:Datum:Temp:Feuchte:
Aussen-T/F 651 15-04-2020 12:22:18 13.3 C 20 %
652 15-04-2020 12:32:18 13.2 C 20 %
653 15-04-2020 12:42:18 13.3 C 20 %
654 15-04-2020 12:52:17 13.2 C 20 %
655 15-04-2020 13:02:17 13.4 C 20 %
656 15-04-2020 13:12:17 13.5 C 20 %
657 15-04-2020 13:22:18 13.4 C 20 %
658 15-04-2020 13:32:18 14.2 C 20 %
659 15-04-2020 13:42:18 14.4 C 20 %
660 15-04-2020 13:52:17 14.7 C 20 %
661 15-04-2020 14:02:17 15.2 C 20 %
662 15-04-2020 14:12:17 15.5 C 20 %
663 15-04-2020 14:22:17 16.9 C 20 %
664 15-04-2020 14:32:17 21.6 C 20 %
665 15-04-2020 14:42:17 23.9 C 20 %
666 15-04-2020 14:52:17 25.2 C 20 %
667 15-04-2020 15:02:18 24.8 C 20 %
668 15-04-2020 15:12:18 23.5 C 20 %
669 15-04-2020 15:22:18 24.4 C 20 %
670 15-04-2020 15:32:18 23.9 C 20 %
671 15-04-2020 15:42:18 24.5 C 20 %
672 15-04-2020 15:52:17 24.4 C 20 %
673 15-04-2020 16:02:18 24.8 C 20 %
674 15-04-2020 16:12:18 24.6 C 20 %
675 15-04-2020 16:22:17 23.3 C 20 %
Sensor: Nr:Datum:Temp:Feuchte:
Aussen-T/F 676 15-04-2020 16:32:18 23.7 C 20 %
677 15-04-2020 16:42:18 25.4 C 20 %
678 15-04-2020 16:52:18 25.9 C 20 %
679 15-04-2020 17:02:17 25.4 C 20 %
680 15-04-2020 17:12:17 26.8 C 20 %
681 15-04-2020 17:22:18 24.8 C 20 %
682 15-04-2020 17:32:17 24 C 20 %
683 15-04-2020 17:42:17 22.4 C 20 %
684 15-04-2020 17:52:18 24.4 C 20 %
685 15-04-2020 18:02:18 20.6 C 20 %
686 15-04-2020 18:12:18 20.2 C 20 %
687 15-04-2020 18:22:18 19.7 C 20 %
688 15-04-2020 18:32:18 19.1 C 20 %
689 15-04-2020 18:42:18 19.4 C 20 %
690 15-04-2020 18:52:17 19.4 C 20 %
691 15-04-2020 19:02:17 18.8 C 20 %
692 15-04-2020 19:12:17 18.7 C 20 %
693 15-04-2020 19:22:17 18.2 C 20 %
694 15-04-2020 19:32:17 18 C 20 %
695 15-04-2020 19:42:18 17.3 C 20 %
696 15-04-2020 19:52:17 15.3 C 20 %
697 15-04-2020 20:02:18 14 C 20 %
698 15-04-2020 20:12:18 13.6 C 20 %
699 15-04-2020 20:22:18 13.4 C 20 %
700 15-04-2020 20:32:17 13.1 C 20 %
Sensor: Nr:Datum:Temp:Feuchte:
Aussen-T/F 701 15-04-2020 20:42:18 12.7 C 20 %
702 15-04-2020 20:52:17 12 C 20 %
703 15-04-2020 21:02:18 12 C 20 %
704 15-04-2020 21:12:18 11 C 20 %
705 15-04-2020 21:22:17 11 C 20 %
706 15-04-2020 21:32:17 10.5 C 20 %
707 15-04-2020 21:42:17 9.4 C 25 %
708 15-04-2020 21:52:17 9 C 26 %
709 15-04-2020 22:02:17 8.9 C 27 %
710 15-04-2020 22:12:17 8.6 C 28 %
711 15-04-2020 22:22:17 8.8 C 28 %
712 15-04-2020 22:32:18 8.1 C 28 %
713 15-04-2020 22:42:18 7.7 C 29 %
714 15-04-2020 22:52:17 7.3 C 30 %
715 15-04-2020 23:02:17 7.1 C 30 %
716 15-04-2020 23:12:17 7.2 C 30 %
717 15-04-2020 23:22:17 7 C 30 %
718 15-04-2020 23:32:17 6.6 C 31 %
719 15-04-2020 23:42:18 6.4 C 32 %
720 15-04-2020 23:52:17 6.2 C 32 %
721 16-04-2020 00:02:17 6.2 C 32 %
722 16-04-2020 00:12:17 6 C 33 %
723 16-04-2020 00:22:17 5.8 C 34 %
724 16-04-2020 00:32:18 5.5 C 35 %
725 16-04-2020 00:42:18 5.3 C 35 %
Sensor: Nr:Datum:Temp:Feuchte:
Aussen-T/F 726 16-04-2020 00:52:17 5.2 C 35 %
727 16-04-2020 01:02:17 4.8 C 35 %
728 16-04-2020 01:12:17 4.8 C 35 %
729 16-04-2020 01:22:17 5.1 C 35 %
730 16-04-2020 01:32:18 5.1 C 35 %
731 16-04-2020 01:42:18 4.7 C 36 %
732 16-04-2020 01:52:17 4.8 C 36 %
733 16-04-2020 02:02:18 4.6 C 36 %
734 16-04-2020 02:12:18 4.3 C 36 %
735 16-04-2020 02:22:18 3.9 C 38 %
736 16-04-2020 02:32:17 4.1 C 38 %
737 16-04-2020 02:42:17 4 C 38 %
738 16-04-2020 02:52:17 3.7 C 39 %
739 16-04-2020 03:02:17 3.6 C 40 %
740 16-04-2020 03:12:17 3.6 C 39 %
741 16-04-2020 03:22:17 3.5 C 39 %
742 16-04-2020 03:32:17 3.3 C 39 %
743 16-04-2020 03:42:17 3 C 40 %
744 16-04-2020 03:52:17 2.9 C 41 %
745 16-04-2020 04:02:17 3.2 C 40 %
746 16-04-2020 04:12:17 3.2 C 40 %
747 16-04-2020 04:22:17 2.7 C 41 %
748 16-04-2020 04:32:18 2.6 C 41 %
749 16-04-2020 04:42:18 3 C 41 %
750 16-04-2020 04:52:17 2.6 C 42 %
Sensor: Nr:Datum:Temp:Feuchte:
Aussen-T/F 751 16-04-2020 05:02:17 2.7 C 42 %
752 16-04-2020 05:12:17 2.7 C 42 %
753 16-04-2020 05:22:17 2.6 C 42 %
754 16-04-2020 05:32:17 2.3 C 42 %
755 16-04-2020 05:42:17 2 C 42 %
756 16-04-2020 05:52:17 2.1 C 43 %
757 16-04-2020 06:02:18 2.4 C 43 %
758 16-04-2020 06:12:18 2 C 42 %
759 16-04-2020 06:22:17 1.6 C 44 %
760 16-04-2020 06:32:17 1.4 C 44 %
761 16-04-2020 06:42:17 1.8 C 45 %
762 16-04-2020 06:52:17 1.8 C 45 %
763 16-04-2020 07:02:17 1.8 C 45 %
764 16-04-2020 07:12:17 1.8 C 45 %
765 16-04-2020 07:22:17 2.2 C 44 %
766 16-04-2020 07:32:17 2.1 C 44 %
767 16-04-2020 07:42:17 2.1 C 44 %
768 16-04-2020 07:52:17 2.5 C 44 %
769 16-04-2020 08:02:17 2.5 C 44 %
770 16-04-2020 08:12:17 2.6 C 44 %
771 16-04-2020 08:22:17 3 C 43 %
772 16-04-2020 08:32:18 3.2 C 42 %
773 16-04-2020 08:42:18 3.5 C 42 %
774 16-04-2020 08:52:17 3.6 C 41 %
775 16-04-2020 09:02:18 3.9 C 41 %
Sensor: Nr:Datum:Temp:Feuchte:
Aussen-T/F 776 16-04-2020 09:12:18 4.2 C 41 %
777 16-04-2020 09:22:17 4.5 C 40 %
778 16-04-2020 09:32:17 5.1 C 40 %
779 16-04-2020 09:42:17 5.8 C 39 %
780 16-04-2020 09:52:17 6.6 C 37 %
781 16-04-2020 10:02:18 7 C 36 %
782 16-04-2020 10:12:18 7.5 C 36 %
783 16-04-2020 10:22:17 8.1 C 35 %
784 16-04-2020 10:32:17 9.4 C 34 %
785 16-04-2020 10:42:18 10.4 C 31 %
786 16-04-2020 10:52:17 11.2 C 30 %
787 16-04-2020 11:02:18 12.2 C 29 %
788 16-04-2020 11:12:18 14.2 C 25 %
789 16-04-2020 11:22:17 15.5 C 20 %
790 16-04-2020 11:32:17 16.8 C 20 %
791 16-04-2020 11:42:17 17.6 C 20 %
792 16-04-2020 11:52:17 18 C 20 %
793 16-04-2020 12:02:18 18.4 C 20 %
794 16-04-2020 12:12:18 18.7 C 20 %
795 16-04-2020 12:22:17 19.1 C 20 %
796 16-04-2020 12:32:18 19.3 C 20 %
797 16-04-2020 12:42:18 19.5 C 20 %
798 16-04-2020 12:52:17 19.6 C 20 %
799 16-04-2020 13:02:18 20.1 C 20 %
800 16-04-2020 13:12:18 20.5 C 20 %
Sensor: Nr:Datum:Temp:Feuchte:
Aussen-T/F 801 16-04-2020 13:22:17 20.8 C 20 %
802 16-04-2020 13:32:18 21.1 C 20 %
803 16-04-2020 13:42:18 21.5 C 20 %
804 16-04-2020 13:52:17 21.7 C 20 %
805 16-04-2020 14:02:17 22 C 20 %
806 16-04-2020 14:12:17 22.4 C 20 %
807 16-04-2020 14:22:17 22.8 C 20 %
808 16-04-2020 14:32:17 26.2 C 20 %
809 16-04-2020 14:42:17 28 C 20 %
810 16-04-2020 14:52:17 29.6 C 20 %
811 16-04-2020 15:02:17 29.8 C 20 %
812 16-04-2020 15:12:17 29.5 C 20 %
813 16-04-2020 15:22:17 28.5 C 20 %
814 16-04-2020 15:32:18 30.1 C 20 %
815 16-04-2020 15:42:18 25.8 C 20 %
816 16-04-2020 15:52:17 27.1 C 20 %
817 16-04-2020 16:02:17 29.5 C 20 %
818 16-04-2020 16:12:17 28.4 C 20 %
819 16-04-2020 16:22:17 26.5 C 20 %
820 16-04-2020 16:32:17 26.6 C 20 %
821 16-04-2020 16:42:18 27.2 C 20 %
822 16-04-2020 16:52:17 24.9 C 20 %
823 16-04-2020 17:02:17 25 C 20 %
824 16-04-2020 17:12:17 26.1 C 20 %
825 16-04-2020 17:22:18 28.3 C 20 %
Sensor: Nr:Datum:Temp:Feuchte:
Aussen-T/F 826 16-04-2020 17:32:17 27.6 C 20 %
827 16-04-2020 17:42:17 27.3 C 20 %
828 16-04-2020 17:52:17 26.5 C 20 %
829 16-04-2020 18:02:17 25.6 C 20 %
830 16-04-2020 18:12:17 24.3 C 20 %
831 16-04-2020 18:22:17 24.4 C 20 %
832 16-04-2020 18:32:17 24.2 C 20 %
833 16-04-2020 18:42:17 23.9 C 20 %
834 16-04-2020 18:52:17 24 C 20 %
835 16-04-2020 19:02:17 23.2 C 20 %
836 16-04-2020 19:12:17 22.9 C 20 %
837 16-04-2020 19:22:17 22.2 C 20 %
838 16-04-2020 19:32:18 21.9 C 20 %
839 16-04-2020 19:42:18 21.2 C 20 %
840 16-04-2020 19:52:17 20.5 C 20 %
841 16-04-2020 20:02:17 19.5 C 20 %
842 16-04-2020 20:12:17 19.2 C 20 %
843 16-04-2020 20:22:17 19.3 C 20 %
844 16-04-2020 20:32:18 19.1 C 20 %
845 16-04-2020 20:42:18 18.9 C 20 %
846 16-04-2020 20:52:18 18.5 C 20 %
847 16-04-2020 21:02:17 17.9 C 20 %
848 16-04-2020 21:12:17 16.5 C 20 %
849 16-04-2020 21:22:17 16.1 C 20 %
850 16-04-2020 21:32:18 15.5 C 20 %
Sensor: Nr:Datum:Temp:Feuchte:
Aussen-T/F 851 16-04-2020 21:42:18 14.7 C 21 %
852 16-04-2020 21:52:17 14.4 C 22 %
853 16-04-2020 22:02:17 14.5 C 22 %
854 16-04-2020 22:12:17 13.5 C 25 %
855 16-04-2020 22:22:17 14.1 C 25 %
856 16-04-2020 22:32:17 13.8 C 25 %
857 16-04-2020 22:42:18 13.1 C 26 %
858 16-04-2020 22:52:17 12.4 C 28 %
859 16-04-2020 23:02:17 12.5 C 29 %
860 16-04-2020 23:12:17 12.2 C 30 %
861 16-04-2020 23:22:17 11.7 C 30 %
862 16-04-2020 23:32:18 11.6 C 31 %
863 16-04-2020 23:42:18 11.6 C 31 %
864 16-04-2020 23:52:17 11.8 C 31 %
865 17-04-2020 00:02:18 11.4 C 31 %
866 17-04-2020 00:12:18 11 C 31 %
867 17-04-2020 00:22:17 11 C 32 %
868 17-04-2020 00:32:17 11 C 32 %
869 17-04-2020 00:42:17 11 C 32 %
870 17-04-2020 00:52:18 10.4 C 33 %
871 17-04-2020 01:02:17 10.1 C 34 %
872 17-04-2020 01:12:18 10.1 C 34 %
873 17-04-2020 01:22:18 9.8 C 35 %
874 17-04-2020 01:32:18 10 C 35 %
875 17-04-2020 01:42:18 10 C 35 %
Sensor: Nr:Datum:Temp:Feuchte:
Aussen-T/F 876 17-04-2020 01:52:17 9.5 C 36 %
877 17-04-2020 02:02:17 9.7 C 36 %
878 17-04-2020 02:12:17 9.6 C 36 %
879 17-04-2020 02:22:17 9.1 C 36 %
880 17-04-2020 02:32:17 8.9 C 37 %
881 17-04-2020 02:42:17 8.5 C 38 %
882 17-04-2020 02:52:17 8.1 C 38 %
883 17-04-2020 03:02:17 7.9 C 39 %
884 17-04-2020 03:12:18 7.9 C 40 %
885 17-04-2020 03:22:18 7.8 C 40 %
886 17-04-2020 03:32:17 7.8 C 40 %
887 17-04-2020 03:42:18 7.8 C 40 %
888 17-04-2020 03:52:18 8.5 C 39 %
889 17-04-2020 04:02:17 8.4 C 39 %
890 17-04-2020 04:12:17 8.3 C 39 %
891 17-04-2020 04:22:17 8 C 39 %
892 17-04-2020 04:32:17 7.9 C 40 %
893 17-04-2020 04:42:17 8 C 40 %
894 17-04-2020 04:52:17 7.8 C 40 %
895 17-04-2020 05:02:17 7.5 C 40 %
896 17-04-2020 05:12:18 6.9 C 41 %
897 17-04-2020 05:22:17 6.7 C 42 %
898 17-04-2020 05:32:18 6.6 C 42 %
899 17-04-2020 05:42:18 6.7 C 43 %
900 17-04-2020 05:52:18 6.5 C 42 %
Sensor: Nr:Datum:Temp:Feuchte:
Aussen-T/F 901 17-04-2020 06:02:18 6.5 C 43 %
902 17-04-2020 06:12:18 6.2 C 43 %
903 17-04-2020 06:22:17 6 C 43 %
904 17-04-2020 06:32:17 6 C 44 %
905 17-04-2020 06:42:17 5.8 C 44 %
906 17-04-2020 06:52:17 5.8 C 44 %
907 17-04-2020 07:02:18 5.8 C 45 %
908 17-04-2020 07:12:18 5.9 C 45 %
909 17-04-2020 07:22:18 6.1 C 45 %
910 17-04-2020 07:32:17 6.1 C 45 %
911 17-04-2020 07:42:17 6.3 C 45 %
912 17-04-2020 07:52:17 6.3 C 45 %
913 17-04-2020 08:02:17 6.5 C 45 %
914 17-04-2020 08:12:17 6.7 C 45 %
915 17-04-2020 08:22:17 6.9 C 45 %
916 17-04-2020 08:32:18 7 C 44 %
917 17-04-2020 08:42:18 7.6 C 44 %
918 17-04-2020 08:52:17 7.9 C 44 %
919 17-04-2020 09:02:18 8.4 C 42 %
920 17-04-2020 09:12:18 8.6 C 42 %
921 17-04-2020 09:22:17 8.8 C 41 %
922 17-04-2020 09:32:17 9.3 C 41 %
923 17-04-2020 09:42:17 9.6 C 40 %
924 17-04-2020 09:52:18 10.3 C 39 %
925 17-04-2020 10:02:17 10.8 C 38 %
Sensor: Nr:Datum:Temp:Feuchte:
Aussen-T/F 926 17-04-2020 10:12:17 11 C 37 %
927 17-04-2020 10:22:18 11.8 C 36 %
928 17-04-2020 10:32:18 12.4 C 35 %
929 17-04-2020 10:42:18 13 C 34 %
930 17-04-2020 10:52:17 13.9 C 34 %
931 17-04-2020 11:02:17 14.6 C 32 %
932 17-04-2020 11:12:17 15.8 C 30 %
933 17-04-2020 11:22:18 16.5 C 28 %
934 17-04-2020 11:32:17 17.1 C 28 %
935 17-04-2020 11:42:17 17.7 C 26 %
936 17-04-2020 11:52:17 17.9 C 25 %
937 17-04-2020 12:02:18 18.5 C 25 %
938 17-04-2020 12:12:18 18.7 C 24 %
939 17-04-2020 12:22:17 19.1 C 22 %
940 17-04-2020 12:32:17 19.7 C 20 %
941 17-04-2020 12:42:17 19.7 C 20 %
942 17-04-2020 12:52:17 19.7 C 20 %
943 17-04-2020 13:02:18 20 C 20 %
944 17-04-2020 13:12:18 20.4 C 20 %
945 17-04-2020 13:22:17 20.6 C 20 %
946 17-04-2020 13:32:17 20.8 C 20 %
947 17-04-2020 13:42:17 21.1 C 20 %
948 17-04-2020 13:52:17 21.6 C 20 %
949 17-04-2020 14:02:18 21.8 C 20 %
950 17-04-2020 14:12:18 22.6 C 20 %
Sensor: Nr:Datum:Temp:Feuchte:
Aussen-T/F 951 17-04-2020 14:22:17 23.2 C 20 %
952 17-04-2020 14:32:17 25.2 C 20 %
953 17-04-2020 14:42:17 29 C 20 %
954 17-04-2020 14:52:17 32.1 C 20 %
955 17-04-2020 15:02:17 30.9 C 20 %
956 17-04-2020 15:12:17 31.4 C 20 %
957 17-04-2020 15:22:17 29.6 C 20 %
958 17-04-2020 15:32:17 29.2 C 20 %
959 17-04-2020 15:42:17 29 C 20 %
960 17-04-2020 15:52:18 25.7 C 20 %
961 17-04-2020 16:02:17 30.3 C 20 %
962 17-04-2020 16:12:17 30.2 C 20 %
963 17-04-2020 16:22:17 27.5 C 20 %
964 17-04-2020 16:32:17 28.2 C 20 %
965 17-04-2020 16:42:17 28.2 C 20 %
966 17-04-2020 16:52:17 27.7 C 20 %
967 17-04-2020 17:02:18 29.6 C 20 %
968 17-04-2020 17:12:18 29.4 C 20 %
969 17-04-2020 17:22:17 29.5 C 20 %
970 17-04-2020 17:32:17 30.4 C 20 %
971 17-04-2020 17:42:18 27.7 C 20 %
972 17-04-2020 17:52:17 28.5 C 20 %
973 17-04-2020 18:02:17 26.6 C 20 %
974 17-04-2020 18:12:17 26.2 C 20 %
975 17-04-2020 18:22:17 25.7 C 20 %
Sensor: Nr:Datum:Temp:Feuchte:
Aussen-T/F 976 17-04-2020 18:32:17 24.8 C 20 %
977 17-04-2020 18:42:17 24.7 C 20 %
978 17-04-2020 18:52:18 24.2 C 20 %
979 17-04-2020 19:02:17 24.1 C 20 %
980 17-04-2020 19:12:17 23.7 C 20 %
981 17-04-2020 19:22:17 23 C 20 %
982 17-04-2020 19:32:17 22.2 C 20 %
983 17-04-2020 19:42:17 21.7 C 20 %
984 17-04-2020 19:52:17 20.7 C 20 %
985 17-04-2020 20:02:17 20 C 20 %
986 17-04-2020 20:12:17 19.5 C 20 %
987 17-04-2020 20:22:17 18.8 C 21 %
988 17-04-2020 20:32:17 18.4 C 21 %
989 17-04-2020 20:42:17 18.2 C 21 %
990 17-04-2020 20:52:17 17.7 C 23 %
991 17-04-2020 21:02:17 17.5 C 23 %
992 17-04-2020 21:12:17 17.7 C 24 %
993 17-04-2020 21:22:17 17.6 C 25 %
994 17-04-2020 21:32:18 17.8 C 24 %
995 17-04-2020 21:42:18 17 C 25 %
996 17-04-2020 21:52:18 16.8 C 25 %
997 17-04-2020 22:02:17 16 C 26 %
998 17-04-2020 22:12:17 16 C 26 %
999 17-04-2020 22:22:17 15.8 C 26 %
1000 17-04-2020 22:32:17 15.7 C 26 %
Sensor: Nr:Datum:Temp:Feuchte:
Aussen-T/F 1001 17-04-2020 22:42:17 15.1 C 27 %
1002 17-04-2020 22:52:17 14.6 C 29 %
1003 17-04-2020 23:02:17 14.7 C 30 %
1004 17-04-2020 23:12:17 14.4 C 29 %
1005 17-04-2020 23:22:18 14.1 C 30 %
1006 17-04-2020 23:32:17 14 C 30 %
1007 17-04-2020 23:42:17 13.6 C 31 %
1008 17-04-2020 23:52:17 13.5 C 31 %
1009 18-04-2020 00:02:17 13.4 C 31 %
1010 18-04-2020 00:12:17 13.1 C 32 %
1011 18-04-2020 00:22:18 12.6 C 33 %
1012 18-04-2020 00:32:17 12.2 C 33 %
1013 18-04-2020 00:42:18 12 C 33 %
1014 18-04-2020 00:52:17 11.8 C 34 %
1015 18-04-2020 01:02:18 11.8 C 34 %
1016 18-04-2020 01:12:18 11.8 C 34 %
1017 18-04-2020 01:22:17 11.4 C 34 %
1018 18-04-2020 01:32:18 11.1 C 35 %
1019 18-04-2020 01:42:18 10.9 C 36 %
1020 18-04-2020 01:52:17 10.9 C 36 %
1021 18-04-2020 02:02:18 10.8 C 36 %
1022 18-04-2020 02:12:18 10.6 C 36 %
1023 18-04-2020 02:22:17 10.7 C 36 %
1024 18-04-2020 02:32:17 10.1 C 37 %
1025 18-04-2020 02:42:17 10 C 38 %
Sensor: Nr:Datum:Temp:Feuchte:
Aussen-T/F 1026 18-04-2020 02:52:18 9.8 C 38 %
1027 18-04-2020 03:02:17 9.7 C 39 %
1028 18-04-2020 03:12:17 9.6 C 39 %
1029 18-04-2020 03:22:18 9.2 C 39 %
1030 18-04-2020 03:32:18 9 C 39 %
1031 18-04-2020 03:42:18 9 C 39 %
1032 18-04-2020 03:52:18 8.9 C 40 %
1033 18-04-2020 04:02:17 9 C 40 %
1034 18-04-2020 04:12:17 9 C 40 %
1035 18-04-2020 04:22:17 9 C 40 %
1036 18-04-2020 04:32:18 8.9 C 41 %
1037 18-04-2020 04:42:18 8.8 C 41 %
1038 18-04-2020 04:52:17 8.6 C 41 %
1039 18-04-2020 05:02:17 8.4 C 41 %
1040 18-04-2020 05:12:17 8.5 C 41 %
1041 18-04-2020 05:22:17 8.7 C 40 %
1042 18-04-2020 05:32:17 8.6 C 41 %
1043 18-04-2020 05:42:17 8.3 C 41 %
1044 18-04-2020 05:52:18 8.6 C 41 %
1045 18-04-2020 06:02:17 8.7 C 41 %
1046 18-04-2020 06:12:17 8.6 C 41 %
1047 18-04-2020 06:22:17 8.7 C 41 %
1048 18-04-2020 06:32:17 8.3 C 41 %
1049 18-04-2020 06:42:17 8.1 C 41 %
1050 18-04-2020 06:52:17 8.2 C 41 %
Sensor: Nr:Datum:Temp:Feuchte:
Aussen-T/F 1051 18-04-2020 07:02:17 8.4 C 42 %
1052 18-04-2020 07:12:17 8.7 C 42 %
1053 18-04-2020 07:22:17 9.4 C 42 %
1054 18-04-2020 07:32:17 9.6 C 41 %
1055 18-04-2020 07:42:17 9.7 C 41 %
1056 18-04-2020 07:52:17 9.7 C 41 %
1057 18-04-2020 08:02:18 9.7 C 41 %
1058 18-04-2020 08:12:18 10 C 40 %
1059 18-04-2020 08:22:17 10.1 C 40 %
1060 18-04-2020 08:32:17 10.2 C 40 %
1061 18-04-2020 08:42:18 10.6 C 40 %
1062 18-04-2020 08:52:18 11.1 C 39 %
1063 18-04-2020 09:02:17 11.7 C 38 %
1064 18-04-2020 09:12:17 12.1 C 37 %
1065 18-04-2020 09:22:17 12.5 C 36 %
1066 18-04-2020 09:32:18 13.4 C 35 %
1067 18-04-2020 09:42:18 13.8 C 34 %
1068 18-04-2020 09:52:18 14.4 C 32 %
1069 18-04-2020 10:02:18 15 C 31 %
1070 18-04-2020 10:12:18 14.9 C 31 %
1071 18-04-2020 10:22:18 16.2 C 30 %
1072 18-04-2020 10:32:18 15.8 C 30 %
1073 18-04-2020 10:42:18 17.2 C 29 %
1074 18-04-2020 10:52:18 17.9 C 29 %
1075 18-04-2020 11:02:18 18.5 C 27 %
Sensor: Nr:Datum:Temp:Feuchte:
Aussen-T/F 1076 18-04-2020 11:12:18 18.3 C 27 %
1077 18-04-2020 11:22:17 18.5 C 26 %
1078 18-04-2020 11:32:18 17.8 C 27 %
1079 18-04-2020 11:42:18 18.6 C 26 %
1080 18-04-2020 11:52:18 18.9 C 27 %
1081 18-04-2020 12:02:17 19.1 C 26 %
1082 18-04-2020 12:12:17 20 C 25 %
1083 18-04-2020 12:22:18 20.2 C 24 %
1084 18-04-2020 12:32:18 20.1 C 24 %
1085 18-04-2020 12:42:18 19.6 C 25 %
1086 18-04-2020 12:52:17 19.3 C 25 %
1087 18-04-2020 13:02:17 20.8 C 24 %
1088 18-04-2020 13:12:17 21.8 C 21 %
1089 18-04-2020 13:22:18 21.5 C 20 %
1090 18-04-2020 13:32:18 21.8 C 20 %
1091 18-04-2020 13:42:18 22.4 C 20 %
1092 18-04-2020 13:52:18 21.6 C 20 %
1093 18-04-2020 14:02:18 21.2 C 20 %
1094 18-04-2020 14:12:18 21.7 C 20 %
1095 18-04-2020 14:22:18 22.4 C 20 %
1096 18-04-2020 14:32:17 22.4 C 20 %
1097 18-04-2020 14:42:17 22.8 C 20 %
1098 18-04-2020 14:52:17 22.6 C 20 %
1099 18-04-2020 15:02:17 25.4 C 20 %
1100 18-04-2020 15:12:18 30.4 C 20 %
Sensor: Nr:Datum:Temp:Feuchte:
Aussen-T/F 1101 18-04-2020 15:22:17 28.2 C 20 %
1102 18-04-2020 15:32:17 23.8 C 20 %
1103 18-04-2020 15:42:17 23.2 C 20 %
1104 18-04-2020 15:52:17 22.2 C 20 %
1105 18-04-2020 16:02:18 21.8 C 20 %
1106 18-04-2020 16:12:18 21.8 C 20 %
1107 18-04-2020 16:22:18 20.6 C 20 %
1108 18-04-2020 16:32:17 19.7 C 25 %
1109 18-04-2020 16:42:17 20 C 25 %
1110 18-04-2020 16:52:17 19.9 C 25 %
1111 18-04-2020 17:02:17 19.1 C 26 %
1112 18-04-2020 17:12:17 18.9 C 27 %
1113 18-04-2020 17:22:17 18.7 C 28 %
1114 18-04-2020 17:32:18 17.6 C 33 %
1115 18-04-2020 17:42:18 17.5 C 33 %
1116 18-04-2020 17:52:18 17.4 C 33 %
1117 18-04-2020 18:02:18 17.3 C 34 %
1118 18-04-2020 18:12:18 17.1 C 34 %
1119 18-04-2020 18:22:17 17.3 C 33 %
1120 18-04-2020 18:32:18 17.7 C 31 %
1121 18-04-2020 18:42:18 17.7 C 31 %
1122 18-04-2020 18:52:17 17.9 C 30 %
1123 18-04-2020 19:02:18 18.1 C 30 %
1124 18-04-2020 19:12:18 17.9 C 30 %
1125 18-04-2020 19:22:17 17.6 C 30 %
Sensor: Nr:Datum:Temp:Feuchte:
Aussen-T/F 1126 18-04-2020 19:32:17 17.8 C 30 %
1127 18-04-2020 19:42:17 18.1 C 29 %
1128 18-04-2020 19:52:18 17.7 C 30 %
1129 18-04-2020 20:02:17 17.3 C 30 %
1130 18-04-2020 20:12:17 16.5 C 30 %
1131 18-04-2020 20:22:17 15.9 C 31 %
1132 18-04-2020 20:32:17 15 C 32 %
1133 18-04-2020 20:42:17 14.8 C 34 %
1134 18-04-2020 20:52:17 14.5 C 34 %
1135 18-04-2020 21:02:18 14.5 C 35 %
1136 18-04-2020 21:12:18 14.9 C 34 %
1137 18-04-2020 21:22:17 15 C 33 %
1138 18-04-2020 21:32:17 15.1 C 33 %
1139 18-04-2020 21:42:17 15 C 33 %
1140 18-04-2020 21:52:18 14.8 C 34 %
1141 18-04-2020 22:02:17 14.4 C 34 %
1142 18-04-2020 22:12:17 14.5 C 35 %
1143 18-04-2020 22:22:17 13.7 C 35 %
1144 18-04-2020 22:32:18 13.4 C 36 %
1145 18-04-2020 22:42:18 12.8 C 37 %
1146 18-04-2020 22:52:17 12.8 C 37 %
1147 18-04-2020 23:02:18 12.7 C 38 %
1148 18-04-2020 23:12:18 12.3 C 38 %
1149 18-04-2020 23:22:17 12.1 C 38 %
1150 18-04-2020 23:32:17 11.7 C 40 %
Sensor: Nr:Datum:Temp:Feuchte:
Aussen-T/F 1151 18-04-2020 23:42:17 11.1 C 40 %
1152 18-04-2020 23:52:17 10.9 C 42 %
1153 19-04-2020 00:02:18 10.6 C 43 %
1154 19-04-2020 00:12:18 10.7 C 43 %
1155 19-04-2020 00:22:17 10.2 C 43 %
1156 19-04-2020 00:32:17 10.2 C 43 %
1157 19-04-2020 00:42:17 10.1 C 44 %
1158 19-04-2020 00:52:17 9.8 C 44 %
1159 19-04-2020 01:02:17 9.8 C 45 %
1160 19-04-2020 01:12:17 9.9 C 45 %
1161 19-04-2020 01:22:17 9.6 C 44 %
1162 19-04-2020 01:32:17 9.6 C 45 %
1163 19-04-2020 01:42:17 9.9 C 45 %
1164 19-04-2020 01:52:17 9.5 C 45 %
1165 19-04-2020 02:02:17 9.5 C 45 %
1166 19-04-2020 02:12:18 9.6 C 45 %
1167 19-04-2020 02:22:17 9.7 C 45 %
1168 19-04-2020 02:32:17 10 C 45 %
1169 19-04-2020 02:42:17 10 C 44 %
1170 19-04-2020 02:52:17 9.8 C 45 %
1171 19-04-2020 03:02:17 9.6 C 45 %
1172 19-04-2020 03:12:17 9.3 C 44 %
1173 19-04-2020 03:22:17 9.1 C 45 %
1174 19-04-2020 03:32:17 8.9 C 45 %
1175 19-04-2020 03:42:17 8.7 C 45 %
Sensor: Nr:Datum:Temp:Feuchte:
Aussen-T/F 1176 19-04-2020 03:52:17 8.7 C 45 %
1177 19-04-2020 04:02:17 8.5 C 45 %
1178 19-04-2020 04:12:17 9.2 C 45 %
1179 19-04-2020 04:22:17 9.2 C 45 %
1180 19-04-2020 04:32:17 9.4 C 45 %
1181 19-04-2020 04:42:17 9.6 C 45 %
1182 19-04-2020 04:52:17 9.6 C 45 %
1183 19-04-2020 05:02:17 9.7 C 45 %
1184 19-04-2020 05:12:17 9.6 C 45 %
1185 19-04-2020 05:22:18 9.6 C 45 %
1186 19-04-2020 05:32:17 9.7 C 45 %
1187 19-04-2020 05:42:17 9.7 C 45 %
1188 19-04-2020 05:52:17 9.8 C 45 %
1189 19-04-2020 06:02:17 9.9 C 45 %
1190 19-04-2020 06:12:17 10.1 C 44 %
1191 19-04-2020 06:22:17 10.1 C 44 %
1192 19-04-2020 06:32:17 10.2 C 44 %
1193 19-04-2020 06:42:17 10.2 C 44 %
1194 19-04-2020 06:52:18 10.3 C 44 %
1195 19-04-2020 07:02:18 10.3 C 44 %
1196 19-04-2020 07:12:18 10.4 C 44 %
1197 19-04-2020 07:22:17 10.6 C 44 %
1198 19-04-2020 07:32:18 10.5 C 43 %
1199 19-04-2020 07:42:18 10.6 C 43 %
1200 19-04-2020 07:52:17 10.6 C 43 %
Sensor: Nr:Datum:Temp:Feuchte:
Aussen-T/F 1201 19-04-2020 08:02:17 10.7 C 43 %
1202 19-04-2020 08:12:17 11.3 C 42 %
1203 19-04-2020 08:22:17 11.5 C 41 %
1204 19-04-2020 08:32:17 12 C 40 %
1205 19-04-2020 08:42:17 12.4 C 39 %
1206 19-04-2020 08:52:17 13.2 C 37 %
1207 19-04-2020 09:02:17 12.5 C 38 %
1208 19-04-2020 09:12:18 13 C 37 %
1209 19-04-2020 09:22:18 13.2 C 36 %
1210 19-04-2020 09:32:17 13.5 C 36 %
1211 19-04-2020 09:42:17 13.8 C 36 %
1212 19-04-2020 09:52:17 13.8 C 35 %
1213 19-04-2020 10:02:17 13.7 C 35 %
1214 19-04-2020 10:12:17 14.2 C 35 %
1215 19-04-2020 10:22:17 14.7 C 34 %
1216 19-04-2020 10:32:17 15.5 C 33 %
1217 19-04-2020 10:42:17 16.4 C 31 %
1218 19-04-2020 10:52:17 16.4 C 31 %
1219 19-04-2020 11:02:17 15.7 C 32 %
1220 19-04-2020 11:12:17 14.7 C 33 %
1221 19-04-2020 11:22:17 14.7 C 33 %
1222 19-04-2020 11:32:17 14.4 C 34 %
1223 19-04-2020 11:42:17 14 C 34 %
1224 19-04-2020 11:52:17 13.8 C 35 %
1225 19-04-2020 12:02:17 14.2 C 34 %
Sensor: Nr:Datum:Temp:Feuchte:
Aussen-T/F 1226 19-04-2020 12:12:17 14.7 C 34 %
1227 19-04-2020 12:22:17 16 C 31 %
1228 19-04-2020 12:32:18 16 C 31 %
1229 19-04-2020 12:42:18 16.3 C 30 %
1230 19-04-2020 12:52:17 16.9 C 30 %
1231 19-04-2020 13:02:17 17.4 C 28 %
1232 19-04-2020 13:12:17 16.9 C 29 %
1233 19-04-2020 13:22:17 17.4 C 27 %
1234 19-04-2020 13:32:17 18.8 C 26 %
1235 19-04-2020 13:42:17 19.1 C 25 %
1236 19-04-2020 13:52:17 19.3 C 25 %
1237 19-04-2020 14:02:18 18.8 C 25 %
1238 19-04-2020 14:12:18 18.6 C 25 %
1239 19-04-2020 14:22:17 18.1 C 25 %
1240 19-04-2020 14:32:17 17.4 C 26 %
1241 19-04-2020 14:42:17 18 C 26 %
1242 19-04-2020 14:52:17 17.1 C 26 %
1243 19-04-2020 15:02:18 16.9 C 26 %
1244 19-04-2020 15:12:18 16.6 C 26 %
1245 19-04-2020 15:22:17 17 C 25 %
1246 19-04-2020 15:32:17 17.2 C 25 %
1247 19-04-2020 15:42:18 17.8 C 25 %
1248 19-04-2020 15:52:18 18.1 C 24 %
1249 19-04-2020 16:02:17 19.2 C 22 %
1250 19-04-2020 16:12:17 22.2 C 20 %
Sensor: Nr:Datum:Temp:Feuchte:
Aussen-T/F 1251 19-04-2020 16:22:17 20.2 C 20 %
1252 19-04-2020 16:32:17 18.6 C 20 %
1253 19-04-2020 16:42:17 20.5 C 20 %
1254 19-04-2020 16:52:17 21.3 C 20 %
1255 19-04-2020 17:02:17 17.5 C 20 %
1256 19-04-2020 17:12:17 18.6 C 20 %
1257 19-04-2020 17:22:17 19.7 C 20 %
1258 19-04-2020 17:32:18 18.9 C 20 %
1259 19-04-2020 17:42:18 19.2 C 20 %
1260 19-04-2020 17:52:17 18.6 C 20 %
1261 19-04-2020 18:02:18 17.4 C 20 %
1262 19-04-2020 18:12:18 17.3 C 20 %
1263 19-04-2020 18:22:17 17.3 C 20 %
1264 19-04-2020 18:32:17 17.3 C 20 %
1265 19-04-2020 18:42:17 16.8 C 20 %
1266 19-04-2020 18:52:17 16.8 C 20 %
1267 19-04-2020 19:02:17 16.8 C 20 %
1268 19-04-2020 19:12:17 16.7 C 20 %
1269 19-04-2020 19:22:17 16.3 C 20 %
1270 19-04-2020 19:32:18 16 C 20 %
1271 19-04-2020 19:42:18 15.6 C 20 %
1272 19-04-2020 19:52:17 15.1 C 20 %
1273 19-04-2020 20:02:18 14.7 C 20 %
1274 19-04-2020 20:12:18 13.7 C 23 %
1275 19-04-2020 20:22:17 13.3 C 24 %
Sensor: Nr:Datum:Temp:Feuchte:
Aussen-T/F 1276 19-04-2020 20:32:17 13 C 25 %
1277 19-04-2020 20:42:17 12.5 C 26 %
1278 19-04-2020 20:52:17 12.3 C 26 %
1279 19-04-2020 21:02:18 12 C 26 %
1280 19-04-2020 21:12:18 12 C 26 %
1281 19-04-2020 21:22:17 11.7 C 27 %
1282 19-04-2020 21:32:17 11.5 C 27 %
1283 19-04-2020 21:42:17 11.4 C 27 %
1284 19-04-2020 21:52:17 11 C 27 %
1285 19-04-2020 22:02:17 11.2 C 26 %
1286 19-04-2020 22:12:17 11 C 26 %
1287 19-04-2020 22:22:17 11.1 C 26 %
1288 19-04-2020 22:32:17 10.9 C 26 %
1289 19-04-2020 22:42:17 10.3 C 26 %
1290 19-04-2020 22:52:17 10.2 C 26 %
1291 19-04-2020 23:02:18 11.1 C 25 %
1292 19-04-2020 23:12:18 10.1 C 25 %
1293 19-04-2020 23:22:18 9.7 C 27 %
1294 19-04-2020 23:32:17 10.3 C 22 %
1295 19-04-2020 23:42:17 10.3 C 25 %
1296 19-04-2020 23:52:17 10.3 C 23 %
1297 20-04-2020 00:02:17 10.1 C 25 %
1298 20-04-2020 00:12:17 9.6 C 25 %
1299 20-04-2020 00:22:17 10.1 C 21 %
1300 20-04-2020 00:32:18 9.9 C 23 %
Sensor: Nr:Datum:Temp:Feuchte:
Aussen-T/F 1301 20-04-2020 00:42:18 9.6 C 25 %
1302 20-04-2020 00:52:18 9.3 C 25 %
1303 20-04-2020 01:02:17 9.8 C 23 %
1304 20-04-2020 01:12:17 9.3 C 23 %
1305 20-04-2020 01:22:17 9.1 C 21 %
1306 20-04-2020 01:32:17 9.6 C 21 %
1307 20-04-2020 01:42:17 9.1 C 21 %
1308 20-04-2020 01:52:17 8.5 C 25 %
1309 20-04-2020 02:02:18 8.1 C 26 %
1310 20-04-2020 02:12:18 7.9 C 26 %
1311 20-04-2020 02:22:17 7.5 C 27 %
1312 20-04-2020 02:32:18 7.3 C 27 %
1313 20-04-2020 02:42:18 7.3 C 27 %
1314 20-04-2020 02:52:17 7.3 C 27 %
1315 20-04-2020 03:02:17 7 C 27 %
1316 20-04-2020 03:12:17 6.9 C 28 %
1317 20-04-2020 03:22:17 6.7 C 29 %
1318 20-04-2020 03:32:17 6.9 C 28 %
1319 20-04-2020 03:42:17 6.9 C 28 %
1320 20-04-2020 03:52:17 6.7 C 29 %
1321 20-04-2020 04:02:17 6.6 C 28 %
1322 20-04-2020 04:12:17 6.5 C 28 %
1323 20-04-2020 04:22:17 6.4 C 29 %
1324 20-04-2020 04:32:18 6.4 C 28 %
1325 20-04-2020 04:42:18 6.4 C 28 %
Sensor: Nr:Datum:Temp:Feuchte:
Aussen-T/F 1326 20-04-2020 04:52:17 6.2 C 29 %
1327 20-04-2020 05:02:18 6.4 C 29 %
1328 20-04-2020 05:12:18 6.3 C 29 %
1329 20-04-2020 05:22:17 6.3 C 29 %
1330 20-04-2020 05:32:17 6.2 C 30 %
1331 20-04-2020 05:42:18 6.3 C 29 %
1332 20-04-2020 05:52:17 6.3 C 29 %
1333 20-04-2020 06:02:18 6 C 30 %
1334 20-04-2020 06:12:18 5.9 C 30 %
1335 20-04-2020 06:22:17 5.9 C 30 %
1336 20-04-2020 06:32:17 6.1 C 30 %
1337 20-04-2020 06:42:17 6.1 C 30 %
1338 20-04-2020 06:52:17 5.9 C 30 %
1339 20-04-2020 07:02:17 6.1 C 30 %
1340 20-04-2020 07:12:17 6.2 C 30 %
1341 20-04-2020 07:22:17 6.2 C 30 %
1342 20-04-2020 07:32:17 6.4 C 30 %
1343 20-04-2020 07:42:17 7.2 C 27 %
1344 20-04-2020 07:52:17 7.4 C 27 %
1345 20-04-2020 08:02:18 7.3 C 27 %
1346 20-04-2020 08:12:18 7.9 C 26 %
1347 20-04-2020 08:22:17 7.8 C 27 %
1348 20-04-2020 08:32:17 7.7 C 28 %
1349 20-04-2020 08:42:18 7.9 C 26 %
1350 20-04-2020 08:52:18 8.1 C 26 %
Sensor: Nr:Datum:Temp:Feuchte:
Aussen-T/F 1351 20-04-2020 09:02:17 8.3 C 26 %
1352 20-04-2020 09:12:17 8.2 C 27 %
1353 20-04-2020 09:22:17 8.4 C 27 %
1354 20-04-2020 09:32:17 9 C 25 %
1355 20-04-2020 09:42:17 9.4 C 25 %
1356 20-04-2020 09:52:18 9.4 C 26 %
1357 20-04-2020 10:02:18 9.9 C 26 %
1358 20-04-2020 10:12:18 10.7 C 22 %
1359 20-04-2020 10:22:17 11.4 C 20 %
1360 20-04-2020 10:32:17 12.1 C 20 %
1361 20-04-2020 10:42:18 12.7 C 20 %
1362 20-04-2020 10:52:17 13.1 C 20 %
1363 20-04-2020 11:02:18 13.7 C 20 %
1364 20-04-2020 11:12:18 14 C 20 %
1365 20-04-2020 11:22:17 14.4 C 20 %
1366 20-04-2020 11:32:17 14.7 C 20 %
1367 20-04-2020 11:42:18 14.8 C 20 %
1368 20-04-2020 11:52:17 15 C 20 %
1369 20-04-2020 12:02:17 15.2 C 20 %
1370 20-04-2020 12:12:17 15 C 20 %
1371 20-04-2020 12:22:17 15 C 20 %
1372 20-04-2020 12:32:17 15.1 C 20 %
1373 20-04-2020 12:42:17 15.1 C 20 %
1374 20-04-2020 12:52:17 15.4 C 20 %
1375 20-04-2020 13:02:17 15.4 C 20 %
Sensor: Nr:Datum:Temp:Feuchte:
Aussen-T/F 1376 20-04-2020 13:12:17 16 C 20 %
1377 20-04-2020 13:22:17 15.8 C 20 %
1378 20-04-2020 13:32:17 16.1 C 20 %
1379 20-04-2020 13:42:17 16.1 C 20 %
1380 20-04-2020 13:52:17 16.8 C 20 %
1381 20-04-2020 14:02:17 16.9 C 20 %
1382 20-04-2020 14:12:17 17.3 C 20 %
1383 20-04-2020 14:22:17 18.3 C 20 %
1384 20-04-2020 14:32:18 21 C 20 %
1385 20-04-2020 14:42:18 23 C 20 %
1386 20-04-2020 14:52:18 23.2 C 20 %
1387 20-04-2020 15:02:17 22.9 C 20 %
1388 20-04-2020 15:12:17 21.8 C 20 %
1389 20-04-2020 15:22:17 22.9 C 20 %
1390 20-04-2020 15:32:17 23.3 C 20 %
1391 20-04-2020 15:42:17 24.7 C 20 %
1392 20-04-2020 15:52:17 22.5 C 20 %
1393 20-04-2020 16:02:17 24.5 C 20 %
1394 20-04-2020 16:12:17 22.7 C 20 %
1395 20-04-2020 16:22:17 23 C 20 %
1396 20-04-2020 16:32:17 23.5 C 20 %
1397 20-04-2020 16:42:17 23.6 C 20 %
1398 20-04-2020 16:52:17 23.4 C 20 %
1399 20-04-2020 17:02:17 23.7 C 20 %
1400 20-04-2020 17:12:17 22.3 C 20 %
Sensor: Nr:Datum:Temp:Feuchte:
Aussen-T/F 1401 20-04-2020 17:22:17 21.6 C 20 %
1402 20-04-2020 17:32:17 20.4 C 20 %
1403 20-04-2020 17:42:17 22.4 C 20 %
1404 20-04-2020 17:52:17 20.9 C 20 %
1405 20-04-2020 18:02:18 19.1 C 20 %
1406 20-04-2020 18:12:18 19 C 20 %
1407 20-04-2020 18:22:18 18.5 C 20 %
1408 20-04-2020 18:32:17 18.4 C 20 %
1409 20-04-2020 18:42:18 18.2 C 20 %
1410 20-04-2020 18:52:18 18.3 C 20 %
1411 20-04-2020 19:02:17 17.8 C 20 %
1412 20-04-2020 19:12:17 17.6 C 20 %
1413 20-04-2020 19:22:17 17.2 C 20 %
1414 20-04-2020 19:32:17 17 C 20 %
1415 20-04-2020 19:42:17 16.6 C 20 %
1416 20-04-2020 19:52:17 16.3 C 20 %
1417 20-04-2020 20:02:17 16 C 20 %
1418 20-04-2020 20:12:17 15.6 C 20 %
1419 20-04-2020 20:22:17 15 C 20 %
1420 20-04-2020 20:32:17 14.4 C 20 %
1421 20-04-2020 20:42:17 14.5 C 20 %
1422 20-04-2020 20:52:17 13.8 C 20 %
1423 20-04-2020 21:02:17 13.7 C 20 %
1424 20-04-2020 21:12:17 12.9 C 20 %
1425 20-04-2020 21:22:17 12.6 C 20 %
Sensor: Nr:Datum:Temp:Feuchte:
Aussen-T/F 1426 20-04-2020 21:32:17 12 C 20 %
1427 20-04-2020 21:42:17 12.2 C 20 %
1428 20-04-2020 21:52:17 12.6 C 20 %
1429 20-04-2020 22:02:17 11.8 C 20 %
1430 20-04-2020 22:12:17 11.9 C 20 %
1431 20-04-2020 22:22:17 12.1 C 20 %
1432 20-04-2020 22:32:17 12.2 C 20 %
1433 20-04-2020 22:42:17 11.9 C 20 %
1434 20-04-2020 22:52:18 11.5 C 20 %
1435 20-04-2020 23:02:17 11.5 C 20 %
1436 20-04-2020 23:12:17 11.6 C 20 %
1437 20-04-2020 23:22:17 11 C 20 %
1438 20-04-2020 23:32:18 11.6 C 20 %
1439 20-04-2020 23:42:18 11 C 20 %
1440 20-04-2020 23:52:17 11 C 20 %
1441 21-04-2020 00:02:17 10.9 C 20 %
1442 21-04-2020 00:12:17 10.3 C 20 %
1443 21-04-2020 00:22:17 10.4 C 20 %
1444 21-04-2020 00:32:17 9.9 C 20 %
1445 21-04-2020 00:42:17 10.5 C 20 %
1446 21-04-2020 00:52:17 10 C 20 %
1447 21-04-2020 01:02:18 9.4 C 20 %
1448 21-04-2020 01:12:18 8.9 C 20 %
1449 21-04-2020 01:22:18 9 C 20 %
1450 21-04-2020 01:32:18 8.9 C 20 %
Sensor: Nr:Datum:Temp:Feuchte:
Aussen-T/F 1451 21-04-2020 01:42:18 9.2 C 20 %
1452 21-04-2020 01:52:17 8.4 C 20 %
1453 21-04-2020 02:02:17 9.2 C 20 %
1454 21-04-2020 02:12:18 9.1 C 20 %
1455 21-04-2020 02:22:17 9.1 C 20 %
1456 21-04-2020 02:32:18 8.9 C 20 %
1457 21-04-2020 02:42:18 9.2 C 20 %
1458 21-04-2020 02:52:17 9 C 20 %
1459 21-04-2020 03:02:17 9.3 C 20 %
1460 21-04-2020 03:12:17 9.1 C 20 %
1461 21-04-2020 03:22:18 9.2 C 20 %
1462 21-04-2020 03:32:17 9.1 C 20 %
1463 21-04-2020 03:42:17 8.3 C 20 %
1464 21-04-2020 03:52:18 8.6 C 20 %
1465 21-04-2020 04:02:18 8.1 C 20 %
1466 21-04-2020 04:12:18 7.4 C 23 %
1467 21-04-2020 04:22:17 7.8 C 20 %
1468 21-04-2020 04:32:17 7.7 C 23 %
1469 21-04-2020 04:42:17 7.5 C 25 %
1470 21-04-2020 04:52:17 7.5 C 25 %
1471 21-04-2020 05:02:17 7.1 C 25 %
1472 21-04-2020 05:12:17 7.7 C 25 %
1473 21-04-2020 05:22:17 7.3 C 25 %
1474 21-04-2020 05:32:18 7 C 25 %
1475 21-04-2020 05:42:18 6.8 C 26 %
Sensor: Nr:Datum:Temp:Feuchte:
Aussen-T/F 1476 21-04-2020 05:52:17 6.5 C 27 %
1477 21-04-2020 06:02:17 6.9 C 27 %
1478 21-04-2020 06:12:17 6.6 C 27 %
1479 21-04-2020 06:22:18 6.6 C 27 %
1480 21-04-2020 06:32:18 6.3 C 28 %
1481 21-04-2020 06:42:18 6.4 C 28 %
1482 21-04-2020 06:52:17 6.3 C 29 %
1483 21-04-2020 07:02:18 6.1 C 30 %
1484 21-04-2020 07:12:18 6.2 C 29 %
1485 21-04-2020 07:22:17 6.3 C 30 %
1486 21-04-2020 07:32:17 6.5 C 30 %
1487 21-04-2020 07:42:17 7.3 C 27 %
1488 21-04-2020 07:52:17 6.9 C 29 %
1489 21-04-2020 08:02:17 7.4 C 27 %
1490 21-04-2020 08:12:17 7.7 C 26 %
1491 21-04-2020 08:22:17 7.6 C 26 %
1492 21-04-2020 08:32:17 7.2 C 28 %
1493 21-04-2020 08:42:18 7.5 C 27 %
1494 21-04-2020 08:52:17 8.3 C 27 %
1495 21-04-2020 09:02:17 8.7 C 25 %
1496 21-04-2020 09:12:17 9.2 C 23 %
1497 21-04-2020 09:22:17 9.7 C 21 %
1498 21-04-2020 09:32:17 10.2 C 20 %
1499 21-04-2020 09:42:17 10.7 C 20 %
1500 21-04-2020 09:52:17 10.9 C 20 %
Sensor: Nr:Datum:Temp:Feuchte:
Aussen-T/F 1501 21-04-2020 10:02:17 10.9 C 20 %
1502 21-04-2020 10:12:17 11.7 C 20 %
1503 21-04-2020 10:22:17 12.2 C 20 %
1504 21-04-2020 10:32:17 12.8 C 20 %
1505 21-04-2020 10:42:17 13.2 C 20 %
1506 21-04-2020 10:52:17 13.5 C 20 %
1507 21-04-2020 11:02:17 13.9 C 20 %
1508 21-04-2020 11:12:17 14.6 C 20 %
1509 21-04-2020 11:22:17 14.6 C 20 %
1510 21-04-2020 11:32:18 14.7 C 20 %
1511 21-04-2020 11:42:18 15.2 C 20 %
1512 21-04-2020 11:52:18 15.7 C 20 %
1513 21-04-2020 12:02:17 16.4 C 20 %
1514 21-04-2020 12:12:18 16.1 C 20 %
1515 21-04-2020 12:22:17 16.1 C 20 %
1516 21-04-2020 12:32:17 16.2 C 20 %
1517 21-04-2020 12:42:17 16.4 C 20 %
1518 21-04-2020 12:52:17 16.6 C 20 %
1519 21-04-2020 13:02:17 16.9 C 20 %
1520 21-04-2020 13:12:17 17.4 C 20 %
1521 21-04-2020 13:22:17 17.2 C 20 %
1522 21-04-2020 13:32:17 17.3 C 20 %
1523 21-04-2020 13:42:17 17.9 C 20 %
1524 21-04-2020 13:52:17 18.1 C 20 %
1525 21-04-2020 14:02:17 18.5 C 20 %
Sensor: Nr:Datum:Temp:Feuchte:
Aussen-T/F 1526 21-04-2020 14:12:17 19 C 20 %
1527 21-04-2020 14:22:17 19.4 C 20 %
1528 21-04-2020 14:32:17 22 C 20 %
1529 21-04-2020 14:42:17 24.4 C 20 %
1530 21-04-2020 14:52:17 24.2 C 20 %
1531 21-04-2020 15:02:17 24.5 C 20 %
1532 21-04-2020 15:12:17 22.2 C 20 %
1533 21-04-2020 15:22:17 23.7 C 20 %
1534 21-04-2020 15:32:18 23.2 C 20 %
1535 21-04-2020 15:42:18 24 C 20 %
1536 21-04-2020 15:52:17 23.4 C 20 %
1537 21-04-2020 16:02:18 22.8 C 20 %
1538 21-04-2020 16:12:18 23.2 C 20 %
1539 21-04-2020 16:22:17 22.9 C 20 %
1540 21-04-2020 16:32:17 23.2 C 20 %
1541 21-04-2020 16:42:17 24.3 C 20 %
1542 21-04-2020 16:52:17 22.8 C 20 %
1543 21-04-2020 17:02:17 23.6 C 20 %
1544 21-04-2020 17:12:17 24.8 C 20 %
1545 21-04-2020 17:22:18 22.8 C 20 %
1546 21-04-2020 17:32:17 21.9 C 20 %
1547 21-04-2020 17:42:17 22.3 C 20 %
1548 21-04-2020 17:52:17 22.9 C 20 %
1549 21-04-2020 18:02:18 21.1 C 20 %
1550 21-04-2020 18:12:18 20.9 C 20 %
Sensor: Nr:Datum:Temp:Feuchte:
Aussen-T/F 1551 21-04-2020 18:22:17 20.5 C 20 %
1552 21-04-2020 18:32:17 20.3 C 20 %
1553 21-04-2020 18:42:17 20 C 20 %
1554 21-04-2020 18:52:18 20 C 20 %
1555 21-04-2020 19:02:17 19.6 C 20 %
1556 21-04-2020 19:12:17 19.4 C 20 %
1557 21-04-2020 19:22:17 19.1 C 20 %
1558 21-04-2020 19:32:18 18.9 C 20 %
1559 21-04-2020 19:42:18 18.7 C 20 %
1560 21-04-2020 19:52:17 18.3 C 20 %
1561 21-04-2020 20:02:17 17.9 C 20 %
1562 21-04-2020 20:12:17 17.4 C 20 %
1563 21-04-2020 20:22:17 16.7 C 20 %
1564 21-04-2020 20:32:17 16.2 C 20 %
1565 21-04-2020 20:42:17 15.5 C 20 %
1566 21-04-2020 20:52:17 14.8 C 20 %
1567 21-04-2020 21:02:18 14.2 C 20 %
1568 21-04-2020 21:12:18 14.5 C 20 %
1569 21-04-2020 21:22:17 14.1 C 20 %
1570 21-04-2020 21:32:17 13.9 C 20 %
1571 21-04-2020 21:42:17 13.2 C 20 %
1572 21-04-2020 21:52:18 12.9 C 20 %
1573 21-04-2020 22:02:17 13.2 C 20 %
1574 21-04-2020 22:12:17 13 C 20 %
1575 21-04-2020 22:22:17 13.4 C 20 %
Sensor: Nr:Datum:Temp:Feuchte:
Aussen-T/F 1576 21-04-2020 22:32:17 12.6 C 20 %
1577 21-04-2020 22:42:17 12 C 20 %
1578 21-04-2020 22:52:18 11.8 C 20 %
1579 21-04-2020 23:02:18 12.1 C 20 %
1580 21-04-2020 23:12:18 11.8 C 20 %
1581 21-04-2020 23:22:17 11.5 C 20 %
1582 21-04-2020 23:32:18 11.3 C 20 %
1583 21-04-2020 23:42:18 11.3 C 20 %
1584 21-04-2020 23:52:18 11.1 C 20 %
1585 22-04-2020 00:02:18 11.1 C 20 %
1586 22-04-2020 00:12:18 10.6 C 20 %
1587 22-04-2020 00:22:17 11.1 C 20 %
1588 22-04-2020 00:32:18 11.4 C 20 %
1589 22-04-2020 00:42:18 10.9 C 20 %
1590 22-04-2020 00:52:17 11 C 20 %
1591 22-04-2020 01:02:17 10.8 C 20 %
1592 22-04-2020 01:12:17 10 C 21 %
1593 22-04-2020 01:22:17 9.9 C 25 %
1594 22-04-2020 01:32:18 9.7 C 25 %
1595 22-04-2020 01:42:18 10.2 C 21 %
1596 22-04-2020 01:52:17 9.9 C 23 %
1597 22-04-2020 02:02:17 9.9 C 23 %
1598 22-04-2020 02:12:17 9.8 C 25 %
1599 22-04-2020 02:22:17 9.5 C 25 %
1600 22-04-2020 02:32:17 9.3 C 25 %
Sensor: Nr:Datum:Temp:Feuchte:
Aussen-T/F 1601 22-04-2020 02:42:17 9.7 C 25 %
1602 22-04-2020 02:52:17 9.3 C 25 %
1603 22-04-2020 03:02:17 9.5 C 25 %
1604 22-04-2020 03:12:17 9 C 25 %
1605 22-04-2020 03:22:18 8.8 C 26 %
1606 22-04-2020 03:32:18 8.5 C 27 %
1607 22-04-2020 03:42:18 8.4 C 27 %
1608 22-04-2020 03:52:17 8.3 C 27 %
1609 22-04-2020 04:02:18 8.4 C 27 %
1610 22-04-2020 04:12:18 8.3 C 27 %
1611 22-04-2020 04:22:17 8 C 27 %
1612 22-04-2020 04:32:18 7.9 C 27 %
1613 22-04-2020 04:42:18 7.9 C 27 %
1614 22-04-2020 04:52:17 7.4 C 28 %
1615 22-04-2020 05:02:18 7.5 C 28 %
1616 22-04-2020 05:12:18 7.3 C 28 %
1617 22-04-2020 05:22:17 7.1 C 29 %
1618 22-04-2020 05:32:17 7.1 C 29 %
1619 22-04-2020 05:42:18 6.9 C 30 %
1620 22-04-2020 05:52:17 6.7 C 30 %
1621 22-04-2020 06:02:18 6.7 C 30 %
1622 22-04-2020 06:12:18 6.1 C 31 %
1623 22-04-2020 06:22:17 5.8 C 32 %
1624 22-04-2020 06:32:17 5.6 C 33 %
1625 22-04-2020 06:42:17 5.3 C 35 %
Sensor: Nr:Datum:Temp:Feuchte:
Aussen-T/F 1626 22-04-2020 06:52:17 5.6 C 35 %
1627 22-04-2020 07:02:17 5.6 C 35 %
1628 22-04-2020 07:12:17 5.4 C 35 %
1629 22-04-2020 07:22:18 5.9 C 35 %
1630 22-04-2020 07:32:17 5.5 C 35 %
1631 22-04-2020 07:42:17 5.7 C 35 %
1632 22-04-2020 07:52:17 5.9 C 35 %
1633 22-04-2020 08:02:17 6.5 C 34 %
1634 22-04-2020 08:12:17 6.6 C 34 %
1635 22-04-2020 08:22:17 7 C 33 %
1636 22-04-2020 08:32:17 7.5 C 32 %
1637 22-04-2020 08:42:17 8 C 31 %
1638 22-04-2020 08:52:18 8.9 C 30 %
1639 22-04-2020 09:02:18 9.1 C 30 %
1640 22-04-2020 09:12:18 9.1 C 30 %
1641 22-04-2020 09:22:17 10.1 C 26 %
1642 22-04-2020 09:32:17 10.7 C 26 %
1643 22-04-2020 09:42:17 10.7 C 26 %
1644 22-04-2020 09:52:17 11.3 C 24 %
1645 22-04-2020 10:02:17 11.5 C 24 %
1646 22-04-2020 10:12:17 12.5 C 20 %
1647 22-04-2020 10:22:17 13 C 20 %
1648 22-04-2020 10:32:17 13.7 C 20 %
1649 22-04-2020 10:42:17 14.2 C 20 %
1650 22-04-2020 10:52:17 14.8 C 20 %
Sensor: Nr:Datum:Temp:Feuchte:
Aussen-T/F 1651 22-04-2020 11:02:17 15.4 C 20 %
1652 22-04-2020 11:12:17 15.7 C 20 %
1653 22-04-2020 11:22:17 16.2 C 20 %
1654 22-04-2020 11:32:17 16.4 C 20 %
1655 22-04-2020 11:42:17 17.1 C 20 %
1656 22-04-2020 11:52:18 17.1 C 20 %
1657 22-04-2020 12:02:18 17.9 C 20 %
1658 22-04-2020 12:12:18 17.6 C 20 %
1659 22-04-2020 12:22:17 17.7 C 20 %
1660 22-04-2020 12:32:17 17.7 C 20 %
1661 22-04-2020 12:42:17 17.7 C 20 %
1662 22-04-2020 12:52:18 18 C 20 %
1663 22-04-2020 13:02:17 18.6 C 20 %
1664 22-04-2020 13:12:17 19.3 C 20 %
1665 22-04-2020 13:22:17 19 C 20 %
1666 22-04-2020 13:32:17 18.9 C 20 %
1667 22-04-2020 13:42:17 19.1 C 20 %
1668 22-04-2020 13:52:17 19.4 C 20 %
1669 22-04-2020 14:02:17 19.8 C 20 %
1670 22-04-2020 14:12:17 20.3 C 20 %
1671 22-04-2020 14:22:17 21.2 C 20 %
1672 22-04-2020 14:32:17 25.4 C 20 %
1673 22-04-2020 14:42:17 27.1 C 20 %
1674 22-04-2020 14:52:17 25.8 C 20 %
1675 22-04-2020 15:02:17 24.9 C 20 %
Sensor: Nr:Datum:Temp:Feuchte:
Aussen-T/F 1676 22-04-2020 15:12:18 26.4 C 20 %
1677 22-04-2020 15:22:17 27.6 C 20 %
1678 22-04-2020 15:32:17 27 C 20 %
1679 22-04-2020 15:42:17 25.4 C 20 %
1680 22-04-2020 15:52:17 25.7 C 20 %
1681 22-04-2020 16:02:17 25.3 C 20 %
1682 22-04-2020 16:12:17 27.2 C 20 %
1683 22-04-2020 16:22:17 26.8 C 20 %
1684 22-04-2020 16:32:18 27.7 C 20 %
1685 22-04-2020 16:42:18 25.2 C 20 %
1686 22-04-2020 16:52:17 26.3 C 20 %
1687 22-04-2020 17:02:17 25.2 C 20 %
1688 22-04-2020 17:12:17 24.6 C 20 %
1689 22-04-2020 17:22:17 25.1 C 20 %
1690 22-04-2020 17:32:17 25.5 C 20 %
1691 22-04-2020 17:42:17 25.6 C 20 %
1692 22-04-2020 17:52:17 25.2 C 20 %
1693 22-04-2020 18:02:17 23.1 C 20 %
1694 22-04-2020 18:12:17 22 C 20 %
1695 22-04-2020 18:22:17 22.1 C 20 %
1696 22-04-2020 18:32:17 21.9 C 20 %
1697 22-04-2020 18:42:17 21.9 C 20 %
1698 22-04-2020 18:52:17 21.6 C 20 %
1699 22-04-2020 19:02:17 21.1 C 20 %
1700 22-04-2020 19:12:17 21.2 C 20 %
Sensor: Nr:Datum:Temp:Feuchte:
Aussen-T/F 1701 22-04-2020 19:22:17 20.8 C 20 %
1702 22-04-2020 19:32:18 20.4 C 20 %
1703 22-04-2020 19:42:18 20.3 C 20 %
1704 22-04-2020 19:52:17 20 C 20 %
1705 22-04-2020 20:02:18 19.4 C 20 %
1706 22-04-2020 20:12:18 18.4 C 20 %
1707 22-04-2020 20:22:17 17 C 20 %
1708 22-04-2020 20:32:17 16.3 C 20 %
1709 22-04-2020 20:42:17 16.2 C 20 %
1710 22-04-2020 20:52:17 15.9 C 20 %
1711 22-04-2020 21:02:17 15.7 C 20 %
1712 22-04-2020 21:12:17 15 C 20 %
1713 22-04-2020 21:22:17 14.6 C 20 %
1714 22-04-2020 21:32:17 14.4 C 20 %
1715 22-04-2020 21:42:17 14.4 C 20 %
1716 22-04-2020 21:52:17 14.1 C 20 %
1717 22-04-2020 22:02:17 13.7 C 20 %
1718 22-04-2020 22:12:17 13.8 C 20 %
1719 22-04-2020 22:22:17 14.2 C 20 %
1720 22-04-2020 22:32:17 13.6 C 20 %
1721 22-04-2020 22:42:17 13.5 C 20 %
1722 22-04-2020 22:52:18 13.5 C 20 %
1723 22-04-2020 23:02:17 13.7 C 20 %
1724 22-04-2020 23:12:17 13.5 C 20 %
1725 22-04-2020 23:22:17 13.2 C 20 %
Sensor: Nr:Datum:Temp:Feuchte:
Aussen-T/F 1726 22-04-2020 23:32:17 12.9 C 20 %
1727 22-04-2020 23:42:17 13.2 C 20 %
1728 22-04-2020 23:52:18 12.8 C 20 %
1729 23-04-2020 00:02:17 12.6 C 20 %
1730 23-04-2020 00:12:17 12.4 C 20 %
1731 23-04-2020 00:22:17 12.4 C 20 %
1732 23-04-2020 00:32:17 12.2 C 20 %
1733 23-04-2020 00:42:17 12.2 C 20 %
1734 23-04-2020 00:52:17 12.3 C 20 %
1735 23-04-2020 01:02:17 12.1 C 20 %
1736 23-04-2020 01:12:17 11.9 C 20 %
1737 23-04-2020 01:22:18 11 C 20 %
1738 23-04-2020 01:32:17 12 C 20 %
1739 23-04-2020 01:42:17 10.9 C 20 %
1740 23-04-2020 01:52:17 10.5 C 22 %
1741 23-04-2020 02:02:17 9.7 C 25 %
1742 23-04-2020 02:12:17 9.7 C 26 %
1743 23-04-2020 02:22:18 9.7 C 25 %
1744 23-04-2020 02:32:17 9.8 C 26 %
1745 23-04-2020 02:42:17 9.6 C 25 %
1746 23-04-2020 02:52:17 9.3 C 26 %
1747 23-04-2020 03:02:18 9.2 C 26 %
1748 23-04-2020 03:12:18 9.2 C 26 %
1749 23-04-2020 03:22:17 9.4 C 26 %
1750 23-04-2020 03:32:17 9.4 C 26 %
Sensor: Nr:Datum:Temp:Feuchte:
Aussen-T/F 1751 23-04-2020 03:42:17 9.3 C 26 %
1752 23-04-2020 03:52:17 9.1 C 26 %
1753 23-04-2020 04:02:17 8.6 C 27 %
1754 23-04-2020 04:12:17 8.1 C 29 %
1755 23-04-2020 04:22:17 7.5 C 30 %
1756 23-04-2020 04:32:17 7.2 C 32 %
1757 23-04-2020 04:42:17 7.2 C 32 %
1758 23-04-2020 04:52:17 6.9 C 33 %
1759 23-04-2020 05:02:17 6.4 C 34 %
1760 23-04-2020 05:12:17 6.2 C 34 %
1761 23-04-2020 05:22:17 5.9 C 35 %
1762 23-04-2020 05:32:17 6 C 35 %
1763 23-04-2020 05:42:17 6 C 35 %
1764 23-04-2020 05:52:17 5.8 C 36 %
1765 23-04-2020 06:02:17 5.8 C 36 %
1766 23-04-2020 06:12:18 5.4 C 36 %
1767 23-04-2020 06:22:17 5.4 C 36 %
1768 23-04-2020 06:32:18 5.3 C 36 %
1769 23-04-2020 06:42:18 5.3 C 36 %
1770 23-04-2020 06:52:17 5.3 C 36 %
1771 23-04-2020 07:02:17 5.3 C 37 %
1772 23-04-2020 07:12:17 5.3 C 37 %
1773 23-04-2020 07:22:17 5.2 C 37 %
1774 23-04-2020 07:32:17 5.2 C 39 %
1775 23-04-2020 07:42:17 5.2 C 39 %
Sensor: Nr:Datum:Temp:Feuchte:
Aussen-T/F 1776 23-04-2020 07:52:17 5.3 C 39 %
1777 23-04-2020 08:02:17 5.4 C 39 %
1778 23-04-2020 08:12:18 5.5 C 39 %
1779 23-04-2020 08:22:18 5.9 C 39 %
1780 23-04-2020 08:32:18 6.2 C 38 %
1781 23-04-2020 08:42:18 6.5 C 38 %
1782 23-04-2020 08:52:17 6.9 C 38 %
1783 23-04-2020 09:02:17 7.7 C 36 %
1784 23-04-2020 09:12:17 8.1 C 36 %
1785 23-04-2020 09:22:17 8.6 C 35 %
1786 23-04-2020 09:32:17 9.2 C 35 %
1787 23-04-2020 09:42:17 9.7 C 34 %
1788 23-04-2020 09:52:17 9.9 C 34 %
1789 23-04-2020 10:02:18 10.5 C 33 %
1790 23-04-2020 10:12:18 11 C 32 %
1791 23-04-2020 10:22:17 11.8 C 30 %
1792 23-04-2020 10:32:17 12.7 C 28 %
1793 23-04-2020 10:42:17 13.2 C 27 %
1794 23-04-2020 10:52:17 14.8 C 22 %
1795 23-04-2020 11:02:18 16 C 20 %
1796 23-04-2020 11:12:18 16.3 C 20 %
1797 23-04-2020 11:22:17 17.2 C 20 %
1798 23-04-2020 11:32:17 17.4 C 20 %
1799 23-04-2020 11:42:17 17.7 C 20 %
1800 23-04-2020 11:52:18 17.9 C 20 %
Sensor: Nr:Datum:Temp:Feuchte:
Aussen-T/F 1801 23-04-2020 12:02:17 18.9 C 20 %
1802 23-04-2020 12:12:17 18.2 C 20 %
1803 23-04-2020 12:22:17 18 C 20 %
1804 23-04-2020 12:32:18 18.5 C 20 %
1805 23-04-2020 12:42:18 18.3 C 20 %
1806 23-04-2020 12:52:17 18.4 C 20 %
1807 23-04-2020 13:02:17 19.2 C 20 %
1808 23-04-2020 13:12:17 19.5 C 20 %
1809 23-04-2020 13:22:17 19.1 C 20 %
1810 23-04-2020 13:32:17 19.2 C 20 %
1811 23-04-2020 13:42:17 19.7 C 20 %
1812 23-04-2020 13:52:17 20.1 C 20 %
1813 23-04-2020 14:02:17 20.4 C 20 %
1814 23-04-2020 14:12:17 20.7 C 20 %
1815 23-04-2020 14:22:17 21.6 C 20 %
1816 23-04-2020 14:32:17 27.4 C 20 %
1817 23-04-2020 14:42:17 29.1 C 20 %
1818 23-04-2020 14:52:17 29 C 20 %
1819 23-04-2020 15:02:17 29.3 C 20 %
1820 23-04-2020 15:12:17 29.5 C 20 %
1821 23-04-2020 15:22:18 28.8 C 20 %
1822 23-04-2020 15:32:17 30.3 C 20 %
1823 23-04-2020 15:42:17 31.4 C 20 %
1824 23-04-2020 15:52:17 28.9 C 20 %
1825 23-04-2020 16:02:18 27.7 C 20 %
Sensor: Nr:Datum:Temp:Feuchte:
Aussen-T/F 1826 23-04-2020 16:12:18 28.1 C 20 %
1827 23-04-2020 16:22:17 28.4 C 20 %
1828 23-04-2020 16:32:18 28.3 C 20 %
1829 23-04-2020 16:42:18 29 C 20 %
1830 23-04-2020 16:52:17 29.2 C 20 %
1831 23-04-2020 17:02:17 31.6 C 20 %
1832 23-04-2020 17:12:18 28.2 C 20 %
1833 23-04-2020 17:22:17 28.6 C 20 %
1834 23-04-2020 17:32:18 28.1 C 20 %
1835 23-04-2020 17:42:18 28 C 20 %
1836 23-04-2020 17:52:18 30.1 C 20 %
1837 23-04-2020 18:02:17 27.1 C 20 %
1838 23-04-2020 18:12:17 24.5 C 20 %
1839 23-04-2020 18:22:17 23.9 C 20 %
1840 23-04-2020 18:32:17 23.6 C 20 %
1841 23-04-2020 18:42:17 23.7 C 20 %
1842 23-04-2020 18:52:17 23.2 C 20 %
1843 23-04-2020 19:02:17 22.5 C 20 %
1844 23-04-2020 19:12:17 22.4 C 20 %
1845 23-04-2020 19:22:17 22 C 20 %
1846 23-04-2020 19:32:18 21.2 C 20 %
1847 23-04-2020 19:42:18 20 C 20 %
1848 23-04-2020 19:52:17 18.6 C 20 %
1849 23-04-2020 20:02:18 18.6 C 20 %
1850 23-04-2020 20:12:18 17.9 C 20 %
Sensor: Nr:Datum:Temp:Feuchte:
Aussen-T/F 1851 23-04-2020 20:22:17 17.2 C 20 %
1852 23-04-2020 20:32:18 16.5 C 20 %
1853 23-04-2020 20:42:18 15.5 C 20 %
1854 23-04-2020 20:52:18 14.3 C 20 %
1855 23-04-2020 21:02:18 14 C 20 %
1856 23-04-2020 21:12:18 14.1 C 20 %
1857 23-04-2020 21:22:17 13.5 C 20 %
1858 23-04-2020 21:32:17 13.1 C 20 %
1859 23-04-2020 21:42:17 12.9 C 20 %
1860 23-04-2020 21:52:17 12.5 C 20 %
1861 23-04-2020 22:02:17 12 C 23 %
1862 23-04-2020 22:12:17 11.6 C 25 %
1863 23-04-2020 22:22:17 11.5 C 25 %
1864 23-04-2020 22:32:18 11 C 26 %
1865 23-04-2020 22:42:18 11.1 C 26 %
1866 23-04-2020 22:52:18 10.8 C 26 %
1867 23-04-2020 23:02:18 10.4 C 27 %
1868 23-04-2020 23:12:18 10.3 C 27 %
1869 23-04-2020 23:22:18 9.6 C 29 %
1870 23-04-2020 23:32:17 9.6 C 29 %
1871 23-04-2020 23:42:17 9.6 C 29 %
1872 23-04-2020 23:52:17 9.2 C 30 %
1873 24-04-2020 00:02:18 9.2 C 30 %
1874 24-04-2020 00:12:18 9.3 C 30 %
1875 24-04-2020 00:22:17 9.2 C 30 %
Sensor: Nr:Datum:Temp:Feuchte:
Aussen-T/F 1876 24-04-2020 00:32:18 8.6 C 31 %
1877 24-04-2020 00:42:18 8.4 C 31 %
1878 24-04-2020 00:52:17 8.3 C 32 %
1879 24-04-2020 01:02:18 8.1 C 32 %
1880 24-04-2020 01:12:18 8.3 C 33 %
1881 24-04-2020 01:22:17 8.1 C 32 %
1882 24-04-2020 01:32:18 8.1 C 33 %
1883 24-04-2020 01:42:18 8.2 C 33 %
1884 24-04-2020 01:52:17 7.8 C 33 %
1885 24-04-2020 02:02:17 7.5 C 34 %
1886 24-04-2020 02:12:17 7.1 C 34 %
1887 24-04-2020 02:22:17 7 C 35 %
1888 24-04-2020 02:32:18 7.2 C 35 %
1889 24-04-2020 02:42:18 6.8 C 36 %
1890 24-04-2020 02:52:18 7 C 35 %
1891 24-04-2020 03:02:17 7 C 35 %
1892 24-04-2020 03:12:18 6.8 C 36 %
1893 24-04-2020 03:22:17 6.2 C 36 %
1894 24-04-2020 03:32:17 6.4 C 37 %
1895 24-04-2020 03:42:17 6.3 C 37 %
1896 24-04-2020 03:52:17 6.2 C 37 %
1897 24-04-2020 04:02:17 6.2 C 37 %
1898 24-04-2020 04:12:17 6.1 C 37 %
1899 24-04-2020 04:22:17 6 C 37 %
1900 24-04-2020 04:32:17 5.9 C 38 %
Sensor: Nr:Datum:Temp:Feuchte:
Aussen-T/F 1901 24-04-2020 04:42:17 6.2 C 38 %
1902 24-04-2020 04:52:17 6.3 C 38 %
1903 24-04-2020 05:02:17 6.2 C 38 %
1904 24-04-2020 05:12:17 6 C 38 %
1905 24-04-2020 05:22:17 5.9 C 39 %
1906 24-04-2020 05:32:18 6.3 C 38 %
1907 24-04-2020 05:42:18 6.2 C 38 %
1908 24-04-2020 05:52:17 6.1 C 38 %
1909 24-04-2020 06:02:17 6.1 C 38 %
1910 24-04-2020 06:12:17 5.9 C 39 %
1911 24-04-2020 06:22:18 6 C 39 %
1912 24-04-2020 06:32:17 6 C 38 %
1913 24-04-2020 06:42:17 6 C 39 %
1914 24-04-2020 06:52:17 6.2 C 39 %
1915 24-04-2020 07:02:17 6.3 C 38 %
1916 24-04-2020 07:12:17 6.3 C 39 %
1917 24-04-2020 07:22:17 6.3 C 39 %
1918 24-04-2020 07:32:18 6.3 C 39 %
1919 24-04-2020 07:42:18 6.5 C 39 %
1920 24-04-2020 07:52:17 6.7 C 39 %
1921 24-04-2020 08:02:18 6.8 C 39 %
1922 24-04-2020 08:12:18 7.3 C 38 %
1923 24-04-2020 08:22:17 8.2 C 36 %
1924 24-04-2020 08:32:17 9 C 35 %
1925 24-04-2020 08:42:17 9.6 C 35 %
Sensor: Nr:Datum:Temp:Feuchte:
Aussen-T/F 1926 24-04-2020 08:52:17 9.9 C 34 %
1927 24-04-2020 09:02:17 10.4 C 33 %
1928 24-04-2020 09:12:18 11 C 32 %
1929 24-04-2020 09:22:17 11.5 C 31 %
1930 24-04-2020 09:32:18 11.9 C 31 %
1931 24-04-2020 09:42:18 12.5 C 30 %
1932 24-04-2020 09:52:17 12.4 C 30 %
1933 24-04-2020 10:02:17 12.8 C 30 %
1934 24-04-2020 10:12:17 13.1 C 29 %
1935 24-04-2020 10:22:17 14 C 28 %
1936 24-04-2020 10:32:17 14.2 C 28 %
1937 24-04-2020 10:42:17 14.6 C 27 %
1938 24-04-2020 10:52:17 15 C 26 %
1939 24-04-2020 11:02:17 15.6 C 26 %
1940 24-04-2020 11:12:18 15.6 C 26 %
1941 24-04-2020 11:22:17 16.5 C 25 %
1942 24-04-2020 11:32:18 16.6 C 24 %
1943 24-04-2020 11:42:18 17 C 24 %
1944 24-04-2020 11:52:17 17 C 23 %
1945 24-04-2020 12:02:17 17.9 C 23 %
1946 24-04-2020 12:12:17 18.1 C 21 %
1947 24-04-2020 12:22:17 18.2 C 21 %
1948 24-04-2020 12:32:18 18.4 C 21 %
1949 24-04-2020 12:42:18 18.9 C 20 %
1950 24-04-2020 12:52:18 19.3 C 20 %
Sensor: Nr:Datum:Temp:Feuchte:
Aussen-T/F 1951 24-04-2020 13:02:17 19.6 C 20 %
1952 24-04-2020 13:12:17 20.2 C 20 %
1953 24-04-2020 13:22:17 20.5 C 20 %
1954 24-04-2020 13:32:18 20.7 C 20 %
1955 24-04-2020 13:42:18 21 C 20 %
1956 24-04-2020 13:52:17 21.3 C 20 %
1957 24-04-2020 14:02:17 21.8 C 20 %
1958 24-04-2020 14:12:17 22.2 C 20 %
1959 24-04-2020 14:22:17 23.5 C 20 %
1960 24-04-2020 14:32:17 26.8 C 20 %
1961 24-04-2020 14:42:17 28.5 C 20 %
1962 24-04-2020 14:52:17 27.1 C 20 %
1963 24-04-2020 15:02:18 28 C 20 %
1964 24-04-2020 15:12:18 31 C 20 %
1965 24-04-2020 15:22:17 27.6 C 20 %
1966 24-04-2020 15:32:17 28.1 C 20 %
1967 24-04-2020 15:42:18 27.5 C 20 %
1968 24-04-2020 15:52:17 28.8 C 20 %
1969 24-04-2020 16:02:18 28.7 C 20 %
1970 24-04-2020 16:12:18 28.7 C 20 %
1971 24-04-2020 16:22:18 27.2 C 20 %
1972 24-04-2020 16:32:18 26.8 C 20 %
1973 24-04-2020 16:42:18 28 C 20 %
1974 24-04-2020 16:52:17 26.3 C 20 %
1975 24-04-2020 17:02:17 26 C 20 %
Sensor: Nr:Datum:Temp:Feuchte:
Aussen-T/F 1976 24-04-2020 17:12:17 26.7 C 20 %
1977 24-04-2020 17:22:18 26.4 C 20 %
1978 24-04-2020 17:32:18 26.3 C 20 %
1979 24-04-2020 17:42:18 24.2 C 20 %
1980 24-04-2020 17:52:17 26 C 20 %
1981 24-04-2020 18:02:18 24.1 C 20 %
1982 24-04-2020 18:12:18 22.3 C 20 %
1983 24-04-2020 18:22:17 22.2 C 20 %
1984 24-04-2020 18:32:17 22 C 20 %
1985 24-04-2020 18:42:17 20.9 C 20 %
1986 24-04-2020 18:52:18 21 C 20 %
1987 24-04-2020 19:02:17 20.5 C 20 %
1988 24-04-2020 19:12:17 20.3 C 20 %
1989 24-04-2020 19:23:17 20 C 20 %
1990 24-04-2020 19:32:17 19.9 C 20 %
1991 24-04-2020 19:42:18 19.6 C 20 %
1992 24-04-2020 19:53:17 19.2 C 20 %
1993 24-04-2020 20:02:18 19 C 20 %
1994 24-04-2020 20:12:18 18.5 C 20 %
1995 24-04-2020 20:22:17 17.7 C 20 %
1996 24-04-2020 20:32:18 17.3 C 20 %
1997 24-04-2020 20:42:18 16.8 C 20 %
1998 24-04-2020 20:52:18 16.1 C 20 %
1999 24-04-2020 21:02:18 15.9 C 20 %
2000 24-04-2020 21:12:18 15.5 C 20 %
Sensor: Nr:Datum:Temp:Feuchte:
Aussen-T/F 2001 24-04-2020 21:23:17 15.4 C 20 %
2002 24-04-2020 21:33:17 15 C 20 %
2003 24-04-2020 21:42:17 15.1 C 20 %
2004 24-04-2020 21:52:17 14.7 C 20 %
2005 24-04-2020 22:03:17 14.4 C 20 %
2006 24-04-2020 22:13:17 14.1 C 20 %
2007 24-04-2020 22:22:18 14.2 C 20 %
2008 24-04-2020 22:32:18 14.4 C 20 %
2009 24-04-2020 22:42:18 13.9 C 20 %
2010 24-04-2020 22:52:18 13.3 C 20 %
2011 24-04-2020 23:02:18 13.2 C 20 %
2012 24-04-2020 23:12:18 13.2 C 20 %
2013 24-04-2020 23:22:17 12.7 C 20 %
2014 24-04-2020 23:33:17 12.5 C 20 %
2015 24-04-2020 23:43:17 13 C 20 %
2016 24-04-2020 23:53:17 12.4 C 20 %
Sensor: Nr:Datum:Temp:Feuchte:
G-T/H 1 11-04-2020 00:01:18 13.8 C 63 %
2 11-04-2020 00:11:18 13.7 C 63 %
3 11-04-2020 00:21:17 13.8 C 63 %
4 11-04-2020 00:31:17 13.7 C 63 %
5 11-04-2020 00:41:18 13.7 C 63 %
6 11-04-2020 00:51:18 13.7 C 63 %
7 11-04-2020 01:01:17 13.7 C 63 %
8 11-04-2020 01:11:17 13.7 C 63 %
9 11-04-2020 01:21:17 13.7 C 63 %
10 11-04-2020 01:31:18 13.7 C 63 %
11 11-04-2020 01:41:18 13.7 C 63 %
12 11-04-2020 01:51:18 13.7 C 63 %
13 11-04-2020 02:01:17 13.7 C 63 %
14 11-04-2020 02:11:17 13.7 C 63 %
15 11-04-2020 02:21:18 13.7 C 62 %
16 11-04-2020 02:31:17 13.7 C 62 %
17 11-04-2020 02:41:17 13.6 C 62 %
18 11-04-2020 02:51:17 13.6 C 62 %
19 11-04-2020 03:01:17 13.6 C 62 %
20 11-04-2020 03:11:17 13.6 C 62 %
21 11-04-2020 03:21:17 13.5 C 61 %
22 11-04-2020 03:31:18 13.6 C 61 %
23 11-04-2020 03:41:18 13.5 C 61 %
24 11-04-2020 03:51:17 13.5 C 61 %
25 11-04-2020 04:01:17 13.5 C 61 %
Sensor: Nr:Datum:Temp:Feuchte:
G-T/H 26 11-04-2020 04:11:17 13.5 C 61 %
27 11-04-2020 04:21:17 13.5 C 60 %
28 11-04-2020 04:31:17 13.5 C 60 %
29 11-04-2020 04:41:17 13.4 C 59 %
30 11-04-2020 04:51:17 13.4 C 59 %
31 11-04-2020 05:01:17 13.4 C 58 %
32 11-04-2020 05:11:17 13.4 C 58 %
33 11-04-2020 05:21:17 13.4 C 58 %
34 11-04-2020 05:31:18 13.4 C 58 %
35 11-04-2020 05:41:18 13.3 C 58 %
36 11-04-2020 05:51:17 13.3 C 58 %
37 11-04-2020 06:01:17 13.3 C 58 %
38 11-04-2020 06:11:17 13.3 C 58 %
39 11-04-2020 06:21:17 13.3 C 58 %
40 11-04-2020 06:31:18 13.3 C 58 %
41 11-04-2020 06:41:18 13.2 C 58 %
42 11-04-2020 06:51:17 13.2 C 58 %
43 11-04-2020 07:01:18 13.2 C 58 %
44 11-04-2020 07:11:18 13.2 C 58 %
45 11-04-2020 07:21:17 13.2 C 58 %
46 11-04-2020 07:31:18 13.1 C 58 %
47 11-04-2020 07:41:18 13.2 C 58 %
48 11-04-2020 07:51:17 13.1 C 58 %
49 11-04-2020 08:01:18 13.1 C 58 %
50 11-04-2020 08:11:18 13.1 C 58 %
Sensor: Nr:Datum:Temp:Feuchte:
G-T/H 51 11-04-2020 08:21:18 13.1 C 58 %
52 11-04-2020 08:31:18 13.1 C 58 %
53 11-04-2020 08:41:18 13 C 58 %
54 11-04-2020 08:51:18 13 C 58 %
55 11-04-2020 09:01:17 13.1 C 58 %
56 11-04-2020 09:11:18 13 C 59 %
57 11-04-2020 09:21:17 13 C 59 %
58 11-04-2020 09:31:18 13 C 59 %
59 11-04-2020 09:41:18 13 C 59 %
60 11-04-2020 09:51:17 13 C 59 %
61 11-04-2020 10:01:17 12.9 C 60 %
62 11-04-2020 10:11:17 13 C 59 %
63 11-04-2020 10:21:17 13 C 59 %
64 11-04-2020 10:31:17 12.9 C 60 %
65 11-04-2020 10:41:17 12.9 C 60 %
66 11-04-2020 10:51:17 12.9 C 61 %
67 11-04-2020 11:01:18 12.9 C 61 %
68 11-04-2020 11:11:18 12.9 C 61 %
69 11-04-2020 11:21:17 12.9 C 61 %
70 11-04-2020 11:31:17 12.9 C 62 %
71 11-04-2020 11:41:18 12.9 C 62 %
72 11-04-2020 11:51:17 12.9 C 62 %
73 11-04-2020 12:01:17 12.9 C 62 %
74 11-04-2020 12:11:17 13 C 61 %
75 11-04-2020 12:21:18 12.9 C 62 %
Sensor: Nr:Datum:Temp:Feuchte:
G-T/H 76 11-04-2020 12:31:17 13 C 62 %
77 11-04-2020 12:41:17 13 C 62 %
78 11-04-2020 12:51:17 13 C 62 %
79 11-04-2020 13:01:17 13 C 62 %
80 11-04-2020 13:11:17 13 C 62 %
81 11-04-2020 13:21:17 13 C 62 %
82 11-04-2020 13:31:17 13 C 62 %
83 11-04-2020 13:41:17 13 C 62 %
84 11-04-2020 13:51:17 13 C 62 %
85 11-04-2020 14:01:18 13 C 61 %
86 11-04-2020 14:11:18 13 C 61 %
87 11-04-2020 14:21:17 13 C 61 %
88 11-04-2020 14:31:17 13 C 62 %
89 11-04-2020 14:41:17 13.1 C 62 %
90 11-04-2020 14:51:18 13 C 62 %
91 11-04-2020 15:01:18 13.1 C 62 %
92 11-04-2020 15:11:18 13.1 C 62 %
93 11-04-2020 15:21:17 13.1 C 62 %
94 11-04-2020 15:31:17 13.1 C 62 %
95 11-04-2020 15:41:17 13.1 C 62 %
96 11-04-2020 15:51:18 13.1 C 62 %
97 11-04-2020 16:01:17 13.2 C 62 %
98 11-04-2020 16:11:17 13.2 C 62 %
99 11-04-2020 16:21:18 13.2 C 62 %
100 11-04-2020 16:31:17 13.2 C 63 %
Sensor: Nr:Datum:Temp:Feuchte:
G-T/H 101 11-04-2020 16:41:17 13.2 C 63 %
102 11-04-2020 16:51:17 13.2 C 63 %
103 11-04-2020 17:01:17 13.2 C 63 %
104 11-04-2020 17:11:17 13.2 C 63 %
105 11-04-2020 17:21:17 13.2 C 63 %
106 11-04-2020 17:31:17 13.3 C 63 %
107 11-04-2020 17:41:17 13.3 C 63 %
108 11-04-2020 17:51:17 13.3 C 63 %
109 11-04-2020 18:01:17 13.3 C 63 %
110 11-04-2020 18:11:17 13.3 C 63 %
111 11-04-2020 18:21:17 13.4 C 63 %
112 11-04-2020 18:31:17 13.4 C 63 %
113 11-04-2020 18:41:17 13.4 C 63 %
114 11-04-2020 18:51:17 13.5 C 63 %
115 11-04-2020 19:01:17 13.5 C 63 %
116 11-04-2020 19:11:17 13.5 C 63 %
117 11-04-2020 19:21:18 13.6 C 63 %
118 11-04-2020 19:31:17 13.5 C 63 %
119 11-04-2020 19:41:17 13.6 C 63 %
120 11-04-2020 19:51:17 13.6 C 63 %
121 11-04-2020 20:01:17 13.5 C 63 %
122 11-04-2020 20:11:17 13.5 C 63 %
123 11-04-2020 20:21:17 13.5 C 63 %
124 11-04-2020 20:31:17 13.5 C 63 %
125 11-04-2020 20:41:17 13.5 C 63 %
Sensor: Nr:Datum:Temp:Feuchte:
G-T/H 126 11-04-2020 20:51:17 13.5 C 63 %
127 11-04-2020 21:01:18 13.5 C 63 %
128 11-04-2020 21:11:18 13.5 C 63 %
129 11-04-2020 21:21:18 13.5 C 63 %
130 11-04-2020 21:31:17 13.6 C 63 %
131 11-04-2020 21:41:17 13.6 C 63 %
132 11-04-2020 21:51:17 13.6 C 63 %
133 11-04-2020 22:01:17 13.6 C 63 %
134 11-04-2020 22:11:17 13.6 C 63 %
135 11-04-2020 22:21:17 13.5 C 63 %
136 11-04-2020 22:31:18 13.5 C 63 %
137 11-04-2020 22:41:18 13.6 C 63 %
138 11-04-2020 22:51:17 13.6 C 63 %
139 11-04-2020 23:01:17 13.6 C 63 %
140 11-04-2020 23:11:17 13.6 C 63 %
141 11-04-2020 23:21:18 13.6 C 63 %
142 11-04-2020 23:31:18 13.5 C 63 %
143 11-04-2020 23:41:18 13.6 C 63 %
144 11-04-2020 23:51:17 13.6 C 63 %
145 12-04-2020 00:01:17 13.6 C 63 %
146 12-04-2020 00:11:17 13.6 C 63 %
147 12-04-2020 00:21:17 13.6 C 63 %
148 12-04-2020 00:31:17 13.6 C 63 %
149 12-04-2020 00:41:17 13.6 C 63 %
150 12-04-2020 00:51:17 13.5 C 63 %
Sensor: Nr:Datum:Temp:Feuchte:
G-T/H 151 12-04-2020 01:01:17 13.6 C 63 %
152 12-04-2020 01:11:17 13.5 C 63 %
153 12-04-2020 01:21:17 13.6 C 64 %
154 12-04-2020 01:31:18 13.6 C 64 %
155 12-04-2020 01:41:18 13.5 C 64 %
156 12-04-2020 01:51:17 13.5 C 63 %
157 12-04-2020 02:01:18 13.5 C 63 %
158 12-04-2020 02:11:18 13.5 C 63 %
159 12-04-2020 02:21:18 13.5 C 63 %
160 12-04-2020 02:31:17 13.5 C 63 %
161 12-04-2020 02:41:17 13.5 C 63 %
162 12-04-2020 02:51:17 13.5 C 63 %
163 12-04-2020 03:01:17 13.5 C 63 %
164 12-04-2020 03:11:17 13.5 C 63 %
165 12-04-2020 03:21:17 13.5 C 63 %
166 12-04-2020 03:31:17 13.5 C 63 %
167 12-04-2020 03:41:18 13.5 C 63 %
168 12-04-2020 03:51:17 13.5 C 63 %
169 12-04-2020 04:01:17 13.5 C 63 %
170 12-04-2020 04:11:17 13.4 C 63 %
171 12-04-2020 04:21:17 13.5 C 63 %
172 12-04-2020 04:31:17 13.5 C 63 %
173 12-04-2020 04:41:17 13.4 C 63 %
174 12-04-2020 04:51:17 13.4 C 63 %
175 12-04-2020 05:01:18 13.4 C 62 %
Sensor: Nr:Datum:Temp:Feuchte:
G-T/H 176 12-04-2020 05:11:18 13.4 C 62 %
177 12-04-2020 05:21:17 13.4 C 62 %
178 12-04-2020 05:31:17 13.4 C 62 %
179 12-04-2020 05:41:17 13.4 C 62 %
180 12-04-2020 05:51:17 13.4 C 62 %
181 12-04-2020 06:01:17 13.4 C 62 %
182 12-04-2020 06:11:17 13.4 C 62 %
183 12-04-2020 06:21:17 13.3 C 62 %
184 12-04-2020 06:31:17 13.3 C 62 %
185 12-04-2020 06:41:17 13.3 C 62 %
186 12-04-2020 06:51:17 13.3 C 62 %
187 12-04-2020 07:01:17 13.3 C 61 %
188 12-04-2020 07:11:17 13.3 C 61 %
189 12-04-2020 07:21:17 13.3 C 61 %
190 12-04-2020 07:31:17 13.2 C 61 %
191 12-04-2020 07:41:17 13.2 C 61 %
192 12-04-2020 07:51:18 13.2 C 61 %
193 12-04-2020 08:01:17 13.2 C 61 %
194 12-04-2020 08:11:17 13.2 C 61 %
195 12-04-2020 08:21:17 13.2 C 61 %
196 12-04-2020 08:31:17 13.2 C 61 %
197 12-04-2020 08:41:18 13.2 C 61 %
198 12-04-2020 08:51:17 13.2 C 62 %
199 12-04-2020 09:01:18 13.2 C 62 %
200 12-04-2020 09:11:18 13.2 C 62 %
Sensor: Nr:Datum:Temp:Feuchte:
G-T/H 201 12-04-2020 09:21:17 13.1 C 62 %
202 12-04-2020 09:31:17 13.1 C 62 %
203 12-04-2020 09:41:17 13.1 C 62 %
204 12-04-2020 09:51:17 13.1 C 62 %
205 12-04-2020 10:01:17 13.1 C 62 %
206 12-04-2020 10:11:17 13.1 C 63 %
207 12-04-2020 10:21:17 13.1 C 63 %
208 12-04-2020 10:31:18 13.1 C 63 %
209 12-04-2020 10:41:18 13.1 C 63 %
210 12-04-2020 10:51:17 13.1 C 63 %
211 12-04-2020 11:01:17 13.1 C 63 %
212 12-04-2020 11:11:17 13.1 C 63 %
213 12-04-2020 11:21:17 13.1 C 63 %
214 12-04-2020 11:31:17 13.1 C 64 %
215 12-04-2020 11:41:17 13.1 C 64 %
216 12-04-2020 11:51:17 13.1 C 64 %
217 12-04-2020 12:01:17 13.1 C 64 %
218 12-04-2020 12:11:17 13.1 C 64 %
219 12-04-2020 12:21:17 13.1 C 64 %
220 12-04-2020 12:31:17 13.1 C 64 %
221 12-04-2020 12:41:17 13.2 C 64 %
222 12-04-2020 12:51:18 13.2 C 64 %
223 12-04-2020 13:01:17 13.2 C 64 %
224 12-04-2020 13:11:17 13.2 C 64 %
225 12-04-2020 13:21:17 13.2 C 64 %
Sensor: Nr:Datum:Temp:Feuchte:
G-T/H 226 12-04-2020 13:31:17 13.2 C 64 %
227 12-04-2020 13:41:17 13.2 C 64 %
228 12-04-2020 13:51:17 13.2 C 64 %
229 12-04-2020 14:01:17 13.2 C 64 %
230 12-04-2020 14:11:17 13.2 C 64 %
231 12-04-2020 14:21:17 13.3 C 64 %
232 12-04-2020 14:31:17 13.3 C 64 %
233 12-04-2020 14:41:17 13.3 C 64 %
234 12-04-2020 14:51:17 13.3 C 64 %
235 12-04-2020 15:01:17 13.4 C 64 %
236 12-04-2020 15:11:17 13.3 C 64 %
237 12-04-2020 15:21:17 13.4 C 64 %
238 12-04-2020 15:31:18 13.4 C 64 %
239 12-04-2020 15:41:18 13.4 C 64 %
240 12-04-2020 15:51:18 13.4 C 64 %
241 12-04-2020 16:01:17 13.4 C 64 %
242 12-04-2020 16:11:17 13.4 C 64 %
243 12-04-2020 16:21:17 13.4 C 64 %
244 12-04-2020 16:31:17 13.5 C 64 %
245 12-04-2020 16:41:17 13.5 C 64 %
246 12-04-2020 16:51:17 13.5 C 64 %
247 12-04-2020 17:01:17 13.5 C 64 %
248 12-04-2020 17:11:18 13.6 C 64 %
249 12-04-2020 17:21:17 13.6 C 64 %
250 12-04-2020 17:31:17 13.6 C 64 %
Sensor: Nr:Datum:Temp:Feuchte:
G-T/H 251 12-04-2020 17:41:17 13.6 C 64 %
252 12-04-2020 17:51:17 13.6 C 64 %
253 12-04-2020 18:01:18 13.6 C 64 %
254 12-04-2020 18:11:18 13.7 C 64 %
255 12-04-2020 18:21:17 13.7 C 64 %
256 12-04-2020 18:31:17 13.7 C 64 %
257 12-04-2020 18:41:17 13.7 C 64 %
258 12-04-2020 18:51:17 13.7 C 64 %
259 12-04-2020 19:01:17 13.8 C 64 %
260 12-04-2020 19:11:17 13.8 C 64 %
261 12-04-2020 19:21:17 13.8 C 64 %
262 12-04-2020 19:31:17 13.8 C 64 %
263 12-04-2020 19:41:17 13.8 C 64 %
264 12-04-2020 19:51:18 13.8 C 64 %
265 12-04-2020 20:01:18 13.8 C 64 %
266 12-04-2020 20:11:18 13.8 C 64 %
267 12-04-2020 20:21:17 13.8 C 64 %
268 12-04-2020 20:31:18 13.8 C 64 %
269 12-04-2020 20:41:18 13.8 C 64 %
270 12-04-2020 20:51:17 13.8 C 64 %
271 12-04-2020 21:01:17 13.8 C 64 %
272 12-04-2020 21:11:17 13.8 C 64 %
273 12-04-2020 21:22:17 13.8 C 64 %
274 12-04-2020 21:31:17 13.8 C 64 %
275 12-04-2020 21:41:17 13.8 C 64 %
Sensor: Nr:Datum:Temp:Feuchte:
G-T/H 276 12-04-2020 21:51:17 13.8 C 64 %
277 12-04-2020 22:01:17 13.8 C 64 %
278 12-04-2020 22:11:17 13.8 C 64 %
279 12-04-2020 22:22:17 13.8 C 64 %
280 12-04-2020 22:32:17 13.8 C 64 %
281 12-04-2020 22:42:17 13.8 C 64 %
282 12-04-2020 22:51:17 13.8 C 64 %
283 12-04-2020 23:01:18 13.8 C 64 %
284 12-04-2020 23:11:18 13.8 C 64 %
285 12-04-2020 23:21:17 13.8 C 64 %
286 12-04-2020 23:32:17 13.8 C 64 %
287 12-04-2020 23:41:17 13.8 C 64 %
288 12-04-2020 23:52:17 13.8 C 64 %
289 13-04-2020 00:01:17 13.8 C 64 %
290 13-04-2020 00:11:17 13.8 C 64 %
291 13-04-2020 00:21:18 13.8 C 64 %
292 13-04-2020 00:31:17 13.8 C 64 %
293 13-04-2020 00:41:17 13.8 C 64 %
294 13-04-2020 00:51:17 13.8 C 63 %
295 13-04-2020 01:01:18 13.8 C 63 %
296 13-04-2020 01:11:18 13.8 C 63 %
297 13-04-2020 01:21:18 13.8 C 63 %
298 13-04-2020 01:31:18 13.8 C 63 %
299 13-04-2020 01:41:18 13.8 C 63 %
300 13-04-2020 01:51:18 13.8 C 63 %
Sensor: Nr:Datum:Temp:Feuchte:
G-T/H 301 13-04-2020 02:02:17 13.8 C 63 %
302 13-04-2020 02:12:17 13.8 C 62 %
303 13-04-2020 02:21:17 13.7 C 62 %
304 13-04-2020 02:31:18 13.7 C 62 %
305 13-04-2020 02:41:18 13.7 C 62 %
306 13-04-2020 02:51:17 13.7 C 62 %
307 13-04-2020 03:01:18 13.7 C 62 %
308 13-04-2020 03:11:18 13.7 C 62 %
309 13-04-2020 03:22:17 13.7 C 62 %
310 13-04-2020 03:32:17 13.7 C 62 %
311 13-04-2020 03:42:17 13.7 C 61 %
312 13-04-2020 03:51:17 13.6 C 61 %
313 13-04-2020 04:02:17 13.7 C 61 %
314 13-04-2020 04:12:17 13.6 C 61 %
315 13-04-2020 04:21:18 13.6 C 61 %
316 13-04-2020 04:32:17 13.6 C 61 %
317 13-04-2020 04:41:17 13.6 C 61 %
318 13-04-2020 04:52:17 13.6 C 61 %
319 13-04-2020 05:02:17 13.6 C 61 %
320 13-04-2020 05:12:17 13.6 C 61 %
321 13-04-2020 05:22:17 13.5 C 61 %
322 13-04-2020 05:32:17 13.5 C 61 %
323 13-04-2020 05:42:17 13.5 C 61 %
324 13-04-2020 05:52:17 13.5 C 61 %
325 13-04-2020 06:02:17 13.5 C 61 %
Sensor: Nr:Datum:Temp:Feuchte:
G-T/H 326 13-04-2020 06:12:17 13.5 C 61 %
327 13-04-2020 06:22:17 13.5 C 61 %
328 13-04-2020 06:32:17 13.5 C 61 %
329 13-04-2020 06:42:17 13.4 C 61 %
330 13-04-2020 06:52:17 13.4 C 61 %
331 13-04-2020 07:02:17 13.4 C 61 %
332 13-04-2020 07:12:17 13.4 C 61 %
333 13-04-2020 07:22:17 13.4 C 61 %
334 13-04-2020 07:32:17 13.4 C 61 %
335 13-04-2020 07:42:17 13.4 C 61 %
336 13-04-2020 07:52:17 13.4 C 61 %
337 13-04-2020 08:02:17 13.3 C 61 %
338 13-04-2020 08:12:18 13.3 C 61 %
339 13-04-2020 08:22:17 13.3 C 61 %
340 13-04-2020 08:32:17 13.3 C 61 %
341 13-04-2020 08:42:17 13.3 C 61 %
342 13-04-2020 08:52:17 13.3 C 61 %
343 13-04-2020 09:02:17 13.3 C 62 %
344 13-04-2020 09:12:17 13.3 C 62 %
345 13-04-2020 09:22:17 13.2 C 62 %
346 13-04-2020 09:32:17 13.3 C 62 %
347 13-04-2020 09:42:17 13.3 C 62 %
348 13-04-2020 09:52:17 13.3 C 63 %
349 13-04-2020 10:02:17 13.2 C 63 %
350 13-04-2020 10:12:17 13.2 C 63 %
Sensor: Nr:Datum:Temp:Feuchte:
G-T/H 351 13-04-2020 10:22:17 13.2 C 63 %
352 13-04-2020 10:32:17 13.2 C 63 %
353 13-04-2020 10:42:17 13.2 C 63 %
354 13-04-2020 10:52:17 13.2 C 63 %
355 13-04-2020 11:02:17 13.2 C 63 %
356 13-04-2020 11:12:17 13.2 C 63 %
357 13-04-2020 11:22:17 13.2 C 63 %
358 13-04-2020 11:32:17 13.2 C 62 %
359 13-04-2020 11:42:17 13.2 C 62 %
360 13-04-2020 11:52:16 13.1 C 62 %
361 13-04-2020 12:02:17 13.1 C 62 %
362 13-04-2020 12:12:17 13.1 C 61 %
363 13-04-2020 12:22:17 13.1 C 61 %
364 13-04-2020 12:32:17 13.1 C 61 %
365 13-04-2020 12:42:17 13.1 C 61 %
366 13-04-2020 12:52:17 13.1 C 61 %
367 13-04-2020 13:02:16 13.1 C 61 %
368 13-04-2020 13:12:16 13.1 C 61 %
369 13-04-2020 13:22:17 13 C 61 %
370 13-04-2020 13:32:17 13 C 61 %
371 13-04-2020 13:42:17 13 C 60 %
372 13-04-2020 13:52:17 13 C 60 %
373 13-04-2020 14:02:17 13 C 61 %
374 13-04-2020 14:12:17 13 C 61 %
375 13-04-2020 14:22:16 13 C 61 %
Sensor: Nr:Datum:Temp:Feuchte:
G-T/H 376 13-04-2020 14:32:17 13 C 61 %
377 13-04-2020 14:42:17 13 C 61 %
378 13-04-2020 14:52:16 13 C 62 %
379 13-04-2020 15:02:17 13 C 61 %
380 13-04-2020 15:12:17 13 C 61 %
381 13-04-2020 15:22:17 13 C 61 %
382 13-04-2020 15:32:17 13 C 61 %
383 13-04-2020 15:42:17 13 C 60 %
384 13-04-2020 15:52:16 12.9 C 61 %
385 13-04-2020 16:02:16 12.9 C 60 %
386 13-04-2020 16:12:16 12.9 C 58 %
387 13-04-2020 16:22:16 12.9 C 58 %
388 13-04-2020 16:32:17 12.9 C 57 %
389 13-04-2020 16:42:17 12.9 C 56 %
390 13-04-2020 16:52:16 12.9 C 56 %
391 13-04-2020 17:02:17 12.9 C 56 %
392 13-04-2020 17:12:17 12.8 C 56 %
393 13-04-2020 17:22:16 12.8 C 56 %
394 13-04-2020 17:32:16 12.8 C 56 %
395 13-04-2020 17:42:16 12.8 C 56 %
396 13-04-2020 17:52:16 12.8 C 55 %
397 13-04-2020 18:02:16 12.8 C 55 %
398 13-04-2020 18:12:16 12.8 C 56 %
399 13-04-2020 18:22:17 12.8 C 56 %
400 13-04-2020 18:32:17 12.8 C 57 %
Sensor: Nr:Datum:Temp:Feuchte:
G-T/H 401 13-04-2020 18:42:18 12.8 C 57 %
402 13-04-2020 18:52:16 12.8 C 57 %
403 13-04-2020 19:02:16 12.8 C 57 %
404 13-04-2020 19:12:16 12.8 C 57 %
405 13-04-2020 19:22:16 12.8 C 56 %
406 13-04-2020 19:32:17 12.8 C 56 %
407 13-04-2020 19:42:17 12.7 C 56 %
408 13-04-2020 19:52:16 12.8 C 56 %
409 13-04-2020 20:02:16 12.7 C 55 %
410 13-04-2020 20:12:16 12.7 C 55 %
411 13-04-2020 20:22:16 12.7 C 55 %
412 13-04-2020 20:32:16 12.7 C 55 %
413 13-04-2020 20:42:16 12.7 C 55 %
414 13-04-2020 20:52:16 12.7 C 55 %
415 13-04-2020 21:02:16 12.6 C 55 %
416 13-04-2020 21:12:16 12.7 C 55 %
417 13-04-2020 21:22:16 12.6 C 55 %
418 13-04-2020 21:32:17 12.6 C 55 %
419 13-04-2020 21:42:17 12.6 C 55 %
420 13-04-2020 21:52:16 12.6 C 55 %
421 13-04-2020 22:02:16 12.6 C 55 %
422 13-04-2020 22:12:16 12.6 C 56 %
423 13-04-2020 22:22:16 12.5 C 56 %
424 13-04-2020 22:32:16 12.5 C 56 %
425 13-04-2020 22:42:16 12.5 C 56 %
Sensor: Nr:Datum:Temp:Feuchte:
G-T/H 426 13-04-2020 22:52:16 12.5 C 56 %
427 13-04-2020 23:02:16 12.5 C 56 %
428 13-04-2020 23:12:16 12.5 C 56 %
429 13-04-2020 23:22:16 12.5 C 56 %
430 13-04-2020 23:32:17 12.5 C 56 %
431 13-04-2020 23:42:17 12.4 C 56 %
432 13-04-2020 23:52:16 12.4 C 57 %
433 14-04-2020 00:02:16 12.4 C 57 %
434 14-04-2020 00:12:16 12.4 C 57 %
435 14-04-2020 00:22:16 12.4 C 56 %
436 14-04-2020 00:32:16 12.4 C 57 %
437 14-04-2020 00:42:16 12.3 C 57 %
438 14-04-2020 00:52:16 12.3 C 57 %
439 14-04-2020 01:02:16 12.3 C 57 %
440 14-04-2020 01:12:16 12.3 C 57 %
441 14-04-2020 01:22:16 12.2 C 57 %
442 14-04-2020 01:32:16 12.2 C 57 %
443 14-04-2020 01:42:16 12.2 C 57 %
444 14-04-2020 01:52:16 12.2 C 57 %
445 14-04-2020 02:02:16 12.2 C 57 %
446 14-04-2020 02:12:16 12.2 C 57 %
447 14-04-2020 02:22:16 12.1 C 57 %
448 14-04-2020 02:32:16 12.1 C 57 %
449 14-04-2020 02:42:16 12.1 C 57 %
450 14-04-2020 02:52:18 12.1 C 57 %
Sensor: Nr:Datum:Temp:Feuchte:
G-T/H 451 14-04-2020 03:02:18 12 C 57 %
452 14-04-2020 03:12:18 12 C 57 %
453 14-04-2020 03:22:17 12 C 57 %
454 14-04-2020 03:32:18 11.9 C 58 %
455 14-04-2020 03:42:18 11.9 C 58 %
456 14-04-2020 03:52:17 11.9 C 58 %
457 14-04-2020 04:02:18 11.9 C 58 %
458 14-04-2020 04:12:18 11.9 C 58 %
459 14-04-2020 04:22:17 11.8 C 58 %
460 14-04-2020 04:32:17 11.8 C 58 %
461 14-04-2020 04:42:17 11.8 C 58 %
462 14-04-2020 04:52:18 11.8 C 57 %
463 14-04-2020 05:02:17 11.7 C 57 %
464 14-04-2020 05:12:17 11.7 C 57 %
465 14-04-2020 05:22:17 11.7 C 57 %
466 14-04-2020 05:32:17 11.7 C 57 %
467 14-04-2020 05:42:17 11.7 C 57 %
468 14-04-2020 05:52:17 11.7 C 57 %
469 14-04-2020 06:02:17 11.6 C 57 %
470 14-04-2020 06:12:17 11.6 C 57 %
471 14-04-2020 06:22:17 11.5 C 57 %
472 14-04-2020 06:32:17 11.5 C 57 %
473 14-04-2020 06:42:17 11.5 C 57 %
474 14-04-2020 06:52:17 11.5 C 58 %
475 14-04-2020 07:02:17 11.5 C 58 %
Sensor: Nr:Datum:Temp:Feuchte:
G-T/H 476 14-04-2020 07:12:17 11.4 C 58 %
477 14-04-2020 07:22:17 11.4 C 58 %
478 14-04-2020 07:32:17 11.4 C 58 %
479 14-04-2020 07:42:17 11.3 C 58 %
480 14-04-2020 07:52:18 11.3 C 58 %
481 14-04-2020 08:02:17 11.3 C 58 %
482 14-04-2020 08:12:17 11.3 C 58 %
483 14-04-2020 08:22:18 11.3 C 58 %
484 14-04-2020 08:32:17 11.3 C 58 %
485 14-04-2020 08:42:17 11.2 C 58 %
486 14-04-2020 08:52:17 11.2 C 58 %
487 14-04-2020 09:02:18 11.2 C 58 %
488 14-04-2020 09:12:18 11.2 C 59 %
489 14-04-2020 09:22:17 11.2 C 59 %
490 14-04-2020 09:32:18 11.2 C 59 %
491 14-04-2020 09:42:18 11.2 C 59 %
492 14-04-2020 09:52:17 11.1 C 59 %
493 14-04-2020 10:02:17 11.1 C 59 %
494 14-04-2020 10:12:17 11.1 C 59 %
495 14-04-2020 10:22:17 11.1 C 59 %
496 14-04-2020 10:32:17 11.1 C 59 %
497 14-04-2020 10:42:17 11.1 C 59 %
498 14-04-2020 10:52:18 11.1 C 59 %
499 14-04-2020 11:02:17 11.1 C 59 %
500 14-04-2020 11:12:17 11.1 C 59 %
Sensor: Nr:Datum:Temp:Feuchte:
G-T/H 501 14-04-2020 11:22:17 11.1 C 59 %
502 14-04-2020 11:32:17 11.1 C 59 %
503 14-04-2020 11:42:17 11.1 C 59 %
504 14-04-2020 11:52:18 11.1 C 59 %
505 14-04-2020 12:02:17 11 C 59 %
506 14-04-2020 12:12:17 11 C 59 %
507 14-04-2020 12:22:17 11 C 59 %
508 14-04-2020 12:32:17 11 C 59 %
509 14-04-2020 12:42:17 11 C 59 %
510 14-04-2020 12:52:17 11 C 59 %
511 14-04-2020 13:02:18 11 C 59 %
512 14-04-2020 13:12:18 11.1 C 59 %
513 14-04-2020 13:22:17 11.1 C 59 %
514 14-04-2020 13:32:17 11 C 59 %
515 14-04-2020 13:42:17 11 C 59 %
516 14-04-2020 13:52:18 11.1 C 59 %
517 14-04-2020 14:02:17 11 C 59 %
518 14-04-2020 14:12:18 11.1 C 59 %
519 14-04-2020 14:22:18 11.1 C 59 %
520 14-04-2020 14:32:18 11.1 C 59 %
521 14-04-2020 14:42:18 11.1 C 59 %
522 14-04-2020 14:52:17 11.1 C 60 %
523 14-04-2020 15:02:17 11.1 C 60 %
524 14-04-2020 15:12:18 11.1 C 60 %
525 14-04-2020 15:22:17 11.1 C 60 %
Sensor: Nr:Datum:Temp:Feuchte:
G-T/H 526 14-04-2020 15:32:17 11.1 C 60 %
527 14-04-2020 15:42:17 11.2 C 60 %
528 14-04-2020 15:52:17 11.2 C 60 %
529 14-04-2020 16:02:17 11.2 C 60 %
530 14-04-2020 16:12:17 11.2 C 60 %
531 14-04-2020 16:22:17 11.2 C 60 %
532 14-04-2020 16:32:18 11.2 C 60 %
533 14-04-2020 16:42:18 11.2 C 60 %
534 14-04-2020 16:52:17 11.2 C 60 %
535 14-04-2020 17:02:18 11.2 C 60 %
536 14-04-2020 17:12:18 11.2 C 60 %
537 14-04-2020 17:22:17 11.2 C 60 %
538 14-04-2020 17:32:17 11.2 C 60 %
539 14-04-2020 17:42:18 11.2 C 60 %
540 14-04-2020 17:52:17 11.3 C 60 %
541 14-04-2020 18:02:18 11.3 C 60 %
542 14-04-2020 18:12:18 11.3 C 60 %
543 14-04-2020 18:22:17 11.3 C 60 %
544 14-04-2020 18:32:18 11.3 C 60 %
545 14-04-2020 18:42:18 11.3 C 60 %
546 14-04-2020 18:52:17 11.4 C 60 %
547 14-04-2020 19:02:17 11.4 C 61 %
548 14-04-2020 19:12:18 11.4 C 60 %
549 14-04-2020 19:22:18 11.4 C 60 %
550 14-04-2020 19:32:18 11.4 C 60 %
Sensor: Nr:Datum:Temp:Feuchte:
G-T/H 551 14-04-2020 19:42:18 11.4 C 60 %
552 14-04-2020 19:52:17 11.4 C 60 %
553 14-04-2020 20:02:17 11.4 C 60 %
554 14-04-2020 20:12:17 11.4 C 59 %
555 14-04-2020 20:22:17 11.4 C 60 %
556 14-04-2020 20:32:17 11.4 C 60 %
557 14-04-2020 20:42:18 11.4 C 60 %
558 14-04-2020 20:52:17 11.4 C 60 %
559 14-04-2020 21:02:17 11.4 C 60 %
560 14-04-2020 21:12:17 11.4 C 60 %
561 14-04-2020 21:22:17 11.4 C 60 %
562 14-04-2020 21:32:17 11.4 C 60 %
563 14-04-2020 21:42:17 11.4 C 60 %
564 14-04-2020 21:52:17 11.4 C 60 %
565 14-04-2020 22:02:18 11.4 C 60 %
566 14-04-2020 22:12:18 11.4 C 61 %
567 14-04-2020 22:22:17 11.3 C 61 %
568 14-04-2020 22:32:18 11.4 C 61 %
569 14-04-2020 22:42:18 11.4 C 60 %
570 14-04-2020 22:52:18 11.3 C 60 %
571 14-04-2020 23:02:18 11.3 C 60 %
572 14-04-2020 23:12:18 11.3 C 60 %
573 14-04-2020 23:22:17 11.3 C 60 %
574 14-04-2020 23:32:17 11.3 C 60 %
575 14-04-2020 23:42:17 11.3 C 60 %
Sensor: Nr:Datum:Temp:Feuchte:
G-T/H 576 14-04-2020 23:52:17 11.3 C 60 %
577 15-04-2020 00:02:18 11.2 C 60 %
578 15-04-2020 00:12:18 11.2 C 60 %
579 15-04-2020 00:22:17 11.2 C 60 %
580 15-04-2020 00:32:18 11.2 C 60 %
581 15-04-2020 00:42:18 11.2 C 60 %
582 15-04-2020 00:52:17 11.2 C 60 %
583 15-04-2020 01:02:17 11.2 C 60 %
584 15-04-2020 01:12:17 11.2 C 60 %
585 15-04-2020 01:22:17 11.2 C 60 %
586 15-04-2020 01:32:17 11.1 C 60 %
587 15-04-2020 01:42:17 11.1 C 60 %
588 15-04-2020 01:52:17 11.1 C 60 %
589 15-04-2020 02:02:17 11.1 C 60 %
590 15-04-2020 02:12:17 11.1 C 60 %
591 15-04-2020 02:22:17 11.1 C 60 %
592 15-04-2020 02:32:17 11.1 C 60 %
593 15-04-2020 02:42:17 11.1 C 60 %
594 15-04-2020 02:52:17 11 C 60 %
595 15-04-2020 03:02:17 11 C 60 %
596 15-04-2020 03:12:17 11 C 60 %
597 15-04-2020 03:22:17 11 C 60 %
598 15-04-2020 03:32:18 11 C 60 %
599 15-04-2020 03:42:18 11 C 60 %
600 15-04-2020 03:52:18 11 C 60 %
Sensor: Nr:Datum:Temp:Feuchte:
G-T/H 601 15-04-2020 04:02:18 11 C 60 %
602 15-04-2020 04:12:18 10.9 C 61 %
603 15-04-2020 04:22:17 10.9 C 61 %
604 15-04-2020 04:32:18 10.9 C 61 %
605 15-04-2020 04:42:18 10.8 C 60 %
606 15-04-2020 04:52:17 10.8 C 60 %
607 15-04-2020 05:02:18 10.8 C 60 %
608 15-04-2020 05:12:18 10.7 C 60 %
609 15-04-2020 05:22:17 10.7 C 59 %
610 15-04-2020 05:32:17 10.7 C 59 %
611 15-04-2020 05:42:17 10.7 C 59 %
612 15-04-2020 05:52:17 10.7 C 59 %
613 15-04-2020 06:02:17 10.7 C 59 %
614 15-04-2020 06:12:17 10.7 C 60 %
615 15-04-2020 06:22:17 10.6 C 60 %
616 15-04-2020 06:32:17 10.6 C 60 %
617 15-04-2020 06:42:17 10.6 C 60 %
618 15-04-2020 06:52:17 10.6 C 60 %
619 15-04-2020 07:02:17 10.6 C 60 %
620 15-04-2020 07:12:17 10.5 C 60 %
621 15-04-2020 07:22:17 10.5 C 60 %
622 15-04-2020 07:32:17 10.5 C 60 %
623 15-04-2020 07:42:17 10.5 C 60 %
624 15-04-2020 07:52:18 10.5 C 60 %
625 15-04-2020 08:02:17 10.5 C 60 %
Sensor: Nr:Datum:Temp:Feuchte:
G-T/H 626 15-04-2020 08:12:17 10.5 C 60 %
627 15-04-2020 08:22:18 10.5 C 60 %
628 15-04-2020 08:32:18 10.5 C 60 %
629 15-04-2020 08:42:18 10.4 C 60 %
630 15-04-2020 08:52:18 10.4 C 60 %
631 15-04-2020 09:02:17 10.4 C 60 %
632 15-04-2020 09:12:17 10.4 C 60 %
633 15-04-2020 09:22:18 10.4 C 60 %
634 15-04-2020 09:32:18 10.4 C 60 %
635 15-04-2020 09:42:18 10.4 C 60 %
636 15-04-2020 09:52:17 10.4 C 60 %
637 15-04-2020 10:02:18 10.4 C 60 %
638 15-04-2020 10:12:18 10.4 C 61 %
639 15-04-2020 10:22:18 10.3 C 61 %
640 15-04-2020 10:32:18 10.4 C 61 %
641 15-04-2020 10:42:18 10.3 C 61 %
642 15-04-2020 10:52:18 10.4 C 61 %
643 15-04-2020 11:02:17 10.3 C 61 %
644 15-04-2020 11:12:17 10.3 C 61 %
645 15-04-2020 11:22:18 10.3 C 61 %
646 15-04-2020 11:32:17 10.3 C 61 %
647 15-04-2020 11:42:17 10.4 C 61 %
648 15-04-2020 11:52:18 10.4 C 61 %
649 15-04-2020 12:02:17 10.4 C 62 %
650 15-04-2020 12:12:17 10.4 C 62 %
Sensor: Nr:Datum:Temp:Feuchte:
G-T/H 651 15-04-2020 12:22:18 10.4 C 62 %
652 15-04-2020 12:32:18 10.4 C 62 %
653 15-04-2020 12:42:18 10.4 C 62 %
654 15-04-2020 12:52:17 10.4 C 62 %
655 15-04-2020 13:02:17 10.4 C 61 %
656 15-04-2020 13:12:17 10.4 C 62 %
657 15-04-2020 13:22:18 10.4 C 62 %
658 15-04-2020 13:32:18 10.4 C 62 %
659 15-04-2020 13:42:18 10.5 C 62 %
660 15-04-2020 13:52:17 10.5 C 62 %
661 15-04-2020 14:02:17 10.5 C 62 %
662 15-04-2020 14:12:17 10.5 C 62 %
663 15-04-2020 14:22:17 10.5 C 62 %
664 15-04-2020 14:32:17 10.5 C 62 %
665 15-04-2020 14:42:17 10.6 C 62 %
666 15-04-2020 14:52:17 10.6 C 62 %
667 15-04-2020 15:02:18 10.6 C 62 %
668 15-04-2020 15:12:18 10.7 C 62 %
669 15-04-2020 15:22:18 10.7 C 62 %
670 15-04-2020 15:32:18 10.7 C 63 %
671 15-04-2020 15:42:18 10.7 C 63 %
672 15-04-2020 15:52:17 10.8 C 63 %
673 15-04-2020 16:02:18 10.8 C 63 %
674 15-04-2020 16:12:18 10.8 C 63 %
675 15-04-2020 16:22:17 10.8 C 63 %
Sensor: Nr:Datum:Temp:Feuchte:
G-T/H 676 15-04-2020 16:32:18 10.8 C 63 %
677 15-04-2020 16:42:18 10.9 C 63 %
678 15-04-2020 16:52:18 10.9 C 63 %
679 15-04-2020 17:02:17 10.9 C 63 %
680 15-04-2020 17:12:17 11 C 62 %
681 15-04-2020 17:22:18 11 C 62 %
682 15-04-2020 17:32:17 11.2 C 61 %
683 15-04-2020 17:42:17 12.1 C 53 %
684 15-04-2020 17:52:18 12.6 C 49 %
685 15-04-2020 18:02:18 12.8 C 48 %
686 15-04-2020 18:12:18 13.1 C 45 %
687 15-04-2020 18:22:18 13.2 C 44 %
688 15-04-2020 18:32:18 13.4 C 43 %
689 15-04-2020 18:42:18 13.5 C 42 %
690 15-04-2020 18:52:17 13.6 C 41 %
691 15-04-2020 19:02:17 13.7 C 41 %
692 15-04-2020 19:12:17 13.7 C 41 %
693 15-04-2020 19:22:17 13.8 C 41 %
694 15-04-2020 19:32:17 13.8 C 40 %
695 15-04-2020 19:42:18 13.8 C 40 %
696 15-04-2020 19:52:17 13.7 C 41 %
697 15-04-2020 20:02:18 13.4 C 42 %
698 15-04-2020 20:12:18 13.2 C 44 %
699 15-04-2020 20:22:18 13 C 45 %
700 15-04-2020 20:32:17 13 C 46 %
Sensor: Nr:Datum:Temp:Feuchte:
G-T/H 701 15-04-2020 20:42:18 12.8 C 47 %
702 15-04-2020 20:52:17 12.7 C 47 %
703 15-04-2020 21:02:18 12.5 C 47 %
704 15-04-2020 21:12:18 12.4 C 47 %
705 15-04-2020 21:22:17 12.2 C 47 %
706 15-04-2020 21:32:17 12.2 C 47 %
707 15-04-2020 21:42:17 12.1 C 47 %
708 15-04-2020 21:52:17 12 C 47 %
709 15-04-2020 22:02:17 12 C 47 %
710 15-04-2020 22:12:17 11.8 C 48 %
711 15-04-2020 22:22:17 11.7 C 48 %
712 15-04-2020 22:32:18 11.6 C 48 %
713 15-04-2020 22:42:18 11.5 C 48 %
714 15-04-2020 22:52:17 11.4 C 48 %
715 15-04-2020 23:02:17 11.3 C 48 %
716 15-04-2020 23:12:17 11.1 C 48 %
717 15-04-2020 23:22:17 11.1 C 48 %
718 15-04-2020 23:32:17 11 C 48 %
719 15-04-2020 23:42:18 10.8 C 49 %
720 15-04-2020 23:52:17 10.7 C 49 %
721 16-04-2020 00:02:17 10.7 C 49 %
722 16-04-2020 00:12:17 10.5 C 49 %
723 16-04-2020 00:22:17 10.3 C 50 %
724 16-04-2020 00:32:18 10.2 C 50 %
725 16-04-2020 00:42:18 10.1 C 50 %
Sensor: Nr:Datum:Temp:Feuchte:
G-T/H 726 16-04-2020 00:52:17 10 C 50 %
727 16-04-2020 01:02:17 9.9 C 50 %
728 16-04-2020 01:12:17 9.9 C 50 %
729 16-04-2020 01:22:17 9.7 C 50 %
730 16-04-2020 01:32:18 9.7 C 50 %
731 16-04-2020 01:42:18 9.7 C 50 %
732 16-04-2020 01:52:17 9.5 C 51 %
733 16-04-2020 02:02:18 9.5 C 51 %
734 16-04-2020 02:12:18 9.3 C 51 %
735 16-04-2020 02:22:18 9.2 C 51 %
736 16-04-2020 02:32:17 9.1 C 51 %
737 16-04-2020 02:42:17 8.9 C 52 %
738 16-04-2020 02:52:17 8.9 C 52 %
739 16-04-2020 03:02:17 8.7 C 52 %
740 16-04-2020 03:12:17 8.6 C 53 %
741 16-04-2020 03:22:17 8.5 C 53 %
742 16-04-2020 03:32:17 8.5 C 53 %
743 16-04-2020 03:42:17 8.4 C 53 %
744 16-04-2020 03:52:17 8.3 C 53 %
745 16-04-2020 04:02:17 8.2 C 53 %
746 16-04-2020 04:12:17 8.1 C 53 %
747 16-04-2020 04:22:17 8.1 C 54 %
748 16-04-2020 04:32:18 8 C 54 %
749 16-04-2020 04:42:18 7.9 C 55 %
750 16-04-2020 04:52:17 7.9 C 55 %
Sensor: Nr:Datum:Temp:Feuchte:
G-T/H 751 16-04-2020 05:02:17 7.8 C 55 %
752 16-04-2020 05:12:17 7.7 C 55 %
753 16-04-2020 05:22:17 7.7 C 55 %
754 16-04-2020 05:32:17 7.6 C 56 %
755 16-04-2020 05:42:17 7.5 C 55 %
756 16-04-2020 05:52:17 7.3 C 56 %
757 16-04-2020 06:02:18 7.4 C 56 %
758 16-04-2020 06:12:18 7.3 C 56 %
759 16-04-2020 06:22:17 7.2 C 56 %
760 16-04-2020 06:32:17 7.1 C 56 %
761 16-04-2020 06:42:17 7 C 56 %
762 16-04-2020 06:52:17 6.9 C 57 %
763 16-04-2020 07:02:17 6.9 C 57 %
764 16-04-2020 07:12:17 6.9 C 57 %
765 16-04-2020 07:22:17 6.8 C 58 %
766 16-04-2020 07:32:17 6.8 C 58 %
767 16-04-2020 07:42:17 6.9 C 58 %
768 16-04-2020 07:52:17 6.8 C 59 %
769 16-04-2020 08:02:17 6.8 C 59 %
770 16-04-2020 08:12:17 6.8 C 59 %
771 16-04-2020 08:22:17 6.8 C 60 %
772 16-04-2020 08:32:18 7 C 59 %
773 16-04-2020 08:42:18 7 C 59 %
774 16-04-2020 08:52:17 7 C 60 %
775 16-04-2020 09:02:18 7.1 C 60 %
Sensor: Nr:Datum:Temp:Feuchte:
G-T/H 776 16-04-2020 09:12:18 7.2 C 60 %
777 16-04-2020 09:22:17 7.3 C 60 %
778 16-04-2020 09:32:17 7.4 C 61 %
779 16-04-2020 09:42:17 7.6 C 61 %
780 16-04-2020 09:52:17 7.8 C 61 %
781 16-04-2020 10:02:18 7.9 C 62 %
782 16-04-2020 10:12:18 8.1 C 61 %
783 16-04-2020 10:22:17 8.4 C 61 %
784 16-04-2020 10:32:17 8.5 C 62 %
785 16-04-2020 10:42:18 8.7 C 61 %
786 16-04-2020 10:52:17 9 C 60 %
787 16-04-2020 11:02:18 9.2 C 60 %
788 16-04-2020 11:12:18 9.5 C 60 %
789 16-04-2020 11:22:17 10 C 59 %
790 16-04-2020 11:32:17 10.4 C 58 %
791 16-04-2020 11:42:17 10.7 C 57 %
792 16-04-2020 11:52:17 11.1 C 56 %
793 16-04-2020 12:02:18 11.4 C 55 %
794 16-04-2020 12:12:18 11.7 C 55 %
795 16-04-2020 12:22:17 12 C 53 %
796 16-04-2020 12:32:18 12.2 C 53 %
797 16-04-2020 12:42:18 12.4 C 53 %
798 16-04-2020 12:52:17 12.6 C 53 %
799 16-04-2020 13:02:18 12.9 C 53 %
800 16-04-2020 13:12:18 13.2 C 51 %
Sensor: Nr:Datum:Temp:Feuchte:
G-T/H 801 16-04-2020 13:22:17 13.4 C 51 %
802 16-04-2020 13:32:18 13.6 C 50 %
803 16-04-2020 13:42:18 13.9 C 48 %
804 16-04-2020 13:52:17 14.1 C 47 %
805 16-04-2020 14:02:17 14.2 C 45 %
806 16-04-2020 14:12:17 14.4 C 45 %
807 16-04-2020 14:22:17 14.6 C 45 %
808 16-04-2020 14:32:17 14.6 C 44 %
809 16-04-2020 14:42:17 14.8 C 45 %
810 16-04-2020 14:52:17 15.1 C 44 %
811 16-04-2020 15:02:17 15.3 C 44 %
812 16-04-2020 15:12:17 15.4 C 44 %
813 16-04-2020 15:22:17 15.5 C 44 %
814 16-04-2020 15:32:18 15.8 C 43 %
815 16-04-2020 15:42:18 15.9 C 44 %
816 16-04-2020 15:52:17 16 C 43 %
817 16-04-2020 16:02:17 16.2 C 44 %
818 16-04-2020 16:12:17 16.4 C 44 %
819 16-04-2020 16:22:17 16.5 C 44 %
820 16-04-2020 16:32:17 16.5 C 42 %
821 16-04-2020 16:42:18 16.6 C 41 %
822 16-04-2020 16:52:17 16.7 C 41 %
823 16-04-2020 17:02:17 16.7 C 41 %
824 16-04-2020 17:12:17 16.8 C 42 %
825 16-04-2020 17:22:18 16.3 C 42 %
Sensor: Nr:Datum:Temp:Feuchte:
G-T/H 826 16-04-2020 17:32:17 15.8 C 43 %
827 16-04-2020 17:42:17 15.5 C 45 %
828 16-04-2020 17:52:17 15.3 C 45 %
829 16-04-2020 18:02:17 15.1 C 46 %
830 16-04-2020 18:12:17 15 C 46 %
831 16-04-2020 18:22:17 14.9 C 47 %
832 16-04-2020 18:32:17 14.8 C 48 %
833 16-04-2020 18:42:17 14.8 C 48 %
834 16-04-2020 18:52:17 14.7 C 49 %
835 16-04-2020 19:02:17 14.6 C 49 %
836 16-04-2020 19:12:17 14.6 C 49 %
837 16-04-2020 19:22:17 14.5 C 50 %
838 16-04-2020 19:32:18 14.5 C 50 %
839 16-04-2020 19:42:18 14.5 C 51 %
840 16-04-2020 19:52:17 14.4 C 51 %
841 16-04-2020 20:02:17 14.4 C 51 %
842 16-04-2020 20:12:17 14.3 C 52 %
843 16-04-2020 20:22:17 14.3 C 52 %
844 16-04-2020 20:32:18 14.3 C 52 %
845 16-04-2020 20:42:18 14.3 C 52 %
846 16-04-2020 20:52:18 14.2 C 53 %
847 16-04-2020 21:02:17 14.2 C 53 %
848 16-04-2020 21:12:17 14.2 C 53 %
849 16-04-2020 21:22:17 14.1 C 53 %
850 16-04-2020 21:32:18 14.1 C 53 %
Sensor: Nr:Datum:Temp:Feuchte:
G-T/H 851 16-04-2020 21:42:18 14.1 C 53 %
852 16-04-2020 21:52:17 14.1 C 54 %
853 16-04-2020 22:02:17 14.1 C 54 %
854 16-04-2020 22:12:17 14 C 54 %
855 16-04-2020 22:22:17 14 C 54 %
856 16-04-2020 22:32:17 14 C 54 %
857 16-04-2020 22:42:18 14 C 54 %
858 16-04-2020 22:52:17 13.9 C 55 %
859 16-04-2020 23:02:17 13.9 C 55 %
860 16-04-2020 23:12:17 13.9 C 55 %
861 16-04-2020 23:22:17 13.9 C 55 %
862 16-04-2020 23:32:18 13.9 C 56 %
863 16-04-2020 23:42:18 13.9 C 56 %
864 16-04-2020 23:52:17 13.8 C 56 %
865 17-04-2020 00:02:18 13.8 C 56 %
866 17-04-2020 00:12:18 13.8 C 56 %
867 17-04-2020 00:22:17 13.8 C 56 %
868 17-04-2020 00:32:17 13.8 C 56 %
869 17-04-2020 00:42:17 13.8 C 56 %
870 17-04-2020 00:52:18 13.7 C 56 %
871 17-04-2020 01:02:17 13.7 C 56 %
872 17-04-2020 01:12:18 13.7 C 56 %
873 17-04-2020 01:22:18 13.7 C 56 %
874 17-04-2020 01:32:18 13.7 C 57 %
875 17-04-2020 01:42:18 13.6 C 57 %
Sensor: Nr:Datum:Temp:Feuchte:
G-T/H 876 17-04-2020 01:52:17 13.6 C 57 %
877 17-04-2020 02:02:17 13.6 C 57 %
878 17-04-2020 02:12:17 13.6 C 57 %
879 17-04-2020 02:22:17 13.6 C 57 %
880 17-04-2020 02:32:17 13.6 C 57 %
881 17-04-2020 02:42:17 13.6 C 57 %
882 17-04-2020 02:52:17 13.6 C 57 %
883 17-04-2020 03:02:17 13.5 C 57 %
884 17-04-2020 03:12:18 13.5 C 57 %
885 17-04-2020 03:22:18 13.5 C 57 %
886 17-04-2020 03:32:17 13.5 C 57 %
887 17-04-2020 03:42:18 13.4 C 57 %
888 17-04-2020 03:52:18 13.4 C 57 %
889 17-04-2020 04:02:17 13.4 C 57 %
890 17-04-2020 04:12:17 13.4 C 57 %
891 17-04-2020 04:22:17 13.4 C 57 %
892 17-04-2020 04:32:17 13.4 C 57 %
893 17-04-2020 04:42:17 13.4 C 57 %
894 17-04-2020 04:52:17 13.4 C 57 %
895 17-04-2020 05:02:17 13.3 C 57 %
896 17-04-2020 05:12:18 13.3 C 57 %
897 17-04-2020 05:22:17 13.3 C 57 %
898 17-04-2020 05:32:18 13.3 C 57 %
899 17-04-2020 05:42:18 13.3 C 57 %
900 17-04-2020 05:52:18 13.2 C 57 %
Sensor: Nr:Datum:Temp:Feuchte:
G-T/H 901 17-04-2020 06:02:18 13.2 C 57 %
902 17-04-2020 06:12:18 13.2 C 57 %
903 17-04-2020 06:22:17 13.2 C 57 %
904 17-04-2020 06:32:17 13.2 C 57 %
905 17-04-2020 06:42:17 13.2 C 57 %
906 17-04-2020 06:52:17 13.1 C 57 %
907 17-04-2020 07:02:18 13.1 C 57 %
908 17-04-2020 07:12:18 13.1 C 57 %
909 17-04-2020 07:22:18 13.1 C 57 %
910 17-04-2020 07:32:17 13.1 C 57 %
911 17-04-2020 07:42:17 13.1 C 58 %
912 17-04-2020 07:52:17 13 C 58 %
913 17-04-2020 08:02:17 13.1 C 58 %
914 17-04-2020 08:12:17 13 C 58 %
915 17-04-2020 08:22:17 13 C 58 %
916 17-04-2020 08:32:18 13 C 58 %
917 17-04-2020 08:42:18 13 C 58 %
918 17-04-2020 08:52:17 13 C 58 %
919 17-04-2020 09:02:18 13 C 58 %
920 17-04-2020 09:12:18 13 C 58 %
921 17-04-2020 09:22:17 12.9 C 59 %
922 17-04-2020 09:32:17 12.9 C 59 %
923 17-04-2020 09:42:17 12.9 C 59 %
924 17-04-2020 09:52:18 12.9 C 60 %
925 17-04-2020 10:02:17 12.9 C 60 %
Sensor: Nr:Datum:Temp:Feuchte:
G-T/H 926 17-04-2020 10:12:17 12.9 C 60 %
927 17-04-2020 10:22:18 12.8 C 60 %
928 17-04-2020 10:32:18 12.8 C 60 %
929 17-04-2020 10:42:18 12.9 C 60 %
930 17-04-2020 10:52:17 12.8 C 60 %
931 17-04-2020 11:02:17 12.8 C 60 %
932 17-04-2020 11:12:17 12.8 C 60 %
933 17-04-2020 11:22:18 12.8 C 60 %
934 17-04-2020 11:32:17 12.8 C 60 %
935 17-04-2020 11:42:17 12.9 C 61 %
936 17-04-2020 11:52:17 12.8 C 61 %
937 17-04-2020 12:02:18 12.9 C 61 %
938 17-04-2020 12:12:18 12.8 C 61 %
939 17-04-2020 12:22:17 12.9 C 61 %
940 17-04-2020 12:32:17 12.9 C 61 %
941 17-04-2020 12:42:17 12.9 C 61 %
942 17-04-2020 12:52:17 12.9 C 61 %
943 17-04-2020 13:02:18 12.9 C 61 %
944 17-04-2020 13:12:18 12.9 C 61 %
945 17-04-2020 13:22:17 12.9 C 61 %
946 17-04-2020 13:32:17 13 C 61 %
947 17-04-2020 13:42:17 13 C 61 %
948 17-04-2020 13:52:17 14.2 C 60 %
949 17-04-2020 14:02:18 14.8 C 59 %
950 17-04-2020 14:12:18 15.3 C 57 %
Sensor: Nr:Datum:Temp:Feuchte:
G-T/H 951 17-04-2020 14:22:17 15.6 C 56 %
952 17-04-2020 14:32:17 15.8 C 55 %
953 17-04-2020 14:42:17 15.9 C 55 %
954 17-04-2020 14:52:17 16.1 C 54 %
955 17-04-2020 15:02:17 16.5 C 54 %
956 17-04-2020 15:12:17 16.6 C 53 %
957 17-04-2020 15:22:17 16.7 C 52 %
958 17-04-2020 15:32:17 16.8 C 52 %
959 17-04-2020 15:42:17 16.9 C 52 %
960 17-04-2020 15:52:18 17 C 51 %
961 17-04-2020 16:02:17 17.2 C 51 %
962 17-04-2020 16:12:17 17.2 C 50 %
963 17-04-2020 16:22:17 17.3 C 50 %
964 17-04-2020 16:32:17 17.3 C 50 %
965 17-04-2020 16:42:17 17.5 C 49 %
966 17-04-2020 16:52:17 17.5 C 49 %
967 17-04-2020 17:02:18 17.5 C 49 %
968 17-04-2020 17:12:18 17.6 C 48 %
969 17-04-2020 17:22:17 17.8 C 48 %
970 17-04-2020 17:32:17 18 C 47 %
971 17-04-2020 17:42:18 18.1 C 47 %
972 17-04-2020 17:52:17 18.2 C 46 %
973 17-04-2020 18:02:17 18.3 C 46 %
974 17-04-2020 18:12:17 18.5 C 46 %
975 17-04-2020 18:22:17 18.5 C 46 %
Sensor: Nr:Datum:Temp:Feuchte:
G-T/H 976 17-04-2020 18:32:17 18.7 C 46 %
977 17-04-2020 18:42:17 18.7 C 47 %
978 17-04-2020 18:52:18 18.7 C 47 %
979 17-04-2020 19:02:17 18.7 C 47 %
980 17-04-2020 19:12:17 18.8 C 47 %
981 17-04-2020 19:22:17 18.8 C 48 %
982 17-04-2020 19:32:17 18.7 C 50 %
983 17-04-2020 19:42:17 18.7 C 51 %
984 17-04-2020 19:52:17 18.5 C 51 %
985 17-04-2020 20:02:17 18.2 C 51 %
986 17-04-2020 20:12:17 18.1 C 52 %
987 17-04-2020 20:22:17 17.9 C 53 %
988 17-04-2020 20:32:17 17.7 C 53 %
989 17-04-2020 20:42:17 17.5 C 53 %
990 17-04-2020 20:52:17 17.5 C 53 %
991 17-04-2020 21:02:17 17.4 C 53 %
992 17-04-2020 21:12:17 17.2 C 53 %
993 17-04-2020 21:22:17 17.2 C 53 %
994 17-04-2020 21:32:18 17.2 C 53 %
995 17-04-2020 21:42:18 17.2 C 53 %
996 17-04-2020 21:52:18 17 C 53 %
997 17-04-2020 22:02:17 16.9 C 54 %
998 17-04-2020 22:12:17 16.9 C 54 %
999 17-04-2020 22:22:17 16.7 C 54 %
1000 17-04-2020 22:32:17 16.6 C 54 %
Sensor: Nr:Datum:Temp:Feuchte:
G-T/H 1001 17-04-2020 22:42:17 16.5 C 54 %
1002 17-04-2020 22:52:17 16.4 C 54 %
1003 17-04-2020 23:02:17 16.4 C 55 %
1004 17-04-2020 23:12:17 16.3 C 55 %
1005 17-04-2020 23:22:18 16.2 C 55 %
1006 17-04-2020 23:32:17 16.1 C 55 %
1007 17-04-2020 23:42:17 16 C 55 %
1008 17-04-2020 23:52:17 15.9 C 56 %
1009 18-04-2020 00:02:17 15.8 C 56 %
1010 18-04-2020 00:12:17 15.7 C 56 %
1011 18-04-2020 00:22:18 15.5 C 56 %
1012 18-04-2020 00:32:17 15.4 C 56 %
1013 18-04-2020 00:42:18 15.3 C 56 %
1014 18-04-2020 00:52:17 15.2 C 56 %
1015 18-04-2020 01:02:18 15.2 C 56 %
1016 18-04-2020 01:12:18 15 C 55 %
1017 18-04-2020 01:22:17 14.9 C 56 %
1018 18-04-2020 01:32:18 14.8 C 56 %
1019 18-04-2020 01:42:18 14.7 C 56 %
1020 18-04-2020 01:52:17 14.6 C 56 %
1021 18-04-2020 02:02:18 14.5 C 56 %
1022 18-04-2020 02:12:18 14.4 C 56 %
1023 18-04-2020 02:22:17 14.4 C 56 %
1024 18-04-2020 02:32:17 14.2 C 57 %
1025 18-04-2020 02:42:17 14.1 C 57 %
Sensor: Nr:Datum:Temp:Feuchte:
G-T/H 1026 18-04-2020 02:52:18 14.1 C 57 %
1027 18-04-2020 03:02:17 13.9 C 58 %
1028 18-04-2020 03:12:17 13.8 C 58 %
1029 18-04-2020 03:22:18 13.7 C 59 %
1030 18-04-2020 03:32:18 13.6 C 58 %
1031 18-04-2020 03:42:18 13.5 C 58 %
1032 18-04-2020 03:52:18 13.4 C 58 %
1033 18-04-2020 04:02:17 13.3 C 58 %
1034 18-04-2020 04:12:17 13.2 C 59 %
1035 18-04-2020 04:22:17 13.1 C 59 %
1036 18-04-2020 04:32:18 13.1 C 59 %
1037 18-04-2020 04:42:18 13 C 59 %
1038 18-04-2020 04:52:17 12.9 C 60 %
1039 18-04-2020 05:02:17 12.8 C 60 %
1040 18-04-2020 05:12:17 12.8 C 60 %
1041 18-04-2020 05:22:17 12.8 C 60 %
1042 18-04-2020 05:32:17 12.7 C 61 %
1043 18-04-2020 05:42:17 12.6 C 61 %
1044 18-04-2020 05:52:18 12.5 C 61 %
1045 18-04-2020 06:02:17 12.5 C 61 %
1046 18-04-2020 06:12:17 12.5 C 61 %
1047 18-04-2020 06:22:17 12.4 C 61 %
1048 18-04-2020 06:32:17 12.4 C 62 %
1049 18-04-2020 06:42:17 12.3 C 62 %
1050 18-04-2020 06:52:17 12.2 C 61 %
Sensor: Nr:Datum:Temp:Feuchte:
G-T/H 1051 18-04-2020 07:02:17 12.2 C 62 %
1052 18-04-2020 07:12:17 12.2 C 62 %
1053 18-04-2020 07:22:17 12.3 C 63 %
1054 18-04-2020 07:32:17 12.3 C 63 %
1055 18-04-2020 07:42:17 12.4 C 63 %
1056 18-04-2020 07:52:17 12.4 C 64 %
1057 18-04-2020 08:02:18 12.4 C 64 %
1058 18-04-2020 08:12:18 12.4 C 64 %
1059 18-04-2020 08:22:17 12.4 C 65 %
1060 18-04-2020 08:32:17 12.4 C 65 %
1061 18-04-2020 08:42:18 12.4 C 65 %
1062 18-04-2020 08:52:18 12.5 C 65 %
1063 18-04-2020 09:02:17 12.7 C 66 %
1064 18-04-2020 09:12:17 12.7 C 66 %
1065 18-04-2020 09:22:17 12.8 C 66 %
1066 18-04-2020 09:32:18 13 C 65 %
1067 18-04-2020 09:42:18 13.1 C 65 %
1068 18-04-2020 09:52:18 13.2 C 65 %
1069 18-04-2020 10:02:18 13.3 C 65 %
1070 18-04-2020 10:12:18 13.4 C 65 %
1071 18-04-2020 10:22:18 13.5 C 65 %
1072 18-04-2020 10:32:18 13.6 C 65 %
1073 18-04-2020 10:42:18 13.8 C 65 %
1074 18-04-2020 10:52:18 13.8 C 65 %
1075 18-04-2020 11:02:18 13.9 C 65 %
Sensor: Nr:Datum:Temp:Feuchte:
G-T/H 1076 18-04-2020 11:12:18 14.1 C 65 %
1077 18-04-2020 11:22:17 14.1 C 65 %
1078 18-04-2020 11:32:18 14.2 C 65 %
1079 18-04-2020 11:42:18 14.3 C 64 %
1080 18-04-2020 11:52:18 14.4 C 65 %
1081 18-04-2020 12:02:17 14.6 C 65 %
1082 18-04-2020 12:12:17 14.7 C 65 %
1083 18-04-2020 12:22:18 14.8 C 65 %
1084 18-04-2020 12:32:18 14.8 C 65 %
1085 18-04-2020 12:42:18 14.9 C 64 %
1086 18-04-2020 12:52:17 15 C 63 %
1087 18-04-2020 13:02:17 15.2 C 64 %
1088 18-04-2020 13:12:17 15.3 C 64 %
1089 18-04-2020 13:22:18 15.3 C 63 %
1090 18-04-2020 13:32:18 15.5 C 63 %
1091 18-04-2020 13:42:18 15.6 C 62 %
1092 18-04-2020 13:52:18 15.7 C 62 %
1093 18-04-2020 14:02:18 15.9 C 62 %
1094 18-04-2020 14:12:18 15.9 C 62 %
1095 18-04-2020 14:22:18 16 C 61 %
1096 18-04-2020 14:32:17 16.1 C 61 %
1097 18-04-2020 14:42:17 16.1 C 61 %
1098 18-04-2020 14:52:17 16.2 C 62 %
1099 18-04-2020 15:02:17 16.3 C 61 %
1100 18-04-2020 15:12:18 16.4 C 61 %
Sensor: Nr:Datum:Temp:Feuchte:
G-T/H 1101 18-04-2020 15:22:17 16.5 C 60 %
1102 18-04-2020 15:32:17 16.6 C 60 %
1103 18-04-2020 15:42:17 16.6 C 59 %
1104 18-04-2020 15:52:17 16.6 C 59 %
1105 18-04-2020 16:02:18 16.6 C 60 %
1106 18-04-2020 16:12:18 16.6 C 61 %
1107 18-04-2020 16:22:18 16.6 C 61 %
1108 18-04-2020 16:32:17 16.5 C 62 %
1109 18-04-2020 16:42:17 16.4 C 62 %
1110 18-04-2020 16:52:17 16.4 C 63 %
1111 18-04-2020 17:02:17 16.5 C 64 %
1112 18-04-2020 17:12:17 16.4 C 64 %
1113 18-04-2020 17:22:17 16.4 C 65 %
1114 18-04-2020 17:32:18 16.4 C 66 %
1115 18-04-2020 17:42:18 16.4 C 67 %
1116 18-04-2020 17:52:18 16.3 C 67 %
1117 18-04-2020 18:02:18 16.2 C 67 %
1118 18-04-2020 18:12:18 16 C 67 %
1119 18-04-2020 18:22:17 16 C 67 %
1120 18-04-2020 18:32:18 16 C 67 %
1121 18-04-2020 18:42:18 15.9 C 68 %
1122 18-04-2020 18:52:17 15.9 C 67 %
1123 18-04-2020 19:02:18 15.9 C 67 %
1124 18-04-2020 19:12:18 15.9 C 67 %
1125 18-04-2020 19:22:17 15.8 C 67 %
Sensor: Nr:Datum:Temp:Feuchte:
G-T/H 1126 18-04-2020 19:32:17 15.8 C 67 %
1127 18-04-2020 19:42:17 15.8 C 67 %
1128 18-04-2020 19:52:18 15.8 C 66 %
1129 18-04-2020 20:02:17 15.7 C 66 %
1130 18-04-2020 20:12:17 15.7 C 66 %
1131 18-04-2020 20:22:17 15.7 C 66 %
1132 18-04-2020 20:32:17 15.6 C 66 %
1133 18-04-2020 20:42:17 15.6 C 65 %
1134 18-04-2020 20:52:17 15.6 C 65 %
1135 18-04-2020 21:02:18 15.6 C 65 %
1136 18-04-2020 21:12:18 15.6 C 65 %
1137 18-04-2020 21:22:17 15.5 C 65 %
1138 18-04-2020 21:32:17 15.5 C 65 %
1139 18-04-2020 21:42:17 15.5 C 65 %
1140 18-04-2020 21:52:18 15.5 C 65 %
1141 18-04-2020 22:02:17 15.4 C 65 %
1142 18-04-2020 22:12:17 15.4 C 65 %
1143 18-04-2020 22:22:17 15.4 C 65 %
1144 18-04-2020 22:32:18 15.4 C 65 %
1145 18-04-2020 22:42:18 15.4 C 65 %
1146 18-04-2020 22:52:17 15.3 C 65 %
1147 18-04-2020 23:02:18 15.4 C 65 %
1148 18-04-2020 23:12:18 15.3 C 65 %
1149 18-04-2020 23:22:17 15.3 C 65 %
1150 18-04-2020 23:32:17 15.3 C 65 %
Sensor: Nr:Datum:Temp:Feuchte:
G-T/H 1151 18-04-2020 23:42:17 15.2 C 65 %
1152 18-04-2020 23:52:17 15.2 C 65 %
1153 19-04-2020 00:02:18 15.2 C 65 %
1154 19-04-2020 00:12:18 15.2 C 65 %
1155 19-04-2020 00:22:17 15.2 C 65 %
1156 19-04-2020 00:32:17 15.1 C 65 %
1157 19-04-2020 00:42:17 15.1 C 64 %
1158 19-04-2020 00:52:17 15.1 C 64 %
1159 19-04-2020 01:02:17 15.1 C 64 %
1160 19-04-2020 01:12:17 15 C 64 %
1161 19-04-2020 01:22:17 15 C 64 %
1162 19-04-2020 01:32:17 15 C 64 %
1163 19-04-2020 01:42:17 15 C 64 %
1164 19-04-2020 01:52:17 15 C 64 %
1165 19-04-2020 02:02:17 15 C 64 %
1166 19-04-2020 02:12:18 15 C 64 %
1167 19-04-2020 02:22:17 14.9 C 65 %
1168 19-04-2020 02:32:17 15 C 64 %
1169 19-04-2020 02:42:17 14.9 C 65 %
1170 19-04-2020 02:52:17 14.9 C 65 %
1171 19-04-2020 03:02:17 14.9 C 65 %
1172 19-04-2020 03:12:17 14.8 C 65 %
1173 19-04-2020 03:22:17 14.8 C 65 %
1174 19-04-2020 03:32:17 14.8 C 65 %
1175 19-04-2020 03:42:17 14.8 C 65 %
Sensor: Nr:Datum:Temp:Feuchte:
G-T/H 1176 19-04-2020 03:52:17 14.8 C 65 %
1177 19-04-2020 04:02:17 14.7 C 65 %
1178 19-04-2020 04:12:17 14.7 C 65 %
1179 19-04-2020 04:22:17 14.7 C 65 %
1180 19-04-2020 04:32:17 14.7 C 65 %
1181 19-04-2020 04:42:17 14.7 C 65 %
1182 19-04-2020 04:52:17 14.7 C 65 %
1183 19-04-2020 05:02:17 14.7 C 65 %
1184 19-04-2020 05:12:17 14.6 C 65 %
1185 19-04-2020 05:22:18 14.6 C 65 %
1186 19-04-2020 05:32:17 14.6 C 65 %
1187 19-04-2020 05:42:17 14.6 C 65 %
1188 19-04-2020 05:52:17 14.6 C 65 %
1189 19-04-2020 06:02:17 14.5 C 65 %
1190 19-04-2020 06:12:17 14.5 C 65 %
1191 19-04-2020 06:22:17 14.5 C 65 %
1192 19-04-2020 06:32:17 14.5 C 65 %
1193 19-04-2020 06:42:17 14.5 C 65 %
1194 19-04-2020 06:52:18 14.5 C 65 %
1195 19-04-2020 07:02:18 14.5 C 65 %
1196 19-04-2020 07:12:18 14.4 C 65 %
1197 19-04-2020 07:22:17 14.4 C 65 %
1198 19-04-2020 07:32:18 14.4 C 65 %
1199 19-04-2020 07:42:18 14.4 C 65 %
1200 19-04-2020 07:52:17 14.4 C 65 %
Sensor: Nr:Datum:Temp:Feuchte:
G-T/H 1201 19-04-2020 08:02:17 14.4 C 65 %
1202 19-04-2020 08:12:17 14.4 C 65 %
1203 19-04-2020 08:22:17 14.3 C 65 %
1204 19-04-2020 08:32:17 14.3 C 65 %
1205 19-04-2020 08:42:17 14.3 C 65 %
1206 19-04-2020 08:52:17 14.4 C 65 %
1207 19-04-2020 09:02:17 14.3 C 65 %
1208 19-04-2020 09:12:18 14.3 C 65 %
1209 19-04-2020 09:22:18 14.3 C 65 %
1210 19-04-2020 09:32:17 14.3 C 65 %
1211 19-04-2020 09:42:17 14.3 C 65 %
1212 19-04-2020 09:52:17 14.3 C 65 %
1213 19-04-2020 10:02:17 14.3 C 65 %
1214 19-04-2020 10:12:17 14.3 C 65 %
1215 19-04-2020 10:22:17 14.3 C 65 %
1216 19-04-2020 10:32:17 14.3 C 65 %
1217 19-04-2020 10:42:17 14.3 C 65 %
1218 19-04-2020 10:52:17 14.3 C 65 %
1219 19-04-2020 11:02:17 14.3 C 65 %
1220 19-04-2020 11:12:17 14.2 C 65 %
1221 19-04-2020 11:22:17 14.2 C 65 %
1222 19-04-2020 11:32:17 14.2 C 65 %
1223 19-04-2020 11:42:17 14.2 C 65 %
1224 19-04-2020 11:52:17 14.2 C 65 %
1225 19-04-2020 12:02:17 14.2 C 65 %
Sensor: Nr:Datum:Temp:Feuchte:
G-T/H 1226 19-04-2020 12:12:17 14.2 C 65 %
1227 19-04-2020 12:22:17 14.2 C 65 %
1228 19-04-2020 12:32:18 14.2 C 65 %
1229 19-04-2020 12:42:18 14.2 C 65 %
1230 19-04-2020 12:52:17 14.2 C 65 %
1231 19-04-2020 13:02:17 14.2 C 65 %
1232 19-04-2020 13:12:17 14.2 C 65 %
1233 19-04-2020 13:22:17 14.2 C 65 %
1234 19-04-2020 13:32:17 14.2 C 65 %
1235 19-04-2020 13:42:17 14.2 C 65 %
1236 19-04-2020 13:52:17 14.2 C 66 %
1237 19-04-2020 14:02:18 14.2 C 66 %
1238 19-04-2020 14:12:18 14.3 C 66 %
1239 19-04-2020 14:22:17 14.3 C 66 %
1240 19-04-2020 14:32:17 14.3 C 66 %
1241 19-04-2020 14:42:17 14.3 C 66 %
1242 19-04-2020 14:52:17 14.3 C 66 %
1243 19-04-2020 15:02:18 14.3 C 66 %
1244 19-04-2020 15:12:18 14.3 C 66 %
1245 19-04-2020 15:22:17 14.3 C 66 %
1246 19-04-2020 15:32:17 14.3 C 66 %
1247 19-04-2020 15:42:18 14.3 C 66 %
1248 19-04-2020 15:52:18 14.3 C 66 %
1249 19-04-2020 16:02:17 14.3 C 66 %
1250 19-04-2020 16:12:17 14.3 C 66 %
Sensor: Nr:Datum:Temp:Feuchte:
G-T/H 1251 19-04-2020 16:22:17 14.3 C 66 %
1252 19-04-2020 16:32:17 14.3 C 66 %
1253 19-04-2020 16:42:17 14.3 C 66 %
1254 19-04-2020 16:52:17 14.3 C 66 %
1255 19-04-2020 17:02:17 14.4 C 65 %
1256 19-04-2020 17:12:17 14.4 C 65 %
1257 19-04-2020 17:22:17 14.4 C 65 %
1258 19-04-2020 17:32:18 14.4 C 65 %
1259 19-04-2020 17:42:18 14.4 C 65 %
1260 19-04-2020 17:52:17 14.4 C 65 %
1261 19-04-2020 18:02:18 14.4 C 65 %
1262 19-04-2020 18:12:18 14.4 C 65 %
1263 19-04-2020 18:22:17 14.4 C 65 %
1264 19-04-2020 18:32:17 14.4 C 65 %
1265 19-04-2020 18:42:17 14.4 C 65 %
1266 19-04-2020 18:52:17 14.4 C 65 %
1267 19-04-2020 19:02:17 14.4 C 65 %
1268 19-04-2020 19:12:17 14.4 C 65 %
1269 19-04-2020 19:22:17 14.4 C 65 %
1270 19-04-2020 19:32:18 14.4 C 65 %
1271 19-04-2020 19:42:18 14.4 C 65 %
1272 19-04-2020 19:52:17 14.4 C 65 %
1273 19-04-2020 20:02:18 14.4 C 65 %
1274 19-04-2020 20:12:18 14.4 C 65 %
1275 19-04-2020 20:22:17 14.4 C 65 %
Sensor: Nr:Datum:Temp:Feuchte:
G-T/H 1276 19-04-2020 20:32:17 14.4 C 65 %
1277 19-04-2020 20:42:17 14.4 C 65 %
1278 19-04-2020 20:52:17 14.3 C 65 %
1279 19-04-2020 21:02:18 14.4 C 65 %
1280 19-04-2020 21:12:18 14.4 C 65 %
1281 19-04-2020 21:22:17 14.4 C 65 %
1282 19-04-2020 21:32:17 14.4 C 65 %
1283 19-04-2020 21:42:17 14.4 C 65 %
1284 19-04-2020 21:52:17 14.3 C 64 %
1285 19-04-2020 22:02:17 14.3 C 64 %
1286 19-04-2020 22:12:17 14.3 C 63 %
1287 19-04-2020 22:22:17 14.2 C 62 %
1288 19-04-2020 22:32:17 14.2 C 61 %
1289 19-04-2020 22:42:17 14.2 C 60 %
1290 19-04-2020 22:52:17 14.2 C 59 %
1291 19-04-2020 23:02:18 14.2 C 59 %
1292 19-04-2020 23:12:18 14.2 C 58 %
1293 19-04-2020 23:22:18 14.2 C 58 %
1294 19-04-2020 23:32:17 14.2 C 58 %
1295 19-04-2020 23:42:17 14.2 C 58 %
1296 19-04-2020 23:52:17 14.1 C 59 %
1297 20-04-2020 00:02:17 14.1 C 59 %
1298 20-04-2020 00:12:17 14.1 C 59 %
1299 20-04-2020 00:22:17 14.2 C 59 %
1300 20-04-2020 00:32:18 14.1 C 59 %
Sensor: Nr:Datum:Temp:Feuchte:
G-T/H 1301 20-04-2020 00:42:18 14.1 C 59 %
1302 20-04-2020 00:52:18 14.1 C 59 %
1303 20-04-2020 01:02:17 14.1 C 59 %
1304 20-04-2020 01:12:17 14.1 C 59 %
1305 20-04-2020 01:22:17 14.1 C 59 %
1306 20-04-2020 01:32:17 14.1 C 59 %
1307 20-04-2020 01:42:17 14.1 C 59 %
1308 20-04-2020 01:52:17 14 C 59 %
1309 20-04-2020 02:02:18 14 C 59 %
1310 20-04-2020 02:12:18 14 C 59 %
1311 20-04-2020 02:22:17 14 C 59 %
1312 20-04-2020 02:32:18 14 C 59 %
1313 20-04-2020 02:42:18 14 C 58 %
1314 20-04-2020 02:52:17 14 C 58 %
1315 20-04-2020 03:02:17 13.9 C 59 %
1316 20-04-2020 03:12:17 13.9 C 59 %
1317 20-04-2020 03:22:17 13.9 C 59 %
1318 20-04-2020 03:32:17 13.9 C 59 %
1319 20-04-2020 03:42:17 13.9 C 59 %
1320 20-04-2020 03:52:17 13.9 C 59 %
1321 20-04-2020 04:02:17 13.8 C 58 %
1322 20-04-2020 04:12:17 13.8 C 58 %
1323 20-04-2020 04:22:17 13.8 C 58 %
1324 20-04-2020 04:32:18 13.8 C 58 %
1325 20-04-2020 04:42:18 13.8 C 58 %
Sensor: Nr:Datum:Temp:Feuchte:
G-T/H 1326 20-04-2020 04:52:17 13.8 C 58 %
1327 20-04-2020 05:02:18 13.8 C 58 %
1328 20-04-2020 05:12:18 13.7 C 59 %
1329 20-04-2020 05:22:17 13.7 C 59 %
1330 20-04-2020 05:32:17 13.7 C 59 %
1331 20-04-2020 05:42:18 13.7 C 59 %
1332 20-04-2020 05:52:17 13.7 C 59 %
1333 20-04-2020 06:02:18 13.6 C 59 %
1334 20-04-2020 06:12:18 13.6 C 59 %
1335 20-04-2020 06:22:17 13.6 C 59 %
1336 20-04-2020 06:32:17 13.6 C 59 %
1337 20-04-2020 06:42:17 13.5 C 59 %
1338 20-04-2020 06:52:17 13.6 C 59 %
1339 20-04-2020 07:02:17 13.5 C 59 %
1340 20-04-2020 07:12:17 13.5 C 59 %
1341 20-04-2020 07:22:17 13.5 C 59 %
1342 20-04-2020 07:32:17 13.5 C 59 %
1343 20-04-2020 07:42:17 13.4 C 59 %
1344 20-04-2020 07:52:17 13.4 C 59 %
1345 20-04-2020 08:02:18 13.4 C 59 %
1346 20-04-2020 08:12:18 13.4 C 59 %
1347 20-04-2020 08:22:17 13.4 C 59 %
1348 20-04-2020 08:32:17 13.4 C 59 %
1349 20-04-2020 08:42:18 13.3 C 59 %
1350 20-04-2020 08:52:18 13.4 C 59 %
Sensor: Nr:Datum:Temp:Feuchte:
G-T/H 1351 20-04-2020 09:02:17 13.3 C 59 %
1352 20-04-2020 09:12:17 13.3 C 59 %
1353 20-04-2020 09:22:17 13.3 C 59 %
1354 20-04-2020 09:32:17 13.3 C 59 %
1355 20-04-2020 09:42:17 13.3 C 59 %
1356 20-04-2020 09:52:18 13.2 C 59 %
1357 20-04-2020 10:02:18 13.2 C 59 %
1358 20-04-2020 10:12:18 13.2 C 59 %
1359 20-04-2020 10:22:17 13.2 C 59 %
1360 20-04-2020 10:32:17 13.2 C 59 %
1361 20-04-2020 10:42:18 13.2 C 59 %
1362 20-04-2020 10:52:17 13.2 C 59 %
1363 20-04-2020 11:02:18 13.1 C 59 %
1364 20-04-2020 11:12:18 13.1 C 59 %
1365 20-04-2020 11:22:17 13.1 C 59 %
1366 20-04-2020 11:32:17 13.1 C 60 %
1367 20-04-2020 11:42:18 13.1 C 60 %
1368 20-04-2020 11:52:17 13.1 C 60 %
1369 20-04-2020 12:02:17 13.1 C 61 %
1370 20-04-2020 12:12:17 13.1 C 61 %
1371 20-04-2020 12:22:17 13.1 C 61 %
1372 20-04-2020 12:32:17 13.1 C 61 %
1373 20-04-2020 12:42:17 13.1 C 61 %
1374 20-04-2020 12:52:17 13.1 C 61 %
1375 20-04-2020 13:02:17 13.1 C 61 %
Sensor: Nr:Datum:Temp:Feuchte:
G-T/H 1376 20-04-2020 13:12:17 13.1 C 62 %
1377 20-04-2020 13:22:17 13.1 C 62 %
1378 20-04-2020 13:32:17 13.2 C 61 %
1379 20-04-2020 13:42:17 13.2 C 61 %
1380 20-04-2020 13:52:17 13.2 C 61 %
1381 20-04-2020 14:02:17 13.2 C 60 %
1382 20-04-2020 14:12:17 13.2 C 60 %
1383 20-04-2020 14:22:17 13.2 C 60 %
1384 20-04-2020 14:32:18 13.2 C 60 %
1385 20-04-2020 14:42:18 13.2 C 59 %
1386 20-04-2020 14:52:18 13.3 C 59 %
1387 20-04-2020 15:02:17 13.3 C 59 %
1388 20-04-2020 15:12:17 13.3 C 59 %
1389 20-04-2020 15:22:17 13.3 C 59 %
1390 20-04-2020 15:32:17 13.3 C 60 %
1391 20-04-2020 15:42:17 13.3 C 60 %
1392 20-04-2020 15:52:17 13.3 C 60 %
1393 20-04-2020 16:02:17 13.4 C 60 %
1394 20-04-2020 16:12:17 13.3 C 60 %
1395 20-04-2020 16:22:17 13.4 C 60 %
1396 20-04-2020 16:32:17 13.4 C 60 %
1397 20-04-2020 16:42:17 13.4 C 60 %
1398 20-04-2020 16:52:17 13.4 C 60 %
1399 20-04-2020 17:02:17 13.4 C 60 %
1400 20-04-2020 17:12:17 13.4 C 60 %
Sensor: Nr:Datum:Temp:Feuchte:
G-T/H 1401 20-04-2020 17:22:17 13.4 C 60 %
1402 20-04-2020 17:32:17 13.5 C 60 %
1403 20-04-2020 17:42:17 13.5 C 60 %
1404 20-04-2020 17:52:17 13.5 C 61 %
1405 20-04-2020 18:02:18 13.5 C 61 %
1406 20-04-2020 18:12:18 13.5 C 61 %
1407 20-04-2020 18:22:18 13.5 C 61 %
1408 20-04-2020 18:32:17 13.5 C 61 %
1409 20-04-2020 18:42:18 13.6 C 61 %
1410 20-04-2020 18:52:18 13.6 C 61 %
1411 20-04-2020 19:02:17 13.6 C 61 %
1412 20-04-2020 19:12:17 13.6 C 61 %
1413 20-04-2020 19:22:17 13.7 C 61 %
1414 20-04-2020 19:32:17 13.7 C 61 %
1415 20-04-2020 19:42:17 13.7 C 61 %
1416 20-04-2020 19:52:17 13.6 C 61 %
1417 20-04-2020 20:02:17 13.7 C 61 %
1418 20-04-2020 20:12:17 13.7 C 61 %
1419 20-04-2020 20:22:17 13.7 C 60 %
1420 20-04-2020 20:32:17 13.7 C 60 %
1421 20-04-2020 20:42:17 13.6 C 60 %
1422 20-04-2020 20:52:17 13.6 C 60 %
1423 20-04-2020 21:02:17 13.6 C 59 %
1424 20-04-2020 21:12:17 13.6 C 60 %
1425 20-04-2020 21:22:17 13.6 C 60 %
Sensor: Nr:Datum:Temp:Feuchte:
G-T/H 1426 20-04-2020 21:32:17 13.6 C 60 %
1427 20-04-2020 21:42:17 13.6 C 60 %
1428 20-04-2020 21:52:17 13.6 C 60 %
1429 20-04-2020 22:02:17 13.6 C 60 %
1430 20-04-2020 22:12:17 13.6 C 60 %
1431 20-04-2020 22:22:17 13.6 C 60 %
1432 20-04-2020 22:32:17 13.6 C 60 %
1433 20-04-2020 22:42:17 13.6 C 60 %
1434 20-04-2020 22:52:18 13.6 C 60 %
1435 20-04-2020 23:02:17 13.6 C 60 %
1436 20-04-2020 23:12:17 13.6 C 60 %
1437 20-04-2020 23:22:17 13.6 C 60 %
1438 20-04-2020 23:32:18 13.6 C 60 %
1439 20-04-2020 23:42:18 13.6 C 59 %
1440 20-04-2020 23:52:17 13.6 C 59 %
1441 21-04-2020 00:02:17 13.5 C 59 %
1442 21-04-2020 00:12:17 13.6 C 59 %
1443 21-04-2020 00:22:17 13.5 C 59 %
1444 21-04-2020 00:32:17 13.5 C 59 %
1445 21-04-2020 00:42:17 13.5 C 59 %
1446 21-04-2020 00:52:17 13.6 C 58 %
1447 21-04-2020 01:02:18 13.5 C 58 %
1448 21-04-2020 01:12:18 13.5 C 58 %
1449 21-04-2020 01:22:18 13.6 C 58 %
1450 21-04-2020 01:32:18 13.5 C 58 %
Sensor: Nr:Datum:Temp:Feuchte:
G-T/H 1451 21-04-2020 01:42:18 13.5 C 58 %
1452 21-04-2020 01:52:17 13.5 C 58 %
1453 21-04-2020 02:02:17 13.5 C 58 %
1454 21-04-2020 02:12:18 13.5 C 58 %
1455 21-04-2020 02:22:17 13.5 C 58 %
1456 21-04-2020 02:32:18 13.5 C 58 %
1457 21-04-2020 02:42:18 13.5 C 58 %
1458 21-04-2020 02:52:17 13.4 C 58 %
1459 21-04-2020 03:02:17 13.4 C 58 %
1460 21-04-2020 03:12:17 13.4 C 58 %
1461 21-04-2020 03:22:18 13.4 C 58 %
1462 21-04-2020 03:32:17 13.4 C 58 %
1463 21-04-2020 03:42:17 13.4 C 58 %
1464 21-04-2020 03:52:18 13.4 C 58 %
1465 21-04-2020 04:02:18 13.4 C 58 %
1466 21-04-2020 04:12:18 13.4 C 58 %
1467 21-04-2020 04:22:17 13.4 C 58 %
1468 21-04-2020 04:32:17 13.4 C 58 %
1469 21-04-2020 04:42:17 13.3 C 58 %
1470 21-04-2020 04:52:17 13.3 C 58 %
1471 21-04-2020 05:02:17 13.3 C 58 %
1472 21-04-2020 05:12:17 13.3 C 58 %
1473 21-04-2020 05:22:17 13.3 C 58 %
1474 21-04-2020 05:32:18 13.3 C 58 %
1475 21-04-2020 05:42:18 13.2 C 58 %
Sensor: Nr:Datum:Temp:Feuchte:
G-T/H 1476 21-04-2020 05:52:17 13.2 C 58 %
1477 21-04-2020 06:02:17 13.2 C 58 %
1478 21-04-2020 06:12:17 13.2 C 58 %
1479 21-04-2020 06:22:18 13.2 C 58 %
1480 21-04-2020 06:32:18 13.2 C 58 %
1481 21-04-2020 06:42:18 13.2 C 58 %
1482 21-04-2020 06:52:17 13.2 C 58 %
1483 21-04-2020 07:02:18 13.1 C 58 %
1484 21-04-2020 07:12:18 13.1 C 58 %
1485 21-04-2020 07:22:17 13.1 C 58 %
1486 21-04-2020 07:32:17 13.1 C 58 %
1487 21-04-2020 07:42:17 13.1 C 58 %
1488 21-04-2020 07:52:17 13.1 C 58 %
1489 21-04-2020 08:02:17 13.1 C 58 %
1490 21-04-2020 08:12:17 13.1 C 58 %
1491 21-04-2020 08:22:17 13 C 58 %
1492 21-04-2020 08:32:17 13 C 58 %
1493 21-04-2020 08:42:18 13 C 58 %
1494 21-04-2020 08:52:17 13 C 58 %
1495 21-04-2020 09:02:17 13 C 58 %
1496 21-04-2020 09:12:17 13 C 58 %
1497 21-04-2020 09:22:17 13 C 58 %
1498 21-04-2020 09:32:17 12.9 C 59 %
1499 21-04-2020 09:42:17 12.9 C 59 %
1500 21-04-2020 09:52:17 12.9 C 59 %
Sensor: Nr:Datum:Temp:Feuchte:
G-T/H 1501 21-04-2020 10:02:17 12.9 C 59 %
1502 21-04-2020 10:12:17 12.9 C 59 %
1503 21-04-2020 10:22:17 12.9 C 59 %
1504 21-04-2020 10:32:17 12.9 C 59 %
1505 21-04-2020 10:42:17 12.8 C 59 %
1506 21-04-2020 10:52:17 12.8 C 59 %
1507 21-04-2020 11:02:17 12.8 C 59 %
1508 21-04-2020 11:12:17 12.8 C 59 %
1509 21-04-2020 11:22:17 12.8 C 59 %
1510 21-04-2020 11:32:18 12.8 C 59 %
1511 21-04-2020 11:42:18 12.8 C 59 %
1512 21-04-2020 11:52:18 12.8 C 59 %
1513 21-04-2020 12:02:17 12.8 C 59 %
1514 21-04-2020 12:12:18 12.8 C 60 %
1515 21-04-2020 12:22:17 12.9 C 60 %
1516 21-04-2020 12:32:17 12.9 C 60 %
1517 21-04-2020 12:42:17 12.9 C 60 %
1518 21-04-2020 12:52:17 12.9 C 60 %
1519 21-04-2020 13:02:17 12.9 C 61 %
1520 21-04-2020 13:12:17 12.9 C 61 %
1521 21-04-2020 13:22:17 12.9 C 61 %
1522 21-04-2020 13:32:17 12.9 C 61 %
1523 21-04-2020 13:42:17 13 C 60 %
1524 21-04-2020 13:52:17 13 C 60 %
1525 21-04-2020 14:02:17 13 C 60 %
Sensor: Nr:Datum:Temp:Feuchte:
G-T/H 1526 21-04-2020 14:12:17 13 C 59 %
1527 21-04-2020 14:22:17 13 C 59 %
1528 21-04-2020 14:32:17 13.1 C 59 %
1529 21-04-2020 14:42:17 13.1 C 59 %
1530 21-04-2020 14:52:17 13.1 C 59 %
1531 21-04-2020 15:02:17 13.1 C 59 %
1532 21-04-2020 15:12:17 13.1 C 59 %
1533 21-04-2020 15:22:17 13.1 C 59 %
1534 21-04-2020 15:32:18 13.2 C 59 %
1535 21-04-2020 15:42:18 13.2 C 59 %
1536 21-04-2020 15:52:17 13.2 C 59 %
1537 21-04-2020 16:02:18 13.2 C 59 %
1538 21-04-2020 16:12:18 13.2 C 59 %
1539 21-04-2020 16:22:17 13.3 C 59 %
1540 21-04-2020 16:32:17 13.3 C 59 %
1541 21-04-2020 16:42:17 13.3 C 59 %
1542 21-04-2020 16:52:17 13.3 C 59 %
1543 21-04-2020 17:02:17 13.4 C 59 %
1544 21-04-2020 17:12:17 13.6 C 55 %
1545 21-04-2020 17:22:18 13.5 C 55 %
1546 21-04-2020 17:32:17 13.5 C 56 %
1547 21-04-2020 17:42:17 13.5 C 57 %
1548 21-04-2020 17:52:17 13.5 C 57 %
1549 21-04-2020 18:02:18 13.5 C 58 %
1550 21-04-2020 18:12:18 13.5 C 58 %
Sensor: Nr:Datum:Temp:Feuchte:
G-T/H 1551 21-04-2020 18:22:17 13.5 C 58 %
1552 21-04-2020 18:32:17 13.5 C 58 %
1553 21-04-2020 18:42:17 13.6 C 59 %
1554 21-04-2020 18:52:18 13.6 C 59 %
1555 21-04-2020 19:02:17 13.6 C 59 %
1556 21-04-2020 19:12:17 13.6 C 59 %
1557 21-04-2020 19:22:17 13.6 C 59 %
1558 21-04-2020 19:32:18 13.6 C 59 %
1559 21-04-2020 19:42:18 13.6 C 60 %
1560 21-04-2020 19:52:17 13.6 C 60 %
1561 21-04-2020 20:02:17 13.6 C 60 %
1562 21-04-2020 20:12:17 13.7 C 60 %
1563 21-04-2020 20:22:17 13.6 C 60 %
1564 21-04-2020 20:32:17 13.6 C 60 %
1565 21-04-2020 20:42:17 13.7 C 60 %
1566 21-04-2020 20:52:17 13.6 C 60 %
1567 21-04-2020 21:02:18 13.6 C 60 %
1568 21-04-2020 21:12:18 13.6 C 60 %
1569 21-04-2020 21:22:17 13.6 C 60 %
1570 21-04-2020 21:32:17 13.6 C 60 %
1571 21-04-2020 21:42:17 13.6 C 60 %
1572 21-04-2020 21:52:18 13.6 C 60 %
1573 21-04-2020 22:02:17 13.6 C 60 %
1574 21-04-2020 22:12:17 13.7 C 60 %
1575 21-04-2020 22:22:17 13.6 C 60 %
Sensor: Nr:Datum:Temp:Feuchte:
G-T/H 1576 21-04-2020 22:32:17 13.7 C 60 %
1577 21-04-2020 22:42:17 13.6 C 60 %
1578 21-04-2020 22:52:18 13.6 C 60 %
1579 21-04-2020 23:02:18 13.6 C 60 %
1580 21-04-2020 23:12:18 13.6 C 60 %
1581 21-04-2020 23:22:17 13.7 C 60 %
1582 21-04-2020 23:32:18 13.6 C 60 %
1583 21-04-2020 23:42:18 13.7 C 60 %
1584 21-04-2020 23:52:18 13.6 C 60 %
1585 22-04-2020 00:02:18 13.6 C 60 %
1586 22-04-2020 00:12:18 13.6 C 60 %
1587 22-04-2020 00:22:17 13.7 C 60 %
1588 22-04-2020 00:32:18 13.6 C 60 %
1589 22-04-2020 00:42:18 13.6 C 60 %
1590 22-04-2020 00:52:17 13.6 C 60 %
1591 22-04-2020 01:02:17 13.6 C 60 %
1592 22-04-2020 01:12:17 13.6 C 60 %
1593 22-04-2020 01:22:17 13.6 C 60 %
1594 22-04-2020 01:32:18 13.6 C 60 %
1595 22-04-2020 01:42:18 13.6 C 59 %
1596 22-04-2020 01:52:17 13.6 C 59 %
1597 22-04-2020 02:02:17 13.6 C 59 %
1598 22-04-2020 02:12:17 13.6 C 59 %
1599 22-04-2020 02:22:17 13.6 C 59 %
1600 22-04-2020 02:32:17 13.5 C 59 %
Sensor: Nr:Datum:Temp:Feuchte:
G-T/H 1601 22-04-2020 02:42:17 13.5 C 59 %
1602 22-04-2020 02:52:17 13.5 C 59 %
1603 22-04-2020 03:02:17 13.6 C 59 %
1604 22-04-2020 03:12:17 13.5 C 59 %
1605 22-04-2020 03:22:18 13.5 C 59 %
1606 22-04-2020 03:32:18 13.5 C 59 %
1607 22-04-2020 03:42:18 13.5 C 58 %
1608 22-04-2020 03:52:17 13.5 C 58 %
1609 22-04-2020 04:02:18 13.5 C 58 %
1610 22-04-2020 04:12:18 13.5 C 58 %
1611 22-04-2020 04:22:17 13.5 C 58 %
1612 22-04-2020 04:32:18 13.4 C 58 %
1613 22-04-2020 04:42:18 13.4 C 58 %
1614 22-04-2020 04:52:17 13.5 C 58 %
1615 22-04-2020 05:02:18 13.4 C 58 %
1616 22-04-2020 05:12:18 13.4 C 58 %
1617 22-04-2020 05:22:17 13.4 C 58 %
1618 22-04-2020 05:32:17 13.4 C 58 %
1619 22-04-2020 05:42:18 13.4 C 58 %
1620 22-04-2020 05:52:17 13.4 C 58 %
1621 22-04-2020 06:02:18 13.3 C 58 %
1622 22-04-2020 06:12:18 13.3 C 58 %
1623 22-04-2020 06:22:17 13.3 C 58 %
1624 22-04-2020 06:32:17 13.3 C 58 %
1625 22-04-2020 06:42:17 13.3 C 58 %
Sensor: Nr:Datum:Temp:Feuchte:
G-T/H 1626 22-04-2020 06:52:17 13.3 C 58 %
1627 22-04-2020 07:02:17 13.3 C 58 %
1628 22-04-2020 07:12:17 13.2 C 58 %
1629 22-04-2020 07:22:18 13.2 C 58 %
1630 22-04-2020 07:32:17 13.2 C 58 %
1631 22-04-2020 07:42:17 13.2 C 58 %
1632 22-04-2020 07:52:17 13.2 C 58 %
1633 22-04-2020 08:02:17 13.2 C 58 %
1634 22-04-2020 08:12:17 13.2 C 58 %
1635 22-04-2020 08:22:17 13.2 C 58 %
1636 22-04-2020 08:32:17 13.1 C 58 %
1637 22-04-2020 08:42:17 13.1 C 58 %
1638 22-04-2020 08:52:18 13.1 C 58 %
1639 22-04-2020 09:02:18 13.1 C 58 %
1640 22-04-2020 09:12:18 13.1 C 58 %
1641 22-04-2020 09:22:17 13.1 C 58 %
1642 22-04-2020 09:32:17 13.1 C 58 %
1643 22-04-2020 09:42:17 13.1 C 58 %
1644 22-04-2020 09:52:17 13.1 C 58 %
1645 22-04-2020 10:02:17 13.1 C 58 %
1646 22-04-2020 10:12:17 13 C 58 %
1647 22-04-2020 10:22:17 13 C 58 %
1648 22-04-2020 10:32:17 13 C 58 %
1649 22-04-2020 10:42:17 13 C 59 %
1650 22-04-2020 10:52:17 13 C 59 %
Sensor: Nr:Datum:Temp:Feuchte:
G-T/H 1651 22-04-2020 11:02:17 13 C 59 %
1652 22-04-2020 11:12:17 13 C 59 %
1653 22-04-2020 11:22:17 13 C 59 %
1654 22-04-2020 11:32:17 13 C 59 %
1655 22-04-2020 11:42:17 13 C 60 %
1656 22-04-2020 11:52:18 13 C 60 %
1657 22-04-2020 12:02:18 13 C 60 %
1658 22-04-2020 12:12:18 13 C 60 %
1659 22-04-2020 12:22:17 13 C 60 %
1660 22-04-2020 12:32:17 13 C 60 %
1661 22-04-2020 12:42:17 13.1 C 60 %
1662 22-04-2020 12:52:18 13.1 C 60 %
1663 22-04-2020 13:02:17 13.1 C 60 %
1664 22-04-2020 13:12:17 13.1 C 60 %
1665 22-04-2020 13:22:17 13.1 C 60 %
1666 22-04-2020 13:32:17 13.1 C 60 %
1667 22-04-2020 13:42:17 13.1 C 60 %
1668 22-04-2020 13:52:17 13.1 C 60 %
1669 22-04-2020 14:02:17 13.2 C 60 %
1670 22-04-2020 14:12:17 13.2 C 60 %
1671 22-04-2020 14:22:17 13.2 C 60 %
1672 22-04-2020 14:32:17 13.2 C 60 %
1673 22-04-2020 14:42:17 13.2 C 60 %
1674 22-04-2020 14:52:17 13.3 C 60 %
1675 22-04-2020 15:02:17 13.3 C 60 %
Sensor: Nr:Datum:Temp:Feuchte:
G-T/H 1676 22-04-2020 15:12:18 13.3 C 60 %
1677 22-04-2020 15:22:17 13.3 C 60 %
1678 22-04-2020 15:32:17 13.3 C 60 %
1679 22-04-2020 15:42:17 13.3 C 60 %
1680 22-04-2020 15:52:17 13.4 C 61 %
1681 22-04-2020 16:02:17 13.4 C 61 %
1682 22-04-2020 16:12:17 13.4 C 61 %
1683 22-04-2020 16:22:17 13.4 C 61 %
1684 22-04-2020 16:32:18 13.5 C 61 %
1685 22-04-2020 16:42:18 13.5 C 61 %
1686 22-04-2020 16:52:17 13.5 C 61 %
1687 22-04-2020 17:02:17 13.5 C 61 %
1688 22-04-2020 17:12:17 13.6 C 61 %
1689 22-04-2020 17:22:17 13.6 C 61 %
1690 22-04-2020 17:32:17 13.6 C 61 %
1691 22-04-2020 17:42:17 13.6 C 61 %
1692 22-04-2020 17:52:17 13.7 C 61 %
1693 22-04-2020 18:02:17 13.7 C 60 %
1694 22-04-2020 18:12:17 13.7 C 60 %
1695 22-04-2020 18:22:17 13.7 C 59 %
1696 22-04-2020 18:32:17 13.8 C 59 %
1697 22-04-2020 18:42:17 13.8 C 59 %
1698 22-04-2020 18:52:17 13.8 C 60 %
1699 22-04-2020 19:02:17 13.8 C 60 %
1700 22-04-2020 19:12:17 13.8 C 60 %
Sensor: Nr:Datum:Temp:Feuchte:
G-T/H 1701 22-04-2020 19:22:17 13.8 C 60 %
1702 22-04-2020 19:32:18 13.8 C 60 %
1703 22-04-2020 19:42:18 13.8 C 61 %
1704 22-04-2020 19:52:17 13.8 C 61 %
1705 22-04-2020 20:02:18 13.8 C 61 %
1706 22-04-2020 20:12:18 13.9 C 61 %
1707 22-04-2020 20:22:17 13.8 C 61 %
1708 22-04-2020 20:32:17 13.9 C 61 %
1709 22-04-2020 20:42:17 13.9 C 61 %
1710 22-04-2020 20:52:17 13.9 C 61 %
1711 22-04-2020 21:02:17 13.8 C 60 %
1712 22-04-2020 21:12:17 13.8 C 60 %
1713 22-04-2020 21:22:17 13.9 C 60 %
1714 22-04-2020 21:32:17 13.9 C 60 %
1715 22-04-2020 21:42:17 13.8 C 60 %
1716 22-04-2020 21:52:17 13.8 C 60 %
1717 22-04-2020 22:02:17 13.8 C 60 %
1718 22-04-2020 22:12:17 13.8 C 60 %
1719 22-04-2020 22:22:17 13.8 C 60 %
1720 22-04-2020 22:32:17 13.8 C 60 %
1721 22-04-2020 22:42:17 13.9 C 60 %
1722 22-04-2020 22:52:18 13.9 C 60 %
1723 22-04-2020 23:02:17 13.8 C 60 %
1724 22-04-2020 23:12:17 13.8 C 60 %
1725 22-04-2020 23:22:17 13.8 C 60 %
Sensor: Nr:Datum:Temp:Feuchte:
G-T/H 1726 22-04-2020 23:32:17 13.8 C 60 %
1727 22-04-2020 23:42:17 13.8 C 60 %
1728 22-04-2020 23:52:18 13.9 C 60 %
1729 23-04-2020 00:02:17 13.8 C 60 %
1730 23-04-2020 00:12:17 13.9 C 60 %
1731 23-04-2020 00:22:17 13.8 C 60 %
1732 23-04-2020 00:32:17 13.9 C 60 %
1733 23-04-2020 00:42:17 13.9 C 60 %
1734 23-04-2020 00:52:17 13.8 C 60 %
1735 23-04-2020 01:02:17 13.9 C 60 %
1736 23-04-2020 01:12:17 13.8 C 60 %
1737 23-04-2020 01:22:18 13.8 C 60 %
1738 23-04-2020 01:32:17 13.8 C 60 %
1739 23-04-2020 01:42:17 13.8 C 60 %
1740 23-04-2020 01:52:17 13.8 C 60 %
1741 23-04-2020 02:02:17 13.8 C 60 %
1742 23-04-2020 02:12:17 13.8 C 60 %
1743 23-04-2020 02:22:18 13.8 C 60 %
1744 23-04-2020 02:32:17 13.8 C 60 %
1745 23-04-2020 02:42:17 13.8 C 60 %
1746 23-04-2020 02:52:17 13.8 C 60 %
1747 23-04-2020 03:02:18 13.8 C 60 %
1748 23-04-2020 03:12:18 13.8 C 59 %
1749 23-04-2020 03:22:17 13.8 C 59 %
1750 23-04-2020 03:32:17 13.8 C 59 %
Sensor: Nr:Datum:Temp:Feuchte:
G-T/H 1751 23-04-2020 03:42:17 13.8 C 59 %
1752 23-04-2020 03:52:17 13.8 C 59 %
1753 23-04-2020 04:02:17 13.8 C 59 %
1754 23-04-2020 04:12:17 13.7 C 59 %
1755 23-04-2020 04:22:17 13.7 C 59 %
1756 23-04-2020 04:32:17 13.7 C 59 %
1757 23-04-2020 04:42:17 13.7 C 58 %
1758 23-04-2020 04:52:17 13.7 C 58 %
1759 23-04-2020 05:02:17 13.7 C 58 %
1760 23-04-2020 05:12:17 13.7 C 58 %
1761 23-04-2020 05:22:17 13.7 C 58 %
1762 23-04-2020 05:32:17 13.7 C 58 %
1763 23-04-2020 05:42:17 13.6 C 58 %
1764 23-04-2020 05:52:17 13.6 C 58 %
1765 23-04-2020 06:02:17 13.6 C 58 %
1766 23-04-2020 06:12:18 13.6 C 58 %
1767 23-04-2020 06:22:17 13.6 C 58 %
1768 23-04-2020 06:32:18 13.6 C 58 %
1769 23-04-2020 06:42:18 13.5 C 58 %
1770 23-04-2020 06:52:17 13.5 C 58 %
1771 23-04-2020 07:02:17 13.5 C 58 %
1772 23-04-2020 07:12:17 13.5 C 58 %
1773 23-04-2020 07:22:17 13.5 C 58 %
1774 23-04-2020 07:32:17 13.5 C 58 %
1775 23-04-2020 07:42:17 13.5 C 58 %
Sensor: Nr:Datum:Temp:Feuchte:
G-T/H 1776 23-04-2020 07:52:17 13.5 C 58 %
1777 23-04-2020 08:02:17 13.4 C 58 %
1778 23-04-2020 08:12:18 13.4 C 58 %
1779 23-04-2020 08:22:18 13.4 C 58 %
1780 23-04-2020 08:32:18 13.4 C 58 %
1781 23-04-2020 08:42:18 13.4 C 58 %
1782 23-04-2020 08:52:17 13.3 C 58 %
1783 23-04-2020 09:02:17 13.3 C 58 %
1784 23-04-2020 09:12:17 13.4 C 58 %
1785 23-04-2020 09:22:17 13.3 C 58 %
1786 23-04-2020 09:32:17 13.3 C 58 %
1787 23-04-2020 09:42:17 13.3 C 58 %
1788 23-04-2020 09:52:17 13.3 C 59 %
1789 23-04-2020 10:02:18 13.3 C 59 %
1790 23-04-2020 10:12:18 13.3 C 59 %
1791 23-04-2020 10:22:17 13.3 C 59 %
1792 23-04-2020 10:32:17 13.3 C 59 %
1793 23-04-2020 10:42:17 13.2 C 59 %
1794 23-04-2020 10:52:17 13.2 C 59 %
1795 23-04-2020 11:02:18 13.2 C 59 %
1796 23-04-2020 11:12:18 13.2 C 59 %
1797 23-04-2020 11:22:17 13.2 C 60 %
1798 23-04-2020 11:32:17 13.2 C 60 %
1799 23-04-2020 11:42:17 13.2 C 60 %
1800 23-04-2020 11:52:18 13.3 C 60 %
Sensor: Nr:Datum:Temp:Feuchte:
G-T/H 1801 23-04-2020 12:02:17 13.3 C 61 %
1802 23-04-2020 12:12:17 13.3 C 61 %
1803 23-04-2020 12:22:17 13.3 C 61 %
1804 23-04-2020 12:32:18 13.3 C 61 %
1805 23-04-2020 12:42:18 13.3 C 61 %
1806 23-04-2020 12:52:17 13.3 C 61 %
1807 23-04-2020 13:02:17 13.3 C 61 %
1808 23-04-2020 13:12:17 13.4 C 61 %
1809 23-04-2020 13:22:17 13.3 C 61 %
1810 23-04-2020 13:32:17 13.4 C 61 %
1811 23-04-2020 13:42:17 13.4 C 61 %
1812 23-04-2020 13:52:17 13.4 C 61 %
1813 23-04-2020 14:02:17 13.4 C 61 %
1814 23-04-2020 14:12:17 13.5 C 61 %
1815 23-04-2020 14:22:17 13.4 C 61 %
1816 23-04-2020 14:32:17 13.4 C 61 %
1817 23-04-2020 14:42:17 13.5 C 61 %
1818 23-04-2020 14:52:17 13.5 C 60 %
1819 23-04-2020 15:02:17 13.5 C 60 %
1820 23-04-2020 15:12:17 13.5 C 60 %
1821 23-04-2020 15:22:18 13.5 C 60 %
1822 23-04-2020 15:32:17 13.5 C 60 %
1823 23-04-2020 15:42:17 13.6 C 61 %
1824 23-04-2020 15:52:17 13.6 C 61 %
1825 23-04-2020 16:02:18 13.6 C 61 %
Sensor: Nr:Datum:Temp:Feuchte:
G-T/H 1826 23-04-2020 16:12:18 13.7 C 61 %
1827 23-04-2020 16:22:17 13.7 C 61 %
1828 23-04-2020 16:32:18 13.7 C 61 %
1829 23-04-2020 16:42:18 13.7 C 61 %
1830 23-04-2020 16:52:17 13.7 C 61 %
1831 23-04-2020 17:02:17 13.8 C 61 %
1832 23-04-2020 17:12:18 13.7 C 61 %
1833 23-04-2020 17:22:17 13.8 C 61 %
1834 23-04-2020 17:32:18 13.8 C 61 %
1835 23-04-2020 17:42:18 13.8 C 61 %
1836 23-04-2020 17:52:18 13.9 C 61 %
1837 23-04-2020 18:02:17 13.9 C 61 %
1838 23-04-2020 18:12:17 13.9 C 61 %
1839 23-04-2020 18:22:17 14 C 60 %
1840 23-04-2020 18:32:17 14 C 60 %
1841 23-04-2020 18:42:17 14 C 60 %
1842 23-04-2020 18:52:17 14 C 60 %
1843 23-04-2020 19:02:17 14 C 60 %
1844 23-04-2020 19:12:17 14.1 C 60 %
1845 23-04-2020 19:22:17 14.1 C 60 %
1846 23-04-2020 19:32:18 14 C 60 %
1847 23-04-2020 19:42:18 14.1 C 60 %
1848 23-04-2020 19:52:17 14.1 C 60 %
1849 23-04-2020 20:02:18 14.1 C 60 %
1850 23-04-2020 20:12:18 14.1 C 60 %
Sensor: Nr:Datum:Temp:Feuchte:
G-T/H 1851 23-04-2020 20:22:17 14.1 C 60 %
1852 23-04-2020 20:32:18 14.1 C 60 %
1853 23-04-2020 20:42:18 14 C 60 %
1854 23-04-2020 20:52:18 14.1 C 60 %
1855 23-04-2020 21:02:18 14.1 C 60 %
1856 23-04-2020 21:12:18 14.1 C 60 %
1857 23-04-2020 21:22:17 14.1 C 60 %
1858 23-04-2020 21:32:17 14.1 C 60 %
1859 23-04-2020 21:42:17 14.1 C 60 %
1860 23-04-2020 21:52:17 14.1 C 61 %
1861 23-04-2020 22:02:17 14 C 61 %
1862 23-04-2020 22:12:17 14.1 C 60 %
1863 23-04-2020 22:22:17 14 C 59 %
1864 23-04-2020 22:32:18 14 C 59 %
1865 23-04-2020 22:42:18 14 C 59 %
1866 23-04-2020 22:52:18 14.1 C 59 %
1867 23-04-2020 23:02:18 14.1 C 59 %
1868 23-04-2020 23:12:18 14.1 C 59 %
1869 23-04-2020 23:22:18 14 C 59 %
1870 23-04-2020 23:32:17 14.1 C 59 %
1871 23-04-2020 23:42:17 14.1 C 59 %
1872 23-04-2020 23:52:17 14 C 59 %
1873 24-04-2020 00:02:18 14.1 C 59 %
1874 24-04-2020 00:12:18 14 C 59 %
1875 24-04-2020 00:22:17 14 C 59 %
Sensor: Nr:Datum:Temp:Feuchte:
G-T/H 1876 24-04-2020 00:32:18 14 C 59 %
1877 24-04-2020 00:42:18 14 C 59 %
1878 24-04-2020 00:52:17 14 C 59 %
1879 24-04-2020 01:02:18 14 C 59 %
1880 24-04-2020 01:12:18 14 C 59 %
1881 24-04-2020 01:22:17 14 C 59 %
1882 24-04-2020 01:32:18 14 C 59 %
1883 24-04-2020 01:42:18 14 C 59 %
1884 24-04-2020 01:52:17 14 C 58 %
1885 24-04-2020 02:02:17 14 C 58 %
1886 24-04-2020 02:12:17 14 C 58 %
1887 24-04-2020 02:22:17 13.9 C 59 %
1888 24-04-2020 02:32:18 13.9 C 59 %
1889 24-04-2020 02:42:18 13.9 C 59 %
1890 24-04-2020 02:52:18 13.9 C 59 %
1891 24-04-2020 03:02:17 13.9 C 59 %
1892 24-04-2020 03:12:18 13.9 C 59 %
1893 24-04-2020 03:22:17 13.9 C 59 %
1894 24-04-2020 03:32:17 13.9 C 59 %
1895 24-04-2020 03:42:17 13.9 C 59 %
1896 24-04-2020 03:52:17 13.8 C 59 %
1897 24-04-2020 04:02:17 13.8 C 59 %
1898 24-04-2020 04:12:17 13.8 C 59 %
1899 24-04-2020 04:22:17 13.8 C 59 %
1900 24-04-2020 04:32:17 13.8 C 59 %
Sensor: Nr:Datum:Temp:Feuchte:
G-T/H 1901 24-04-2020 04:42:17 13.8 C 59 %
1902 24-04-2020 04:52:17 13.8 C 58 %
1903 24-04-2020 05:02:17 13.8 C 58 %
1904 24-04-2020 05:12:17 13.8 C 58 %
1905 24-04-2020 05:22:17 13.7 C 58 %
1906 24-04-2020 05:32:18 13.7 C 58 %
1907 24-04-2020 05:42:18 13.7 C 58 %
1908 24-04-2020 05:52:17 13.7 C 58 %
1909 24-04-2020 06:02:17 13.7 C 58 %
1910 24-04-2020 06:12:17 13.7 C 58 %
1911 24-04-2020 06:22:18 13.7 C 58 %
1912 24-04-2020 06:32:17 13.6 C 58 %
1913 24-04-2020 06:42:17 13.6 C 58 %
1914 24-04-2020 06:52:17 13.6 C 58 %
1915 24-04-2020 07:02:17 13.6 C 58 %
1916 24-04-2020 07:12:17 13.5 C 59 %
1917 24-04-2020 07:22:17 13.6 C 59 %
1918 24-04-2020 07:32:18 13.6 C 59 %
1919 24-04-2020 07:42:18 13.5 C 59 %
1920 24-04-2020 07:52:17 13.5 C 59 %
1921 24-04-2020 08:02:18 13.5 C 59 %
1922 24-04-2020 08:12:18 13.5 C 59 %
1923 24-04-2020 08:22:17 13.5 C 59 %
1924 24-04-2020 08:32:17 13.5 C 59 %
1925 24-04-2020 08:42:17 13.5 C 59 %
Sensor: Nr:Datum:Temp:Feuchte:
G-T/H 1926 24-04-2020 08:52:17 13.5 C 59 %
1927 24-04-2020 09:02:17 13.5 C 59 %
1928 24-04-2020 09:12:18 13.4 C 59 %
1929 24-04-2020 09:22:17 13.4 C 59 %
1930 24-04-2020 09:32:18 13.4 C 59 %
1931 24-04-2020 09:42:18 13.4 C 59 %
1932 24-04-2020 09:52:17 13.4 C 59 %
1933 24-04-2020 10:02:17 13.4 C 60 %
1934 24-04-2020 10:12:17 13.4 C 60 %
1935 24-04-2020 10:22:17 13.4 C 60 %
1936 24-04-2020 10:32:17 13.4 C 60 %
1937 24-04-2020 10:42:17 13.4 C 61 %
1938 24-04-2020 10:52:17 13.4 C 61 %
1939 24-04-2020 11:02:17 13.4 C 61 %
1940 24-04-2020 11:12:18 13.4 C 61 %
1941 24-04-2020 11:22:17 13.4 C 62 %
1942 24-04-2020 11:32:18 13.4 C 62 %
1943 24-04-2020 11:42:18 13.5 C 62 %
1944 24-04-2020 11:52:17 13.7 C 60 %
1945 24-04-2020 12:02:17 14 C 59 %
1946 24-04-2020 12:12:17 14.1 C 58 %
1947 24-04-2020 12:22:17 14.4 C 57 %
1948 24-04-2020 12:32:18 14.5 C 57 %
1949 24-04-2020 12:42:18 14.6 C 56 %
1950 24-04-2020 12:52:18 14.8 C 55 %
Sensor: Nr:Datum:Temp:Feuchte:
G-T/H 1951 24-04-2020 13:02:17 14.9 C 53 %
1952 24-04-2020 13:12:17 15.1 C 51 %
1953 24-04-2020 13:22:17 15.2 C 50 %
1954 24-04-2020 13:32:18 15.4 C 48 %
1955 24-04-2020 13:42:18 15.5 C 46 %
1956 24-04-2020 13:52:17 15.5 C 46 %
1957 24-04-2020 14:02:17 15.6 C 46 %
1958 24-04-2020 14:12:17 15.9 C 45 %
1959 24-04-2020 14:22:17 16 C 45 %
1960 24-04-2020 14:32:17 16.1 C 45 %
1961 24-04-2020 14:42:17 16.2 C 46 %
1962 24-04-2020 14:52:17 16.2 C 46 %
1963 24-04-2020 15:02:18 16.3 C 46 %
1964 24-04-2020 15:12:18 16.4 C 46 %
1965 24-04-2020 15:22:17 16.6 C 45 %
1966 24-04-2020 15:32:17 16.6 C 44 %
1967 24-04-2020 15:42:18 16.6 C 43 %
1968 24-04-2020 15:52:17 16.6 C 43 %
1969 24-04-2020 16:02:18 16.7 C 42 %
1970 24-04-2020 16:12:18 16.8 C 41 %
1971 24-04-2020 16:22:18 16.8 C 40 %
1972 24-04-2020 16:32:18 16.9 C 40 %
1973 24-04-2020 16:42:18 16.9 C 39 %
1974 24-04-2020 16:52:17 16.9 C 38 %
1975 24-04-2020 17:02:17 17 C 37 %
Sensor: Nr:Datum:Temp:Feuchte:
G-T/H 1976 24-04-2020 17:12:17 17.1 C 37 %
1977 24-04-2020 17:22:18 17.1 C 36 %
1978 24-04-2020 17:32:18 17.2 C 36 %
1979 24-04-2020 17:42:18 17.1 C 35 %
1980 24-04-2020 17:52:17 17.2 C 35 %
1981 24-04-2020 18:02:18 17.2 C 35 %
1982 24-04-2020 18:12:18 17.2 C 36 %
1983 24-04-2020 18:22:17 17.2 C 36 %
1984 24-04-2020 18:32:17 17.2 C 37 %
1985 24-04-2020 18:42:17 17.2 C 38 %
1986 24-04-2020 18:52:18 17.2 C 39 %
1987 24-04-2020 19:02:17 17.2 C 39 %
1988 24-04-2020 19:12:17 17.2 C 40 %
1989 24-04-2020 19:23:17 17 C 40 %
1990 24-04-2020 19:32:17 16.8 C 41 %
1991 24-04-2020 19:42:18 16.7 C 42 %
1992 24-04-2020 19:53:17 16.6 C 42 %
1993 24-04-2020 20:02:18 16.6 C 43 %
1994 24-04-2020 20:12:18 16.4 C 44 %
1995 24-04-2020 20:22:17 16.5 C 44 %
1996 24-04-2020 20:32:18 16.4 C 45 %
1997 24-04-2020 20:42:18 16.3 C 45 %
1998 24-04-2020 20:52:18 16.3 C 46 %
1999 24-04-2020 21:02:18 16.3 C 46 %
2000 24-04-2020 21:12:18 16.2 C 47 %
Sensor: Nr:Datum:Temp:Feuchte:
G-T/H 2001 24-04-2020 21:23:17 16.2 C 47 %
2002 24-04-2020 21:33:17 16.1 C 47 %
2003 24-04-2020 21:42:17 16.1 C 48 %
2004 24-04-2020 21:52:17 16 C 48 %
2005 24-04-2020 22:03:17 16 C 49 %
2006 24-04-2020 22:13:17 16 C 49 %
2007 24-04-2020 22:22:18 15.9 C 50 %
2008 24-04-2020 22:32:18 15.9 C 51 %
2009 24-04-2020 22:42:18 15.9 C 51 %
2010 24-04-2020 22:52:18 15.8 C 51 %
2011 24-04-2020 23:02:18 15.8 C 52 %
2012 24-04-2020 23:12:18 15.8 C 52 %
2013 24-04-2020 23:22:17 15.8 C 52 %
2014 24-04-2020 23:33:17 15.7 C 52 %
2015 24-04-2020 23:43:17 15.7 C 53 %
2016 24-04-2020 23:53:17 15.7 C 53 %

Legende:
   Min
   Max


Maximal/Minimal-Werte vom 11.04.2020 - 24.04.2020

Sensor Min Max Avg
Temp
(Aussen-T/F)
-0.9 °C
14-04-2020  06:22:17
33.2 °C
12-04-2020  16:11:17
13.1 °C
Feuchte
(Aussen-T/F)
20 %
11-04-2020  11:01:18
46 %
15-04-2020  07:32:17
27.62 %
Temp
(G-T/H)
6.8 °C
16-04-2020  07:22:17
18.8 °C
17-04-2020  19:12:17
13.35 °C
Feuchte
(G-T/H)
35 %
24-04-2020  17:42:18
68 %
18-04-2020  18:42:18
58.9 %

Die Daten stammen von einer Davis Vantage Pro 2 Wetter-Station und werden unter Linux mit der Software wview2wettercgi und aufbereitet. Alle Angaben erfolgen ohne Gewähr für ihre Vollständigkeit oder Richtigkeit.
Kontakt: Rainer Krienke krienke@uni-koblenz.de . Meine Webseiten an der Uni Koblenz oder privat.
Version: $Revision: 0.78 $